Provisional Data: Young Woman's Creek near North Bend, PA


Please select a monitoring station.
Please select start date.
Please select start date.

Toggle Unit: C/F Toggle Unit: C/F
Sample Time Temperature (C) Temperature (F) Specific Conductivity (mS/cm) pH   Turbidity (NTU+) DO (mg/L)
3/23/2021 12:00:00 AM 6 42.8 0.028 6.79 3.36 12.24
3/23/2021 12:15:00 AM 5.92 42.656 0.029 6.83 3.23 12.27
3/23/2021 12:30:00 AM 5.83 42.494 0.029 6.82 3.35 12.29
3/23/2021 12:45:00 AM 5.75 42.35 0.029 6.8 3.25 12.32
3/23/2021 1:00:00 AM 5.67 42.206 0.029 6.81 3.28 12.35
3/23/2021 1:15:00 AM 5.6 42.08 0.029 6.79 3.38 12.37
3/23/2021 1:30:00 AM 5.53 41.954 0.029 6.78 3.35 12.4
3/23/2021 1:45:00 AM 5.46 41.828 0.029 6.78 3.44 12.43
3/23/2021 2:00:00 AM 5.39 41.702 0.029 6.8 3.37 12.45
3/23/2021 2:15:00 AM 5.32 41.576 0.029 6.8 3.37 12.46
3/23/2021 2:30:00 AM 5.25 41.45 0.029 6.78 3.34 12.49
3/23/2021 2:45:00 AM 5.19 41.342 0.029 6.81 3.46 12.5
3/23/2021 3:00:00 AM 5.13 41.234 0.029 6.79 3.26 12.52
3/23/2021 3:15:00 AM 5.07 41.126 0.029 6.82 3.43 12.54
3/23/2021 3:30:00 AM 5.02 41.036 0.029 6.81 3.37 12.57
3/23/2021 3:45:00 AM 4.96 40.928 0.029 6.8 3.42 12.59
3/23/2021 4:00:00 AM 4.91 40.838 0.029 6.81 3.28 12.61
3/23/2021 4:15:00 AM 4.85 40.73 0.029 6.78 3.28 12.63
3/23/2021 4:30:00 AM 4.8 40.64 0.029 6.79 3.45 12.64
3/23/2021 4:45:00 AM 4.75 40.55 0.029 6.77 3.36 12.66
3/23/2021 5:00:00 AM 4.7 40.46 0.029 6.76 3.34 12.67
3/23/2021 5:15:00 AM 4.65 40.37 0.029 6.76 3.29 12.69
3/23/2021 5:30:00 AM 4.61 40.298 0.029 6.76 3.24 12.7
3/23/2021 5:45:00 AM 4.57 40.226 0.029 6.8 3.1 12.72
3/23/2021 6:00:00 AM 4.52 40.136 0.029 6.79 3.3 12.73
3/23/2021 6:15:00 AM 4.48 40.064 0.029 6.77 3.38 12.74
3/23/2021 6:30:00 AM 4.44 39.992 0.029 6.76 3.28 12.76
3/23/2021 6:45:00 AM 4.4 39.92 0.029 6.78 3.16 12.78
3/23/2021 7:00:00 AM 4.37 39.866 0.029 6.77 3.19 12.79
3/23/2021 7:15:00 AM 4.33 39.794 0.029 6.77 3.08 12.81
3/23/2021 7:30:00 AM 4.3 39.74 0.029 6.76 3.07 12.83
3/23/2021 7:45:00 AM 4.27 39.686 0.029 6.77 3.16 12.85
3/23/2021 8:00:00 AM 4.25 39.65 0.028 6.78 3.1 12.89
3/23/2021 8:15:00 AM 4.23 39.614 0.028 6.78 3.18 12.91
3/23/2021 8:30:00 AM 4.22 39.596 0.028 6.79 3.32 12.93
3/23/2021 8:45:00 AM 4.21 39.578 0.028 6.82 3.22 12.95
3/23/2021 9:00:00 AM 4.2 39.56 0.028 6.8 3.21 12.96
3/23/2021 9:15:00 AM 4.2 39.56 0.028 6.81 3.13 12.97
3/23/2021 9:30:00 AM 4.2 39.56 0.028 6.84 3.01 12.99
3/23/2021 9:45:00 AM 4.22 39.596 0.028 6.84 3.12 12.99
3/23/2021 10:00:00 AM 4.27 39.686 0.028 6.81 3.18 12.99
3/23/2021 10:15:00 AM 4.34 39.812 0.028 6.85 3.08 12.98
3/23/2021 10:30:00 AM 4.42 39.956 0.028 6.85 3.07 12.97
3/23/2021 10:45:00 AM 4.53 40.154 0.028 6.88 3.18 12.94
3/23/2021 11:00:00 AM 4.67 40.406 0.028 6.88 2.99 12.92
3/23/2021 11:15:00 AM 4.82 40.676 0.028 6.86 3.06 12.9
3/23/2021 11:30:00 AM 4.97 40.946 0.028 6.87 3.12 12.85
3/23/2021 11:45:00 AM 5.14 41.252 0.028 6.86 2.98 12.8
3/23/2021 12:00:00 PM 5.34 41.612 0.028 6.87 3.12 12.75
3/23/2021 12:15:00 PM 5.53 41.954 0.028 6.88 3.07 12.7
3/23/2021 12:30:00 PM 5.72 42.296 0.028 6.88 3.05 12.63
3/23/2021 12:45:00 PM 5.95 42.71 0.028 6.86 3.04 12.57
3/23/2021 1:00:00 PM 6.17 43.106 0.028 6.87 3.03 12.5
3/23/2021 1:15:00 PM 6.4 43.52 0.028 6.9 3.05 12.43
3/23/2021 1:30:00 PM 6.55 43.79 0.028 6.89 3.15 12.37
3/23/2021 1:45:00 PM 6.73 44.114 0.028 6.89 3.08 12.31
3/23/2021 2:00:00 PM 6.9 44.42 0.028 6.9 3.06 12.24
3/23/2021 2:15:00 PM 7.02 44.636 0.028 6.88 3.3 12.18
3/23/2021 2:30:00 PM 7.19 44.942 0.028 6.88 3.24 12.14
3/23/2021 2:45:00 PM 7.34 45.212 0.028 6.88 3.15 12.1
3/23/2021 3:00:00 PM 7.45 45.41 0.028 6.86 3.13 12.05
3/23/2021 3:15:00 PM 7.57 45.626 0.027 6.87 3.27 12
3/23/2021 3:30:00 PM 7.67 45.806 0.028 6.91 3.26 11.95
3/23/2021 3:45:00 PM 7.77 45.986 0.027 6.87 3.26 11.92
3/23/2021 4:00:00 PM 7.84 46.112 0.027 6.89 3.3 11.89
3/23/2021 4:15:00 PM 7.94 46.292 0.027 6.84 3.24 11.86
3/23/2021 4:30:00 PM 8 46.4 0.027 6.91 3.12 11.83
3/23/2021 4:45:00 PM 8.05 46.49 0.027 6.83 3.32 11.81
3/23/2021 5:00:00 PM 8.1 46.58 0.027 6.86 3.29 11.78
3/23/2021 5:15:00 PM 8.12 46.616 0.027 6.86 3.18 11.77
3/23/2021 5:30:00 PM 8.13 46.634 0.027 6.86 3.29 11.75
3/23/2021 5:45:00 PM 8.14 46.652 0.027 6.88 3.27 11.74
3/23/2021 6:00:00 PM 8.16 46.688 0.028 6.86 3.36 11.73
3/23/2021 6:15:00 PM 8.15 46.67 0.027 6.82 3.28 11.72
3/23/2021 6:30:00 PM 8.14 46.652 0.028 6.84 3.24 11.7
3/23/2021 6:45:00 PM 8.11 46.598 0.028 6.83 3.21 11.69
3/23/2021 7:00:00 PM 8.08 46.544 0.028 6.81 3.2 11.69
3/23/2021 7:15:00 PM 8.04 46.472 0.028 6.81 3.4 11.66
3/23/2021 7:30:00 PM 7.99 46.382 0.028 6.81 3.36 11.65
3/23/2021 7:45:00 PM 7.94 46.292 0.028 6.81 3.36 11.65
3/23/2021 8:00:00 PM 7.88 46.184 0.028 6.83 3.43 11.65
3/23/2021 8:15:00 PM 7.81 46.058 0.028 6.82 3.49 11.66
3/23/2021 8:30:00 PM 7.75 45.95 0.028 6.75 3.36 11.67
3/23/2021 8:45:00 PM 7.69 45.842 0.028 6.77 3.57 11.68
3/23/2021 9:00:00 PM 7.63 45.734 0.028 6.78 3.49 11.7
3/23/2021 9:15:00 PM 7.56 45.608 0.028 6.82 3.65 11.73
3/23/2021 9:30:00 PM 7.49 45.482 0.028 6.8 3.31 11.75
3/23/2021 9:45:00 PM 7.42 45.356 0.028 6.78 3.33 11.77
3/23/2021 10:00:00 PM 7.34 45.212 0.028 6.8 3.27 11.79
3/23/2021 10:15:00 PM 7.27 45.086 0.028 6.77 3.33 11.81
3/23/2021 10:30:00 PM 7.19 44.942 0.028 6.78 3.39 11.83
3/23/2021 10:45:00 PM 7.12 44.816 0.028 6.77 3.34 11.85
3/23/2021 11:00:00 PM 7.05 44.69 0.028 6.78 3.22 11.87
3/23/2021 11:15:00 PM 6.98 44.564 0.028 6.77 3.38 11.89
3/23/2021 11:30:00 PM 6.91 44.438 0.029 6.77 3.19 11.92
3/23/2021 11:45:00 PM 6.84 44.312 0.028 6.76 3.36 11.94
3/24/2021 12:00:00 AM 6.77 44.186 0.029 6.76 3.5 11.96
3/24/2021 12:15:00 AM 6.7 44.06 0.028 6.76 3.39 11.98
3/24/2021 12:30:00 AM 6.64 43.952 0.029 6.77 3.33 12
3/24/2021 12:45:00 AM 6.58 43.844 0.028 6.8 3.28 12.02
3/24/2021 1:00:00 AM 6.53 43.754 0.028 6.79 3.41 12.04
3/24/2021 1:15:00 AM 6.48 43.664 0.029 6.78 3.47 12.05
3/24/2021 1:30:00 AM 6.43 43.574 0.029 6.77 3.24 12.06
3/24/2021 1:45:00 AM 6.38 43.484 0.029 6.77 3.4 12.08
3/24/2021 2:00:00 AM 6.34 43.412 0.029 6.78 3.37 12.09
3/24/2021 2:15:00 AM 6.3 43.34 0.029 6.78 3.33 12.11
3/24/2021 2:30:00 AM 6.26 43.268 0.029 6.79 3.33 12.12
3/24/2021 2:45:00 AM 6.24 43.232 0.029 6.78 3.39 12.13
3/24/2021 3:00:00 AM 6.21 43.178 0.029 6.8 3.33 12.13
3/24/2021 3:15:00 AM 6.19 43.142 0.029 6.78 3.42 12.14
3/24/2021 3:30:00 AM 6.17 43.106 0.029 6.77 3.22 12.15
3/24/2021 3:45:00 AM 6.15 43.07 0.029 6.79 3.24 12.15
3/24/2021 4:00:00 AM 6.14 43.052 0.029 6.78 3.41 12.16
3/24/2021 4:15:00 AM 6.12 43.016 0.029 6.83 3.27 12.16
3/24/2021 4:30:00 AM 6.11 42.998 0.029 6.79 3.22 12.17
3/24/2021 4:45:00 AM 6.11 42.998 0.029 6.78 3.24 12.17
3/24/2021 5:00:00 AM 6.1 42.98 0.029 6.8 3.39 12.17
3/24/2021 5:15:00 AM 6.1 42.98 0.029 6.77 3.4 12.17
3/24/2021 5:30:00 AM 6.1 42.98 0.029 6.77 3.21 12.16
3/24/2021 5:45:00 AM 6.11 42.998 0.029 6.8 3.18 12.17
3/24/2021 6:00:00 AM 6.11 42.998 0.028 6.8 3.18 12.16
3/24/2021 6:15:00 AM 6.11 42.998 0.029 6.76 3.24 12.16
3/24/2021 6:30:00 AM 6.12 43.016 0.029 6.77 3.4 12.16
3/24/2021 6:45:00 AM 6.13 43.034 0.029 6.77 3.25 12.15
3/24/2021 7:00:00 AM 6.13 43.034 0.028 6.79 3.22 12.15
3/24/2021 7:15:00 AM 6.14 43.052 0.028 6.78 3.36 12.15
3/24/2021 7:30:00 AM 6.16 43.088 0.028 6.77 3.4 12.14
3/24/2021 7:45:00 AM 6.17 43.106 0.028 6.8 3.39 12.15
3/24/2021 8:00:00 AM 6.18 43.124 0.028 6.8 3.52 12.15
3/24/2021 8:15:00 AM 6.2 43.16 0.028 6.79 3.41 12.14
3/24/2021 8:30:00 AM 6.22 43.196 0.028 6.74 3.41 12.14
3/24/2021 8:45:00 AM 6.24 43.232 0.028 6.8 3.52 12.15
3/24/2021 9:00:00 AM 6.26 43.268 0.028 6.8 3.54 12.16
3/24/2021 9:15:00 AM 6.29 43.322 0.028 6.82 3.33 12.16
3/24/2021 9:30:00 AM 6.31 43.358 0.028 6.78 3.46 12.17
3/24/2021 9:45:00 AM 6.34 43.412 0.028 6.83 3.44 12.17
3/24/2021 10:00:00 AM 6.37 43.466 0.028 6.84 3.47 12.17
3/24/2021 10:15:00 AM 6.4 43.52 0.028 6.8 3.49 12.17
3/24/2021 10:30:00 AM 6.44 43.592 0.028 6.81 3.48 12.17
3/24/2021 10:45:00 AM 6.47 43.646 0.028 6.84 3.47 12.16
3/24/2021 11:00:00 AM 6.5 43.7 0.028 6.85 3.46 12.15
3/24/2021 11:15:00 AM 6.53 43.754 0.028 6.83 3.37 12.15
3/24/2021 11:30:00 AM 6.57 43.826 0.028 6.82 3.58 12.15
3/24/2021 11:45:00 AM 6.61 43.898 0.028 6.82 3.68 12.14
3/24/2021 12:00:00 PM 6.66 43.988 0.028 6.85 3.38 12.15
3/24/2021 12:15:00 PM 6.71 44.078 0.028 6.87 3.55 12.14
3/24/2021 12:30:00 PM 6.77 44.186 0.028 6.86 3.59 12.14
3/24/2021 12:45:00 PM 6.84 44.312 0.028 6.9 3.48 12.13
3/24/2021 1:00:00 PM 6.91 44.438 0.028 6.89 3.62 12.11
3/24/2021 1:15:00 PM 6.99 44.582 0.028 6.88 3.65 12.09
3/24/2021 1:30:00 PM 7.06 44.708 0.028 6.93 3.52 12.06
3/24/2021 1:45:00 PM 7.12 44.816 0.028 6.89 3.52 12.05
3/24/2021 2:00:00 PM 7.19 44.942 0.028 6.91 3.51 12.03
3/24/2021 2:15:00 PM 7.24 45.032 0.028 6.94 3.01 12
3/24/2021 2:30:00 PM 7.27 45.086 0.028 6.92 3.41 11.98
3/24/2021 2:45:00 PM 7.3 45.14 0.028 6.9 3.52 11.95
3/24/2021 3:00:00 PM 7.33 45.194 0.028 6.87 3.82 11.94
3/24/2021 3:15:00 PM 7.39 45.302 0.028 6.91 3.49 11.94
3/24/2021 3:30:00 PM 7.44 45.392 0.028 6.88 3.56 11.91
3/24/2021 3:45:00 PM 7.5 45.5 0.028 6.9 3.61 11.89
3/24/2021 4:00:00 PM 7.55 45.59 0.028 6.88 3.44 11.87
3/24/2021 4:15:00 PM 7.59 45.662 0.028 6.88 3.48 11.85
3/24/2021 4:30:00 PM 7.62 45.716 0.028 6.93 3.73 11.83
3/24/2021 4:45:00 PM 7.63 45.734 0.028 6.9 3.6 11.81
3/24/2021 5:00:00 PM 7.66 45.788 0.028 6.85 3.62 11.8
3/24/2021 5:15:00 PM 7.7 45.86 0.028 6.88 3.46 11.78
3/24/2021 5:30:00 PM 7.72 45.896 0.028 6.89 3.52 11.77
3/24/2021 5:45:00 PM 7.75 45.95 0.028 6.87 3.49 11.75
3/24/2021 6:00:00 PM 7.76 45.968 0.028 6.85 3.54 11.73
3/24/2021 6:15:00 PM 7.77 45.986 0.028 6.87 3.61 11.72
3/24/2021 6:30:00 PM 7.79 46.022 0.028 6.84 3.5 11.7
3/24/2021 6:45:00 PM 7.8 46.04 0.028 6.89 3.69 11.68
3/24/2021 7:00:00 PM 7.8 46.04 0.028 6.81 3.66 11.67
3/24/2021 7:15:00 PM 7.81 46.058 0.028 6.84 3.52 11.65
3/24/2021 7:30:00 PM 7.8 46.04 0.028 6.85 3.6 11.63
3/24/2021 7:45:00 PM 7.78 46.004 0.028 6.78 3.61 11.62
3/24/2021 8:00:00 PM 7.77 45.986 0.028 6.81 3.71 11.62
3/24/2021 8:15:00 PM 7.75 45.95 0.028 6.78 3.57 11.62
3/24/2021 8:30:00 PM 7.74 45.932 0.028 6.81 3.67 11.61
3/24/2021 8:45:00 PM 7.72 45.896 0.028 6.8 3.4 11.62
3/24/2021 9:00:00 PM 7.7 45.86 0.028 6.79 3.58 11.62
3/24/2021 9:15:00 PM 7.68 45.824 0.028 6.76 3.59 11.63
3/24/2021 9:30:00 PM 7.66 45.788 0.028 6.78 3.53 11.63
3/24/2021 9:45:00 PM 7.64 45.752 0.028 6.8 3.58 11.64
3/24/2021 10:00:00 PM 7.62 45.716 0.028 6.8 3.75 11.65
3/24/2021 10:15:00 PM 7.6 45.68 0.028 6.82 3.85 11.66
3/24/2021 10:30:00 PM 7.58 45.644 0.028 6.81 3.54 11.67
3/24/2021 10:45:00 PM 7.56 45.608 0.028 6.78 3.73 11.68
3/24/2021 11:00:00 PM 7.54 45.572 0.028 6.81 3.63 11.68
3/24/2021 11:15:00 PM 7.52 45.536 0.028 6.78 3.57 11.69
3/24/2021 11:30:00 PM 7.5 45.5 0.028 6.78 3.81 11.69
3/24/2021 11:45:00 PM 7.48 45.464 0.028 6.76 3.82 11.7
3/25/2021 12:00:00 AM 7.46 45.428 0.028 6.79 3.52 11.71
3/25/2021 12:15:00 AM 7.45 45.41 0.029 6.74 3.42 11.71
3/25/2021 12:30:00 AM 7.43 45.374 0.029 6.79 3.55 11.72
3/25/2021 12:45:00 AM 7.42 45.356 0.029 6.79 3.39 11.72
3/25/2021 1:00:00 AM 7.4 45.32 0.028 6.76 3.5 11.73
3/25/2021 1:15:00 AM 7.39 45.302 0.028 6.77 3.52 11.73
3/25/2021 1:30:00 AM 7.38 45.284 0.028 6.76 3.76 11.73
3/25/2021 1:45:00 AM 7.36 45.248 0.029 6.78 3.61 11.73
3/25/2021 2:00:00 AM 7.35 45.23 0.029 6.78 3.69 11.74
3/25/2021 2:15:00 AM 7.34 45.212 0.029 6.8 3.61 11.74
3/25/2021 2:30:00 AM 7.33 45.194 0.029 6.74 3.6 11.74
3/25/2021 2:45:00 AM 7.32 45.176 0.029 6.76 3.57 11.74
3/25/2021 3:00:00 AM 7.31 45.158 0.029 6.77 3.6 11.75
3/25/2021 3:15:00 AM 7.3 45.14 0.029 6.76 3.64 11.76
3/25/2021 3:30:00 AM 7.29 45.122 0.028 6.77 3.72 11.75
3/25/2021 3:45:00 AM 7.29 45.122 0.028 6.75 3.63 11.76
3/25/2021 4:00:00 AM 7.28 45.104 0.029 6.79 3.71 11.76
3/25/2021 4:15:00 AM 7.27 45.086 0.028 6.75 3.71 11.76
3/25/2021 4:30:00 AM 7.26 45.068 0.028 6.78 3.61 11.76
3/25/2021 4:45:00 AM 7.25 45.05 0.029 6.76 3.53 11.77
3/25/2021 5:00:00 AM 7.25 45.05 0.028 6.73 3.68 11.77
3/25/2021 5:15:00 AM 7.24 45.032 0.029 6.74 3.65 11.77
3/25/2021 5:30:00 AM 7.24 45.032 0.028 6.73 3.74 11.77
3/25/2021 5:45:00 AM 7.23 45.014 0.029 6.71 3.6 11.77
3/25/2021 6:00:00 AM 7.23 45.014 0.028 6.77 3.59 11.78
3/25/2021 6:15:00 AM 7.22 44.996 0.028 6.78 3.65 11.78
3/25/2021 6:30:00 AM 7.22 44.996 0.029 6.76 3.6 11.78
3/25/2021 6:45:00 AM 7.22 44.996 0.028 6.73 3.5 11.78
3/25/2021 7:00:00 AM 7.21 44.978 0.028 6.76 3.6 11.79
3/25/2021 7:15:00 AM 7.21 44.978 0.028 6.77 3.74 11.79
3/25/2021 7:30:00 AM 7.21 44.978 0.028 6.74 3.75 11.8
3/25/2021 7:45:00 AM 7.21 44.978 0.028 6.74 3.69 11.81
3/25/2021 8:00:00 AM 7.22 44.996 0.028 6.74 3.63 11.83
3/25/2021 8:15:00 AM 7.22 44.996 0.028 6.79 3.66 11.85
3/25/2021 8:30:00 AM 7.23 45.014 0.028 6.79 3.53 11.87
3/25/2021 8:45:00 AM 7.25 45.05 0.028 6.78 3.56 11.89
3/25/2021 9:00:00 AM 7.27 45.086 0.028 6.81 3.59 11.9
3/25/2021 9:15:00 AM 7.3 45.14 0.028 6.78 3.63 11.92
3/25/2021 9:30:00 AM 7.34 45.212 0.028 6.79 3.66 11.94
3/25/2021 9:45:00 AM 7.38 45.284 0.028 6.84 3.5 11.95
3/25/2021 10:00:00 AM 7.44 45.392 0.028 6.87 3.63 11.96
3/25/2021 10:15:00 AM 7.51 45.518 0.028 6.87 3.47 11.95
3/25/2021 10:30:00 AM 7.6 45.68 0.028 6.88 3.65 11.94
3/25/2021 10:45:00 AM 7.66 45.788 0.028 6.9 3.49 11.93
3/25/2021 11:00:00 AM 7.74 45.932 0.028 6.87 3.49 11.9
3/25/2021 11:15:00 AM 7.83 46.094 0.028 6.89 3.47 11.88
3/25/2021 11:30:00 AM 7.95 46.31 0.028 6.9 3.56 11.86
3/25/2021 11:45:00 AM 8.09 46.562 0.028 6.92 3.57 11.83
3/25/2021 12:00:00 PM 8.25 46.85 0.028 6.92 3.53 11.78
3/25/2021 12:15:00 PM 8.45 47.21 0.028 6.91 3.67 11.73
3/25/2021 12:30:00 PM 8.61 47.498 0.028 6.89 3.59 11.7
3/25/2021 12:45:00 PM 8.73 47.714 0.028 6.92 3.53 11.67
3/25/2021 1:00:00 PM 8.9 48.02 0.028 6.9 3.68 11.62
3/25/2021 1:15:00 PM 9.1 48.38 0.027 6.91 3.4 11.56
3/25/2021 1:30:00 PM 9.28 48.704 0.028 6.95 3.45 11.51
3/25/2021 1:45:00 PM 9.46 49.028 0.027 6.97 3.57 11.46
3/25/2021 2:00:00 PM 9.63 49.334 0.027 6.91 3.59 11.39
3/25/2021 2:15:00 PM 9.79 49.622 0.027 6.94 3.69 11.34
3/25/2021 2:30:00 PM 9.96 49.928 0.027 6.96 3.59 11.31
3/25/2021 2:45:00 PM 10.1 50.18 0.027 6.96 3.77 11.26
3/25/2021 3:00:00 PM 10.22 50.396 0.027 6.96 3.44 11.21
3/25/2021 3:15:00 PM 10.31 50.558 0.027 6.96 3.46 11.17
3/25/2021 3:30:00 PM 10.39 50.702 0.027 6.91 3.53 11.14
3/25/2021 3:45:00 PM 10.45 50.81 0.027 6.92 3.57 11.11
3/25/2021 4:00:00 PM 10.49 50.882 0.027 6.95 3.56 11.09
3/25/2021 4:15:00 PM 10.53 50.954 0.027 6.99 3.77 11.07
3/25/2021 4:30:00 PM 10.57 51.026 0.027 6.92 3.49 11.05
3/25/2021 4:45:00 PM 10.58 51.044 0.027 6.93 3.62 11.03
3/25/2021 5:00:00 PM 10.59 51.062 0.027 6.92 3.71 11.01
3/25/2021 5:15:00 PM 10.59 51.062 0.027 6.94 3.75 11
3/25/2021 5:30:00 PM 10.58 51.044 0.027 6.89 3.61 11
3/25/2021 5:45:00 PM 10.55 50.99 0.027 6.96 3.75 10.99
3/25/2021 6:00:00 PM 10.51 50.918 0.027 6.88 3.86 10.97
3/25/2021 6:15:00 PM 10.47 50.846 0.027 6.96 3.72 10.96
3/25/2021 6:30:00 PM 10.42 50.756 0.028 6.86 3.64 10.96
3/25/2021 6:45:00 PM 10.37 50.666 0.028 6.86 3.78 10.94
3/25/2021 7:00:00 PM 10.31 50.558 0.028 6.87 3.7 10.93
3/25/2021 7:15:00 PM 10.24 50.432 0.028 6.86 3.64 10.93
3/25/2021 7:30:00 PM 10.18 50.324 0.028 6.84 3.79 10.93
3/25/2021 7:45:00 PM 10.12 50.216 0.028 6.83 3.77 10.93
3/25/2021 8:00:00 PM 10.06 50.108 0.028 6.84 3.84 10.94
3/25/2021 8:15:00 PM 9.99 49.982 0.028 6.81 3.98 10.95
3/25/2021 8:30:00 PM 9.91 49.838 0.028 6.8 3.76 10.97
3/25/2021 8:45:00 PM 9.85 49.73 0.028 6.83 3.9 10.98
3/25/2021 9:00:00 PM 9.79 49.622 0.028 6.85 3.68 11
3/25/2021 9:15:00 PM 9.73 49.514 0.028 6.83 3.73 11.01
3/25/2021 9:30:00 PM 9.67 49.406 0.028 6.78 3.88 11.03
3/25/2021 9:45:00 PM 9.61 49.298 0.028 6.83 3.92 11.04
3/25/2021 10:00:00 PM 9.55 49.19 0.028 6.82 3.64 11.05
3/25/2021 10:15:00 PM 9.5 49.1 0.028 6.83 3.83 11.06
3/25/2021 10:30:00 PM 9.45 49.01 0.028 6.82 3.89 11.09
3/25/2021 10:45:00 PM 9.39 48.902 0.028 6.8 3.94 11.1
3/25/2021 11:00:00 PM 9.34 48.812 0.028 6.82 3.72 11.11
3/25/2021 11:15:00 PM 9.29 48.722 0.028 6.8 3.94 11.12
3/25/2021 11:30:00 PM 9.24 48.632 0.028 6.81 3.88 11.14
3/25/2021 11:45:00 PM 9.21 48.578 0.028 6.81 3.77 11.14
3/26/2021 12:00:00 AM 9.17 48.506 0.028 6.81 3.84 11.15
3/26/2021 12:15:00 AM 9.14 48.452 0.028 6.81 3.74 11.16
3/26/2021 12:30:00 AM 9.1 48.38 0.028 6.83 3.82 11.16
3/26/2021 12:45:00 AM 9.06 48.308 0.028 6.81 4.25 11.17
3/26/2021 1:00:00 AM 9.02 48.236 0.029 6.82 3.7 11.18
3/26/2021 1:15:00 AM 8.98 48.164 0.028 6.79 3.7 11.19
3/26/2021 1:30:00 AM 8.95 48.11 0.029 6.82 3.71 11.19
3/26/2021 1:45:00 AM 8.91 48.038 0.029 6.81 3.67 11.2
3/26/2021 2:00:00 AM 8.88 47.984 0.029 6.82 3.72 11.21
3/26/2021 2:15:00 AM 8.86 47.948 0.029 6.79 3.79 11.21
3/26/2021 2:30:00 AM 8.84 47.912 0.029 6.79 3.8 11.22
3/26/2021 2:45:00 AM 8.81 47.858 0.028 6.8 3.69 11.23
3/26/2021 3:00:00 AM 8.78 47.804 0.029 6.8 3.65 11.24
3/26/2021 3:15:00 AM 8.75 47.75 0.029 6.79 3.78 11.24
3/26/2021 3:30:00 AM 8.74 47.732 0.029 6.79 3.81 11.24
3/26/2021 3:45:00 AM 8.73 47.714 0.029 6.77 3.66 11.24
3/26/2021 4:00:00 AM 8.73 47.714 0.028 6.84 3.75 11.23
3/26/2021 4:15:00 AM 8.72 47.696 0.028 6.77 3.75 11.23
3/26/2021 4:30:00 AM 8.72 47.696 0.028 6.82 3.89 11.23
3/26/2021 4:45:00 AM 8.7 47.66 0.028 6.78 3.62 11.22
3/26/2021 5:00:00 AM 8.67 47.606 0.028 6.78 3.83 11.23
3/26/2021 5:15:00 AM 8.66 47.588 0.029 6.8 3.51 11.23
3/26/2021 5:30:00 AM 8.65 47.57 0.029 6.79 3.49 11.23
3/26/2021 5:45:00 AM 8.63 47.534 0.028 6.8 3.59 11.23
3/26/2021 6:00:00 AM 8.63 47.534 0.028 6.81 3.79 11.23
3/26/2021 6:15:00 AM 8.63 47.534 0.028 6.81 3.82 11.23
3/26/2021 6:30:00 AM 8.62 47.516 0.028 6.83 3.57 11.23
3/26/2021 6:45:00 AM 8.62 47.516 0.028 6.82 3.64 11.23
3/26/2021 7:00:00 AM 8.63 47.534 0.028 6.77 3.73 11.22
3/26/2021 7:15:00 AM 8.63 47.534 0.028 6.79 3.69 11.23
3/26/2021 7:30:00 AM 8.63 47.534 0.028 6.83 3.69 11.23
3/26/2021 7:45:00 AM 8.63 47.534 0.028 6.85 3.57 11.24
3/26/2021 8:00:00 AM 8.61 47.498 0.028 6.81 3.66 11.26
3/26/2021 8:15:00 AM 8.62 47.516 0.028 6.82 3.79 11.29
3/26/2021 8:30:00 AM 8.67 47.606 0.028 6.84 3.62 11.32
3/26/2021 8:45:00 AM 8.72 47.696 0.028 6.86 3.51 11.33
3/26/2021 9:00:00 AM 8.77 47.786 0.028 6.88 3.66 11.33
3/26/2021 9:15:00 AM 8.81 47.858 0.028 6.84 3.52 11.33
3/26/2021 9:30:00 AM 8.86 47.948 0.028 6.89 3.52 11.32
3/26/2021 9:45:00 AM 8.91 48.038 0.028 6.93 3.68 11.33
3/26/2021 10:00:00 AM 8.96 48.128 0.028 6.87 3.72 11.32
3/26/2021 10:15:00 AM 9.01 48.218 0.028 6.9 3.6 11.31
3/26/2021 10:30:00 AM 9.07 48.326 0.028 6.91 3.71 11.3
3/26/2021 10:45:00 AM 9.13 48.434 0.028 6.93 3.67 11.28
3/26/2021 11:00:00 AM 9.17 48.506 0.028 6.88 3.62 11.26
3/26/2021 11:15:00 AM 9.22 48.596 0.028 6.94 3.84 11.27
3/26/2021 11:30:00 AM 9.28 48.704 0.028 6.91 3.86 11.28
3/26/2021 11:45:00 AM 9.35 48.83 0.028 6.91 3.72 11.28
3/26/2021 12:00:00 PM 9.4 48.92 0.028 6.92 3.58 11.27
3/26/2021 12:15:00 PM 9.47 49.046 0.028 6.95 3.67 11.25
3/26/2021 12:30:00 PM 9.51 49.118 0.028 6.89 3.83 11.24
3/26/2021 12:45:00 PM 9.56 49.208 0.028 6.91 3.64 11.23
3/26/2021 1:00:00 PM 9.59 49.262 0.028 6.95 3.84 11.21
3/26/2021 1:15:00 PM 9.62 49.316 0.028 6.93 3.76 11.21
3/26/2021 1:30:00 PM 9.7 49.46 0.028 6.91 3.79 11.22
3/26/2021 1:45:00 PM 9.77 49.586 0.028 6.96 4.02 11.22
3/26/2021 2:00:00 PM 9.79 49.622 0.028 6.95 3.72 11.2
3/26/2021 2:15:00 PM 9.8 49.64 0.028 6.96 3.75 11.19
3/26/2021 2:30:00 PM 9.79 49.622 0.028 6.91 3.72 11.18
3/26/2021 2:45:00 PM 9.79 49.622 0.028 6.93 3.74 11.19
3/26/2021 3:00:00 PM 9.79 49.622 0.028 6.92 3.7 11.2
3/26/2021 3:15:00 PM 9.84 49.712 0.028 6.92 3.86 11.21
3/26/2021 3:30:00 PM 9.86 49.748 0.028 6.91 3.8 11.21
3/26/2021 3:45:00 PM 9.9 49.82 0.027 6.88 3.73 11.21
3/26/2021 4:00:00 PM 9.87 49.766 0.028 6.93 3.94 11.2
3/26/2021 4:15:00 PM 9.84 49.712 0.028 6.92 3.79 11.21
3/26/2021 4:30:00 PM 9.83 49.694 0.028 6.89 3.77 11.23
3/26/2021 4:45:00 PM 9.83 49.694 0.028 6.96 3.69 11.23
3/26/2021 5:00:00 PM 9.84 49.712 0.028 6.91 3.7 11.22
3/26/2021 5:15:00 PM 9.83 49.694 0.028 6.93 3.78 11.21
3/26/2021 5:30:00 PM 9.8 49.64 0.028 6.91 3.78 11.2
3/26/2021 5:45:00 PM 9.75 49.55 0.028 6.95 3.8 11.2
3/26/2021 6:00:00 PM 9.7 49.46 0.028 6.9 3.67 11.18
3/26/2021 6:15:00 PM 9.63 49.334 0.028 6.87 3.84 11.17
3/26/2021 6:30:00 PM 9.55 49.19 0.028 6.86 3.7 11.18
3/26/2021 6:45:00 PM 9.48 49.064 0.028 6.84 3.71 11.19
3/26/2021 7:00:00 PM 9.4 48.92 0.028 6.83 3.75 11.2
3/26/2021 7:15:00 PM 9.31 48.758 0.028 6.87 3.72 11.21
3/26/2021 7:30:00 PM 9.23 48.614 0.028 6.84 3.76 11.22
3/26/2021 7:45:00 PM 9.16 48.488 0.028 6.81 3.77 11.23
3/26/2021 8:00:00 PM 9.09 48.362 0.028 6.84 3.83 11.24
3/26/2021 8:15:00 PM 9.02 48.236 0.028 6.81 3.7 11.25
3/26/2021 8:30:00 PM 8.94 48.092 0.028 6.82 3.69 11.27
3/26/2021 8:45:00 PM 8.87 47.966 0.028 6.81 3.73 11.31
3/26/2021 9:00:00 PM 8.8 47.84 0.028 6.85 3.67 11.32
3/26/2021 9:15:00 PM 8.73 47.714 0.028 6.82 3.79 11.35
3/26/2021 9:30:00 PM 8.67 47.606 0.028 6.82 3.61 11.37
3/26/2021 9:45:00 PM 8.61 47.498 0.028 6.83 3.65 11.39
3/26/2021 10:00:00 PM 8.55 47.39 0.028 6.81 3.66 11.4
3/26/2021 10:15:00 PM 8.49 47.282 0.029 6.81 3.71 11.42
3/26/2021 10:30:00 PM 8.43 47.174 0.028 6.81 3.63 11.43
3/26/2021 10:45:00 PM 8.38 47.084 0.028 6.78 3.6 11.45
3/26/2021 11:00:00 PM 8.34 47.012 0.028 6.8 3.67 11.47
3/26/2021 11:15:00 PM 8.29 46.922 0.028 6.79 3.75 11.47
3/26/2021 11:30:00 PM 8.25 46.85 0.028 6.83 3.69 11.5
3/26/2021 11:45:00 PM 8.21 46.778 0.029 6.85 3.72 11.52
3/27/2021 12:00:00 AM 8.17 46.706 0.029 6.8 3.66 11.52
3/27/2021 12:15:00 AM 8.13 46.634 0.029 6.8 3.58 11.54
3/27/2021 12:30:00 AM 8.1 46.58 0.029 6.78 3.65 11.55
3/27/2021 12:45:00 AM 8.07 46.526 0.029 6.79 3.55 11.55
3/27/2021 1:00:00 AM 8.03 46.454 0.029 6.81 3.62 11.56
3/27/2021 1:15:00 AM 8.01 46.418 0.029 6.83 3.66 11.57
3/27/2021 1:30:00 AM 7.98 46.364 0.029 6.76 3.67 11.57
3/27/2021 1:45:00 AM 7.95 46.31 0.029 6.83 3.62 11.59
3/27/2021 2:00:00 AM 7.92 46.256 0.029 6.77 3.58 11.59
3/27/2021 2:15:00 AM 7.9 46.22 0.029 6.8 3.71 11.59
3/27/2021 2:30:00 AM 7.88 46.184 0.029 6.82 3.72 11.6
3/27/2021 2:45:00 AM 7.85 46.13 0.029 6.82 3.56 11.61
3/27/2021 3:00:00 AM 7.83 46.094 0.029 6.82 3.5 11.61
3/27/2021 3:15:00 AM 7.81 46.058 0.029 6.79 3.5 11.62
3/27/2021 3:30:00 AM 7.79 46.022 0.029 6.82 3.66 11.63
3/27/2021 3:45:00 AM 7.77 45.986 0.029 6.82 3.54 11.63
3/27/2021 4:00:00 AM 7.75 45.95 0.029 6.79 3.52 11.63
3/27/2021 4:15:00 AM 7.74 45.932 0.029 6.78 3.63 11.64
3/27/2021 4:30:00 AM 7.72 45.896 0.029 6.78 3.56 11.64
3/27/2021 4:45:00 AM 7.7 45.86 0.029 6.79 3.43 11.65
3/27/2021 5:00:00 AM 7.68 45.824 0.029 6.77 3.63 11.66
3/27/2021 5:15:00 AM 7.67 45.806 0.029 6.81 3.58 11.66
3/27/2021 5:30:00 AM 7.65 45.77 0.029 6.79 3.64 11.67
3/27/2021 5:45:00 AM 7.63 45.734 0.029 6.81 3.58 11.67
3/27/2021 6:00:00 AM 7.61 45.698 0.029 6.78 3.62 11.68
3/27/2021 6:15:00 AM 7.59 45.662 0.029 6.75 3.92 11.69
3/27/2021 6:30:00 AM 7.58 45.644 0.029 6.79 3.65 11.7
3/27/2021 6:45:00 AM 7.56 45.608 0.029 6.8 3.55 11.7
3/27/2021 7:00:00 AM 7.54 45.572 0.029 6.77 3.53 11.71
3/27/2021 7:15:00 AM 7.52 45.536 0.029 6.81 3.62 11.73
3/27/2021 7:30:00 AM 7.51 45.518 0.029 6.83 3.77 11.75
3/27/2021 7:45:00 AM 7.5 45.5 0.029 6.8 3.5 11.77
3/27/2021 8:00:00 AM 7.48 45.464 0.029 6.83 3.64 11.8
3/27/2021 8:15:00 AM 7.49 45.482 0.029 6.85 3.67 11.84
3/27/2021 8:30:00 AM 7.49 45.482 0.029 6.85 3.66 11.87
3/27/2021 8:45:00 AM 7.51 45.518 0.029 6.86 3.53 11.89
3/27/2021 9:00:00 AM 7.5 45.5 0.029 6.88 3.58 11.89
3/27/2021 9:15:00 AM 7.49 45.482 0.029 6.86 3.56 11.88
3/27/2021 9:30:00 AM 7.49 45.482 0.029 6.86 3.55 11.89
3/27/2021 9:45:00 AM 7.53 45.554 0.029 6.88 3.35 11.91
3/27/2021 10:00:00 AM 7.58 45.644 0.028 6.92 3.5 11.92
3/27/2021 10:15:00 AM 7.64 45.752 0.028 6.94 3.42 11.93
3/27/2021 10:30:00 AM 7.71 45.878 0.028 6.88 3.34 11.91
3/27/2021 10:45:00 AM 7.79 46.022 0.028 6.92 3.47 11.9
3/27/2021 11:00:00 AM 7.87 46.166 0.028 6.95 3.43 11.9
3/27/2021 11:15:00 AM 7.96 46.328 0.028 6.91 3.39 11.89
3/27/2021 11:30:00 AM 8.08 46.544 0.028 6.96 3.71 11.85
3/27/2021 11:45:00 AM 8.21 46.778 0.028 6.97 3.75 11.82
3/27/2021 12:00:00 PM 8.29 46.922 0.028 6.97 3.72 11.77
3/27/2021 12:15:00 PM 8.5 47.3 0.028 6.98 3.58 11.75
3/27/2021 12:30:00 PM 8.69 47.642 0.028 6.94 3.6 11.7
3/27/2021 12:45:00 PM 8.92 48.056 0.028 6.96 3.48 11.65
3/27/2021 1:00:00 PM 9.14 48.452 0.028 6.95 3.42 11.59
3/27/2021 1:15:00 PM 9.3 48.74 0.028 6.97 3.52 11.54
3/27/2021 1:30:00 PM 9.43 48.974 0.028 6.96 3.39 11.51
3/27/2021 1:45:00 PM 9.58 49.244 0.028 6.95 3.4 11.45
3/27/2021 2:00:00 PM 9.71 49.478 0.028 7 3.38 11.42
3/27/2021 2:15:00 PM 9.83 49.694 0.028 6.97 3.5 11.39
3/27/2021 2:30:00 PM 9.94 49.892 0.028 6.98 3.47 11.35
3/27/2021 2:45:00 PM 10.08 50.144 0.028 6.97 3.43 11.31
3/27/2021 3:00:00 PM 10.19 50.342 0.028 6.98 3.79 11.25
3/27/2021 3:15:00 PM 10.27 50.486 0.028 6.97 3.65 11.22
3/27/2021 3:30:00 PM 10.35 50.63 0.028 6.97 3.56 11.18
3/27/2021 3:45:00 PM 10.42 50.756 0.028 6.98 3.55 11.16
3/27/2021 4:00:00 PM 10.47 50.846 0.028 6.96 3.58 11.14
3/27/2021 4:15:00 PM 10.5 50.9 0.028 7.02 3.61 11.11
3/27/2021 4:30:00 PM 10.54 50.972 0.028 6.98 3.58 11.1
3/27/2021 4:45:00 PM 10.56 51.008 0.028 7 3.56 11.08
3/27/2021 5:00:00 PM 10.58 51.044 0.028 6.99 3.59 11.07
3/27/2021 5:15:00 PM 10.59 51.062 0.028 6.97 3.76 11.05
3/27/2021 5:30:00 PM 10.57 51.026 0.028 6.95 3.65 11.04
3/27/2021 5:45:00 PM 10.55 50.99 0.028 6.99 3.73 11.02
3/27/2021 6:00:00 PM 10.51 50.918 0.028 6.91 3.54 11.01
3/27/2021 6:15:00 PM 10.45 50.81 0.028 6.96 3.51 10.99
3/27/2021 6:30:00 PM 10.38 50.684 0.028 6.94 3.46 10.98
3/27/2021 6:45:00 PM 10.32 50.576 0.028 6.92 3.6 10.97
3/27/2021 7:00:00 PM 10.24 50.432 0.028 6.92 3.7 10.97
3/27/2021 7:15:00 PM 10.17 50.306 0.028 6.89 3.84 10.97
3/27/2021 7:30:00 PM 10.1 50.18 0.028 6.87 3.74 10.98
3/27/2021 7:45:00 PM 10.03 50.054 0.028 6.88 3.68 10.98
3/27/2021 8:00:00 PM 9.95 49.91 0.028 6.86 3.9 10.99
3/27/2021 8:15:00 PM 9.86 49.748 0.028 6.85 3.93 10.99
3/27/2021 8:30:00 PM 9.78 49.604 0.028 6.87 3.81 11.01
3/27/2021 8:45:00 PM 9.69 49.442 0.028 6.85 3.67 11.03
3/27/2021 9:00:00 PM 9.6 49.28 0.028 6.82 3.74 11.04
3/27/2021 9:15:00 PM 9.51 49.118 0.028 6.83 3.8 11.08
3/27/2021 9:30:00 PM 9.42 48.956 0.029 6.84 3.69 11.11
3/27/2021 9:45:00 PM 9.33 48.794 0.029 6.88 3.59 11.13
3/27/2021 10:00:00 PM 9.24 48.632 0.029 6.88 3.69 11.15
3/27/2021 10:15:00 PM 9.15 48.47 0.029 6.83 3.62 11.18
3/27/2021 10:30:00 PM 9.06 48.308 0.029 6.85 3.52 11.19
3/27/2021 10:45:00 PM 8.98 48.164 0.029 6.85 3.79 11.21
3/27/2021 11:00:00 PM 8.9 48.02 0.029 6.84 3.82 11.24
3/27/2021 11:15:00 PM 8.81 47.858 0.029 6.84 3.81 11.26
3/27/2021 11:30:00 PM 8.74 47.732 0.029 6.88 3.79 11.29
3/27/2021 11:45:00 PM 8.65 47.57 0.029 6.85 4.04 11.31
3/28/2021 12:00:00 AM 8.57 47.426 0.029 6.83 3.63 11.33
3/28/2021 12:15:00 AM 8.5 47.3 0.029 6.82 3.7 11.35
3/28/2021 12:30:00 AM 8.43 47.174 0.029 6.83 3.81 11.36
3/28/2021 12:45:00 AM 8.35 47.03 0.029 6.88 3.66 11.38
3/28/2021 1:00:00 AM 8.28 46.904 0.029 6.85 3.47 11.4
3/28/2021 1:15:00 AM 8.21 46.778 0.029 6.82 3.85 11.42
3/28/2021 1:30:00 AM 8.14 46.652 0.029 6.84 3.8 11.44
3/28/2021 1:45:00 AM 8.07 46.526 0.029 6.81 3.66 11.47
3/28/2021 2:00:00 AM 8.01 46.418 0.029 6.84 3.56 11.47
3/28/2021 2:15:00 AM 7.94 46.292 0.029 6.83 3.89 11.49
3/28/2021 2:30:00 AM 7.88 46.184 0.029 6.82 3.52 11.51
3/28/2021 2:45:00 AM 7.82 46.076 0.029 6.81 3.67 11.52
3/28/2021 3:00:00 AM 7.76 45.968 0.029 6.85 3.61 11.53
3/28/2021 3:15:00 AM 7.71 45.878 0.029 6.81 3.5 11.54
3/28/2021 3:30:00 AM 7.66 45.788 0.029 6.83 3.59 11.56
3/28/2021 3:45:00 AM 7.6 45.68 0.029 6.85 3.8 11.58
3/28/2021 4:00:00 AM 7.56 45.608 0.029 6.84 3.61 11.59
3/28/2021 4:15:00 AM 7.51 45.518 0.029 6.79 3.43 11.6
3/28/2021 4:30:00 AM 7.47 45.446 0.029 6.81 3.62 11.61
3/28/2021 4:45:00 AM 7.42 45.356 0.029 6.84 3.55 11.62
3/28/2021 5:00:00 AM 7.39 45.302 0.029 6.84 3.55 11.63
3/28/2021 5:15:00 AM 7.36 45.248 0.029 6.82 3.69 11.63
3/28/2021 5:30:00 AM 7.33 45.194 0.029 6.83 3.78 11.64
3/28/2021 5:45:00 AM 7.3 45.14 0.029 6.83 3.4 11.65
3/28/2021 6:00:00 AM 7.27 45.086 0.029 6.83 3.56 11.65
3/28/2021 6:15:00 AM 7.25 45.05 0.029 6.83 3.58 11.66
3/28/2021 6:30:00 AM 7.23 45.014 0.029 6.82 3.54 11.67
3/28/2021 6:45:00 AM 7.21 44.978 0.029 6.81 3.39 11.67
3/28/2021 7:00:00 AM 7.2 44.96 0.029 6.83 3.52 11.67
3/28/2021 7:15:00 AM 7.19 44.942 0.029 6.86 3.57 11.68
3/28/2021 7:30:00 AM 7.19 44.942 0.029 6.84 3.32 11.68
3/28/2021 7:45:00 AM 7.19 44.942 0.029 6.81 3.43 11.68
3/28/2021 8:00:00 AM 7.2 44.96 0.029 6.84 3.43 11.7
3/28/2021 8:15:00 AM 7.2 44.96 0.029 6.85 3.41 11.7
3/28/2021 8:30:00 AM 7.21 44.978 0.029 6.85 3.44 11.7
3/28/2021 8:45:00 AM 7.22 44.996 0.029 6.84 3.58 11.68
3/28/2021 9:00:00 AM 7.23 45.014 0.029 6.83 3.53 11.68
3/28/2021 9:15:00 AM 7.25 45.05 0.029 6.86 3.37 11.68
3/28/2021 9:30:00 AM 7.27 45.086 0.029 6.84 3.55 11.68
3/28/2021 9:45:00 AM 7.29 45.122 0.029 6.86 3.47 11.67
3/28/2021 10:00:00 AM 7.32 45.176 0.029 6.83 3.53 11.66
3/28/2021 10:15:00 AM 7.37 45.266 0.029 6.87 3.32 11.66
3/28/2021 10:30:00 AM 7.4 45.32 0.029 6.84 3.37 11.64
3/28/2021 10:45:00 AM 7.44 45.392 0.029 6.83 3.45 11.64
3/28/2021 11:00:00 AM 7.48 45.464 0.029 6.85 3.59 11.63
3/28/2021 11:15:00 AM 7.52 45.536 0.029 6.88 3.6 11.63
3/28/2021 11:30:00 AM 7.56 45.608 0.029 6.86 3.34 11.6
3/28/2021 11:45:00 AM 7.61 45.698 0.029 6.88 3.54 11.6
3/28/2021 12:00:00 PM 7.65 45.77 0.029 6.93 3.63 11.59
3/28/2021 12:15:00 PM 7.69 45.842 0.029 6.88 3.42 11.58
3/28/2021 12:30:00 PM 7.75 45.95 0.029 6.9 3.71 11.58
3/28/2021 12:45:00 PM 7.79 46.022 0.029 6.91 3.45 11.57
3/28/2021 1:00:00 PM 7.84 46.112 0.029 6.92 3.48 11.55
3/28/2021 1:15:00 PM 7.88 46.184 0.029 6.91 3.49 11.54
3/28/2021 1:30:00 PM 7.94 46.292 0.029 6.9 3.43 11.53
3/28/2021 1:45:00 PM 7.98 46.364 0.029 6.92 3.35 11.5
3/28/2021 2:00:00 PM 8.03 46.454 0.028 6.9 3.45 11.49
3/28/2021 2:15:00 PM 8.08 46.544 0.029 6.91 3.58 11.46
3/28/2021 2:30:00 PM 8.14 46.652 0.028 6.92 3.68 11.45
3/28/2021 2:45:00 PM 8.22 46.796 0.028 6.91 3.9 11.42
3/28/2021 3:00:00 PM 8.27 46.886 0.028 6.9 3.64 11.42
3/28/2021 3:15:00 PM 8.29 46.922 0.028 6.92 3.61 11.39
3/28/2021 3:30:00 PM 8.33 46.994 0.028 6.93 3.67 11.37
3/28/2021 3:45:00 PM 8.37 47.066 0.028 6.93 3.62 11.37
3/28/2021 4:00:00 PM 8.41 47.138 0.028 6.94 3.71 11.39
3/28/2021 4:15:00 PM 8.44 47.192 0.028 6.93 3.65 11.38
3/28/2021 4:30:00 PM 8.46 47.228 0.028 6.9 3.65 11.36
3/28/2021 4:45:00 PM 8.49 47.282 0.028 6.92 3.74 11.39
3/28/2021 5:00:00 PM 8.52 47.336 0.028 6.93 3.84 11.4
3/28/2021 5:15:00 PM 8.55 47.39 0.028 6.95 3.92 11.4
3/28/2021 5:30:00 PM 8.57 47.426 0.028 6.93 3.78 11.41
3/28/2021 5:45:00 PM 8.59 47.462 0.028 6.95 3.66 11.41
3/28/2021 6:00:00 PM 8.61 47.498 0.028 6.94 3.83 11.38
3/28/2021 6:15:00 PM 8.61 47.498 0.028 6.89 3.94 11.36
3/28/2021 6:30:00 PM 8.6 47.48 0.028 6.86 4.13 11.35
3/28/2021 6:45:00 PM 8.6 47.48 0.028 6.88 3.86 11.32
3/28/2021 7:00:00 PM 8.59 47.462 0.028 6.89 4.01 11.32
3/28/2021 7:15:00 PM 8.57 47.426 0.028 6.86 4.19 11.3
3/28/2021 7:30:00 PM 8.55 47.39 0.028 6.88 4.15 11.28
3/28/2021 7:45:00 PM 8.52 47.336 0.028 6.86 4.06 11.27
3/28/2021 8:00:00 PM 8.48 47.264 0.028 6.83 4.1 11.27
3/28/2021 8:15:00 PM 8.44 47.192 0.028 6.84 4.68 11.27
3/28/2021 8:30:00 PM 8.4 47.12 0.028 6.85 4.21 11.28
3/28/2021 8:45:00 PM 8.34 47.012 0.028 6.84 4.16 11.29
3/28/2021 9:00:00 PM 8.28 46.904 0.028 6.84 4.05 11.31
3/28/2021 9:15:00 PM 8.22 46.796 0.028 6.82 4.17 11.33
3/28/2021 9:30:00 PM 8.14 46.652 0.029 6.8 3.92 11.35
3/28/2021 9:45:00 PM 8.09 46.562 0.029 6.82 4.21 11.37
3/28/2021 10:00:00 PM 8.04 46.472 0.029 6.83 3.98 11.39
3/28/2021 10:15:00 PM 7.98 46.364 0.029 6.81 3.94 11.42
3/28/2021 10:30:00 PM 7.91 46.238 0.029 6.86 3.82 11.45
3/28/2021 10:45:00 PM 7.85 46.13 0.029 6.85 3.92 11.46
3/28/2021 11:00:00 PM 7.79 46.022 0.029 6.82 3.88 11.47
3/28/2021 11:15:00 PM 7.72 45.896 0.029 6.82 3.67 11.5
3/28/2021 11:30:00 PM 7.65 45.77 0.029 6.83 4.02 11.52
3/28/2021 11:45:00 PM 7.57 45.626 0.029 6.82 3.89 11.54
3/29/2021 12:00:00 AM 7.5 45.5 0.029 6.85 3.91 11.57
3/29/2021 12:15:00 AM 7.44 45.392 0.029 6.81 3.95 11.59
3/29/2021 12:30:00 AM 7.36 45.248 0.029 6.84 3.99 11.62
3/29/2021 12:45:00 AM 7.28 45.104 0.029 6.83 3.81 11.64
3/29/2021 1:00:00 AM 7.21 44.978 0.029 6.87 3.87 11.66
3/29/2021 1:15:00 AM 7.15 44.87 0.029 6.85 4 11.68
3/29/2021 1:30:00 AM 7.09 44.762 0.029 6.85 3.82 11.7
3/29/2021 1:45:00 AM 7.02 44.636 0.029 6.87 3.87 11.72
3/29/2021 2:00:00 AM 6.96 44.528 0.029 6.83 3.77 11.75
3/29/2021 2:15:00 AM 6.91 44.438 0.029 6.87 3.91 11.77
3/29/2021 2:30:00 AM 6.85 44.33 0.029 6.87 3.94 11.8
3/29/2021 2:45:00 AM 6.77 44.186 0.029 6.86 3.79 11.82
3/29/2021 3:00:00 AM 6.73 44.114 0.029 6.85 3.63 11.84
3/29/2021 3:15:00 AM 6.68 44.024 0.03 6.84 3.79 11.85
3/29/2021 3:30:00 AM 6.62 43.916 0.029 6.87 3.88 11.87
3/29/2021 3:45:00 AM 6.56 43.808 0.029 6.85 3.61 11.89
3/29/2021 4:00:00 AM 6.52 43.736 0.029 6.84 3.62 11.91
3/29/2021 4:15:00 AM 6.46 43.628 0.029 6.85 3.76 11.92
3/29/2021 4:30:00 AM 6.41 43.538 0.029 6.82 3.8 11.93
3/29/2021 4:45:00 AM 6.36 43.448 0.029 6.85 3.61 11.96
3/29/2021 5:00:00 AM 6.31 43.358 0.029 6.87 3.73 11.98
3/29/2021 5:15:00 AM 6.25 43.25 0.03 6.88 3.53 12.01
3/29/2021 5:30:00 AM 6.2 43.16 0.029 6.88 3.55 12.03
3/29/2021 5:45:00 AM 6.16 43.088 0.03 6.89 3.51 12.05
3/29/2021 6:00:00 AM 6.12 43.016 0.029 6.88 3.55 12.07
3/29/2021 6:15:00 AM 6.08 42.944 0.029 6.85 3.49 12.08
3/29/2021 6:30:00 AM 6.04 42.872 0.029 6.85 3.59 12.1
3/29/2021 6:45:00 AM 6 42.8 0.029 6.9 3.56 12.11
3/29/2021 7:00:00 AM 5.96 42.728 0.029 6.88 3.35 12.13
3/29/2021 7:15:00 AM 5.93 42.674 0.029 6.9 3.45 12.15
3/29/2021 7:30:00 AM 5.9 42.62 0.029 6.88 3.53 12.17
3/29/2021 7:45:00 AM 5.86 42.548 0.029 6.88 3.47 12.19
3/29/2021 8:00:00 AM 5.83 42.494 0.029 6.88 3.65 12.22
3/29/2021 8:15:00 AM 5.81 42.458 0.029 6.88 3.56 12.25
3/29/2021 8:30:00 AM 5.79 42.422 0.029 6.9 3.44 12.29
3/29/2021 8:45:00 AM 5.78 42.404 0.029 6.93 3.5 12.35
3/29/2021 9:00:00 AM 5.77 42.386 0.029 6.93 3.59 12.38
3/29/2021 9:15:00 AM 5.75 42.35 0.029 6.92 3.46 12.4
3/29/2021 9:30:00 AM 5.74 42.332 0.029 6.93 3.55 12.43
3/29/2021 9:45:00 AM 5.74 42.332 0.029 6.94 3.72 12.46
3/29/2021 10:00:00 AM 5.74 42.332 0.029 6.95 3.47 12.47
3/29/2021 10:15:00 AM 5.73 42.314 0.029 6.98 3.44 12.49
3/29/2021 10:30:00 AM 5.73 42.314 0.029 6.96 3.47 12.5
3/29/2021 10:45:00 AM 5.76 42.368 0.029 6.96 3.48 12.51
3/29/2021 11:00:00 AM 5.8 42.44 0.029 6.95 3.45 12.52
3/29/2021 11:15:00 AM 5.83 42.494 0.029 7 3.47 12.51
3/29/2021 11:30:00 AM 5.89 42.602 0.029 6.98 3.52 12.51
3/29/2021 11:45:00 AM 5.99 42.782 0.029 6.98 3.58 12.5
3/29/2021 12:00:00 PM 6.06 42.908 0.029 7.02 3.39 12.49
3/29/2021 12:15:00 PM 6.17 43.106 0.029 6.98 3.51 12.47
3/29/2021 12:30:00 PM 6.29 43.322 0.029 6.98 3.45 12.44
3/29/2021 12:45:00 PM 6.48 43.664 0.029 6.98 3.5 12.39
3/29/2021 1:00:00 PM 6.63 43.934 0.029 6.97 3.46 12.35
3/29/2021 1:15:00 PM 6.82 44.276 0.029 6.96 3.4 12.29
3/29/2021 1:30:00 PM 7 44.6 0.029 6.96 3.68 12.24
3/29/2021 1:45:00 PM 7.14 44.852 0.029 6.94 3.65 12.18
3/29/2021 2:00:00 PM 7.32 45.176 0.029 6.95 3.63 12.13
3/29/2021 2:15:00 PM 7.49 45.482 0.028 6.95 3.51 12.07
3/29/2021 2:30:00 PM 7.67 45.806 0.028 6.96 3.49 12
3/29/2021 2:45:00 PM 7.81 46.058 0.028 6.95 3.47 11.95
3/29/2021 3:00:00 PM 7.91 46.238 0.028 6.93 3.53 11.91
3/29/2021 3:15:00 PM 7.98 46.364 0.028 6.95 3.48 11.88
3/29/2021 3:30:00 PM 8.09 46.562 0.028 6.94 3.41 11.85
3/29/2021 3:45:00 PM 8.19 46.742 0.028 6.93 3.44 11.8
3/29/2021 4:00:00 PM 8.25 46.85 0.028 6.94 3.45 11.76
3/29/2021 4:15:00 PM 8.34 47.012 0.028 6.93 3.43 11.72
3/29/2021 4:30:00 PM 8.38 47.084 0.028 6.93 3.43 11.7
3/29/2021 4:45:00 PM 8.42 47.156 0.028 6.96 3.55 11.67
3/29/2021 5:00:00 PM 8.44 47.192 0.028 6.93 3.44 11.65
3/29/2021 5:15:00 PM 8.45 47.21 0.028 6.94 3.47 11.63
3/29/2021 5:30:00 PM 8.41 47.138 0.028 6.92 3.41 11.62
3/29/2021 5:45:00 PM 8.35 47.03 0.028 6.93 3.66 11.6
3/29/2021 6:00:00 PM 8.31 46.958 0.029 6.92 3.64 11.6
3/29/2021 6:15:00 PM 8.25 46.85 0.029 6.9 3.7 11.6
3/29/2021 6:30:00 PM 8.19 46.742 0.029 6.91 3.7 11.62
3/29/2021 6:45:00 PM 8.12 46.616 0.029 6.91 3.52 11.63
3/29/2021 7:00:00 PM 8.04 46.472 0.029 6.86 3.63 11.64
3/29/2021 7:15:00 PM 7.96 46.328 0.029 6.87 3.62 11.66
3/29/2021 7:30:00 PM 7.87 46.166 0.029 6.85 3.64 11.66
3/29/2021 7:45:00 PM 7.77 45.986 0.029 6.86 3.7 11.67
3/29/2021 8:00:00 PM 7.66 45.788 0.029 6.89 3.63 11.69
3/29/2021 8:15:00 PM 7.55 45.59 0.029 6.87 3.61 11.72
3/29/2021 8:30:00 PM 7.44 45.392 0.029 6.87 3.52 11.76
3/29/2021 8:45:00 PM 7.33 45.194 0.029 6.86 3.63 11.79
3/29/2021 9:00:00 PM 7.21 44.978 0.029 6.89 3.68 11.82
3/29/2021 9:15:00 PM 7.1 44.78 0.029 6.86 3.64 11.85
3/29/2021 9:30:00 PM 6.99 44.582 0.029 6.84 3.57 11.87
3/29/2021 9:45:00 PM 6.89 44.402 0.029 6.86 3.44 11.92
3/29/2021 10:00:00 PM 6.79 44.222 0.029 6.86 3.65 11.95
3/29/2021 10:15:00 PM 6.69 44.042 0.029 6.86 3.76 11.98
3/29/2021 10:30:00 PM 6.59 43.862 0.029 6.87 3.41 12.01
3/29/2021 10:45:00 PM 6.5 43.7 0.029 6.84 3.5 12.04
3/29/2021 11:00:00 PM 6.41 43.538 0.029 6.85 3.4 12.07
3/29/2021 11:15:00 PM 6.32 43.376 0.029 6.86 3.63 12.1
3/29/2021 11:30:00 PM 6.23 43.214 0.029 6.89 3.57 12.13
3/29/2021 11:45:00 PM 6.15 43.07 0.029 6.87 3.47 12.16
3/30/2021 12:00:00 AM 6.06 42.908 0.029 6.88 3.43 12.19
3/30/2021 12:15:00 AM 5.98 42.764 0.029 6.87 3.44 12.21
3/30/2021 12:30:00 AM 5.9 42.62 0.029 6.85 3.48 12.23
3/30/2021 12:45:00 AM 5.83 42.494 0.029 6.87 3.49 12.26
3/30/2021 1:00:00 AM 5.75 42.35 0.029 6.84 3.39 12.28
3/30/2021 1:15:00 AM 5.69 42.242 0.03 6.86 3.39 12.31
3/30/2021 1:30:00 AM 5.62 42.116 0.029 6.85 3.39 12.33
3/30/2021 1:45:00 AM 5.55 41.99 0.029 6.86 3.32 12.35
3/30/2021 2:00:00 AM 5.49 41.882 0.029 6.85 3.4 12.38
3/30/2021 2:15:00 AM 5.42 41.756 0.03 6.85 3.4 12.4
3/30/2021 2:30:00 AM 5.37 41.666 0.03 6.88 3.5 12.42
3/30/2021 2:45:00 AM 5.31 41.558 0.03 6.86 3.55 12.44
3/30/2021 3:00:00 AM 5.25 41.45 0.03 6.86 3.38 12.45
3/30/2021 3:15:00 AM 5.19 41.342 0.03 6.85 3.44 12.47
3/30/2021 3:30:00 AM 5.14 41.252 0.03 6.86 3.49 12.49
3/30/2021 3:45:00 AM 5.09 41.162 0.03 6.87 3.44 12.51
3/30/2021 4:00:00 AM 5.04 41.072 0.03 6.87 3.4 12.53
3/30/2021 4:15:00 AM 4.99 40.982 0.03 6.86 3.42 12.55
3/30/2021 4:30:00 AM 4.94 40.892 0.03 6.85 3.32 12.56
3/30/2021 4:45:00 AM 4.89 40.802 0.03 6.84 3.25 12.58
3/30/2021 5:00:00 AM 4.85 40.73 0.03 6.85 3.38 12.6
3/30/2021 5:15:00 AM 4.81 40.658 0.03 6.84 3.27 12.61
3/30/2021 5:30:00 AM 4.76 40.568 0.029 6.83 3.28 12.63
3/30/2021 5:45:00 AM 4.72 40.496 0.03 6.85 3.43 12.64
3/30/2021 6:00:00 AM 4.68 40.424 0.03 6.9 3.35 12.65
3/30/2021 6:15:00 AM 4.64 40.352 0.029 6.84 3.22 12.67
3/30/2021 6:30:00 AM 4.6 40.28 0.03 6.86 3.23 12.68
3/30/2021 6:45:00 AM 4.56 40.208 0.03 6.85 3.25 12.69
3/30/2021 7:00:00 AM 4.53 40.154 0.029 6.86 3.31 12.7
3/30/2021 7:15:00 AM 4.49 40.082 0.029 6.84 3.3 12.72
3/30/2021 7:30:00 AM 4.46 40.028 0.029 6.85 3.29 12.75
3/30/2021 7:45:00 AM 4.43 39.974 0.029 6.86 3.17 12.79
3/30/2021 8:00:00 AM 4.4 39.92 0.029 6.88 3.23 12.81
3/30/2021 8:15:00 AM 4.38 39.884 0.029 6.88 3.3 12.84
3/30/2021 8:30:00 AM 4.35 39.83 0.029 6.89 3.28 12.86
3/30/2021 8:45:00 AM 4.33 39.794 0.029 6.89 3.26 12.88
3/30/2021 9:00:00 AM 4.32 39.776 0.029 6.88 3.16 12.9
3/30/2021 9:15:00 AM 4.31 39.758 0.029 6.92 3.21 12.91
3/30/2021 9:30:00 AM 4.31 39.758 0.029 6.91 3.27 12.92
3/30/2021 9:45:00 AM 4.33 39.794 0.029 6.89 3.33 12.93
3/30/2021 10:00:00 AM 4.38 39.884 0.029 6.91 3.17 12.93
3/30/2021 10:15:00 AM 4.46 40.028 0.029 6.91 3.2 12.91
3/30/2021 10:30:00 AM 4.58 40.244 0.029 6.93 3.13 12.9
3/30/2021 10:45:00 AM 4.72 40.496 0.029 6.91 3.13 12.88
3/30/2021 11:00:00 AM 4.89 40.802 0.029 6.95 3.26 12.85
3/30/2021 11:15:00 AM 5.08 41.144 0.029 6.94 3.1 12.8
3/30/2021 11:30:00 AM 5.28 41.504 0.029 6.93 3.22 12.75
3/30/2021 11:45:00 AM 5.51 41.918 0.029 6.94 3.32 12.7
3/30/2021 12:00:00 PM 5.75 42.35 0.029 6.93 3.18 12.62
3/30/2021 12:15:00 PM 6 42.8 0.029 6.91 3.07 12.55
3/30/2021 12:30:00 PM 6.27 43.286 0.029 6.94 3.18 12.48
3/30/2021 12:45:00 PM 6.55 43.79 0.029 6.93 3.31 12.39
3/30/2021 1:00:00 PM 6.82 44.276 0.029 6.92 3.28 12.32
3/30/2021 1:15:00 PM 7.11 44.798 0.029 6.96 3.23 12.22
3/30/2021 1:30:00 PM 7.4 45.32 0.029 6.94 3.16 12.14
3/30/2021 1:45:00 PM 7.68 45.824 0.029 6.93 3.27 12.04
3/30/2021 2:00:00 PM 7.95 46.31 0.029 6.95 3.19 11.96
3/30/2021 2:15:00 PM 8.2 46.76 0.029 6.98 3.25 11.88
3/30/2021 2:30:00 PM 8.44 47.192 0.029 6.99 3.31 11.8
3/30/2021 2:45:00 PM 8.66 47.588 0.028 6.96 3.43 11.73
3/30/2021 3:00:00 PM 8.87 47.966 0.028 6.97 3.34 11.65
3/30/2021 3:15:00 PM 9.06 48.308 0.028 6.98 3.58 11.58
3/30/2021 3:30:00 PM 9.22 48.596 0.028 6.98 3.32 11.53
3/30/2021 3:45:00 PM 9.37 48.866 0.028 6.95 3.36 11.47
3/30/2021 4:00:00 PM 9.5 49.1 0.028 6.96 3.58 11.42
3/30/2021 4:15:00 PM 9.6 49.28 0.028 6.97 3.28 11.37
3/30/2021 4:30:00 PM 9.68 49.424 0.028 6.98 3.36 11.34
3/30/2021 4:45:00 PM 9.76 49.568 0.028 7 3.35 11.31
3/30/2021 5:00:00 PM 9.8 49.64 0.028 6.98 3.28 11.28
3/30/2021 5:15:00 PM 9.83 49.694 0.028 6.96 3.38 11.25
3/30/2021 5:30:00 PM 9.85 49.73 0.028 6.97 3.39 11.23
3/30/2021 5:45:00 PM 9.85 49.73 0.028 6.97 3.33 11.2
3/30/2021 6:00:00 PM 9.83 49.694 0.028 6.94 3.62 11.17
3/30/2021 6:15:00 PM 9.81 49.658 0.028 6.95 3.6 11.15
3/30/2021 6:30:00 PM 9.78 49.604 0.028 6.92 3.54 11.15
3/30/2021 6:45:00 PM 9.74 49.532 0.028 6.92 3.5 11.15
3/30/2021 7:00:00 PM 9.68 49.424 0.029 6.94 3.48 11.14
3/30/2021 7:15:00 PM 9.61 49.298 0.029 6.93 3.52 11.14
3/30/2021 7:30:00 PM 9.55 49.19 0.029 6.93 3.48 11.14
3/30/2021 7:45:00 PM 9.48 49.064 0.029 6.9 3.5 11.14
3/30/2021 8:00:00 PM 9.39 48.902 0.029 6.89 3.58 11.15
3/30/2021 8:15:00 PM 9.31 48.758 0.029 6.87 3.68 11.17
3/30/2021 8:30:00 PM 9.22 48.596 0.029 6.88 3.83 11.18
3/30/2021 8:45:00 PM 9.13 48.434 0.029 6.87 3.65 11.21
3/30/2021 9:00:00 PM 9.04 48.272 0.029 6.89 3.57 11.23
3/30/2021 9:15:00 PM 8.95 48.11 0.029 6.87 3.69 11.25
3/30/2021 9:30:00 PM 8.86 47.948 0.029 6.85 3.54 11.28
3/30/2021 9:45:00 PM 8.77 47.786 0.029 6.88 3.55 11.32
3/30/2021 10:00:00 PM 8.68 47.624 0.029 6.88 3.65 11.34
3/30/2021 10:15:00 PM 8.59 47.462 0.029 6.87 3.75 11.36
3/30/2021 10:30:00 PM 8.51 47.318 0.029 6.87 3.84 11.39
3/30/2021 10:45:00 PM 8.43 47.174 0.029 6.84 4.61 11.4
3/30/2021 11:00:00 PM 8.36 47.048 0.029 6.83 3.67 11.43
3/30/2021 11:15:00 PM 8.28 46.904 0.029 6.84 3.49 11.45
3/30/2021 11:30:00 PM 8.2 46.76 0.029 6.83 3.42 11.48
3/30/2021 11:45:00 PM 8.13 46.634 0.029 6.83 3.42 11.51
3/31/2021 12:00:00 AM 8.05 46.49 0.029 6.85 3.51 11.53
3/31/2021 12:15:00 AM 7.98 46.364 0.029 6.85 3.61 11.55
3/31/2021 12:30:00 AM 7.91 46.238 0.029 6.85 3.43 11.57
3/31/2021 12:45:00 AM 7.84 46.112 0.03 6.88 3.55 11.59
3/31/2021 1:00:00 AM 7.77 45.986 0.03 6.88 3.45 11.6
3/31/2021 1:15:00 AM 7.71 45.878 0.03 6.82 3.49 11.62
3/31/2021 1:30:00 AM 7.65 45.77 0.03 6.81 3.45 11.64
3/31/2021 1:45:00 AM 7.59 45.662 0.03 6.82 3.42 11.65
3/31/2021 2:00:00 AM 7.54 45.572 0.03 6.85 3.44 11.68
3/31/2021 2:15:00 AM 7.49 45.482 0.03 6.88 3.53 11.69
3/31/2021 2:30:00 AM 7.44 45.392 0.03 6.86 3.56 11.7
3/31/2021 2:45:00 AM 7.4 45.32 0.03 6.86 3.27 11.72
3/31/2021 3:00:00 AM 7.36 45.248 0.03 6.84 3.41 11.73
3/31/2021 3:15:00 AM 7.32 45.176 0.03 6.85 3.48 11.73
3/31/2021 3:30:00 AM 7.28 45.104 0.03 6.84 3.34 11.74
3/31/2021 3:45:00 AM 7.25 45.05 0.03 6.86 3.37 11.75
3/31/2021 4:00:00 AM 7.21 44.978 0.03 6.88 3.34 11.75
3/31/2021 4:15:00 AM 7.18 44.924 0.03 6.85 3.11 11.76
3/31/2021 4:30:00 AM 7.15 44.87 0.03 6.86 3.24 11.77
3/31/2021 4:45:00 AM 7.12 44.816 0.03 6.83 3.43 11.77
3/31/2021 5:00:00 AM 7.1 44.78 0.03 6.88 3.35 11.78
3/31/2021 5:15:00 AM 7.08 44.744 0.03 6.88 3.35 11.79
3/31/2021 5:30:00 AM 7.06 44.708 0.03 6.84 3.32 11.78
3/31/2021 5:45:00 AM 7.04 44.672 0.03 6.84 3.3 11.79
3/31/2021 6:00:00 AM 7.02 44.636 0.03 6.86 3.42 11.8
3/31/2021 6:15:00 AM 7.01 44.618 0.03 6.84 3.31 11.81
3/31/2021 6:30:00 AM 6.99 44.582 0.029 6.84 3.51 11.81
3/31/2021 6:45:00 AM 6.97 44.546 0.03 6.83 3.31 11.82
3/31/2021 7:00:00 AM 6.96 44.528 0.03 6.86 3.32 11.82
3/31/2021 7:15:00 AM 6.95 44.51 0.03 6.86 3.44 11.84
3/31/2021 7:30:00 AM 6.94 44.492 0.03 6.86 3.31 11.85
3/31/2021 7:45:00 AM 6.93 44.474 0.03 6.88 3.39 11.86
3/31/2021 8:00:00 AM 6.94 44.492 0.03 6.87 3.36 11.88
3/31/2021 8:15:00 AM 6.94 44.492 0.03 6.86 3.44 11.89
3/31/2021 8:30:00 AM 6.95 44.51 0.03 6.86 3.35 11.91
3/31/2021 8:45:00 AM 6.96 44.528 0.03 6.87 3.29 11.91
3/31/2021 9:00:00 AM 6.97 44.546 0.03 6.87 3.43 11.92
3/31/2021 9:15:00 AM 6.99 44.582 0.029 6.85 3.16 11.91
3/31/2021 9:30:00 AM 7 44.6 0.029 6.91 3.23 11.91
3/31/2021 9:45:00 AM 7.01 44.618 0.029 6.88 3.24 11.91
3/31/2021 10:00:00 AM 7.02 44.636 0.029 6.85 3.38 11.91
3/31/2021 10:15:00 AM 7.04 44.672 0.029 6.89 3.5 11.91
3/31/2021 10:30:00 AM 7.06 44.708 0.029 6.88 3.39 11.92
3/31/2021 10:45:00 AM 7.09 44.762 0.029 6.9 3.27 11.93
3/31/2021 11:00:00 AM 7.12 44.816 0.029 6.89 3.4 11.93
3/31/2021 11:15:00 AM 7.15 44.87 0.029 6.91 3.44 11.93
3/31/2021 11:30:00 AM 7.18 44.924 0.029 6.9 3.36 11.91
3/31/2021 11:45:00 AM 7.21 44.978 0.029 6.89 3.36 11.9
3/31/2021 12:00:00 PM 7.24 45.032 0.029 6.93 3.36 11.89
3/31/2021 12:15:00 PM 7.27 45.086 0.029 6.91 3.78 11.89
3/31/2021 12:30:00 PM 7.29 45.122 0.029 6.93 3.31 11.87
3/31/2021 12:45:00 PM 7.33 45.194 0.029 6.89 3.35 11.88
3/31/2021 1:00:00 PM 7.35 45.23 0.029 6.92 3.34 11.87
3/31/2021 1:15:00 PM 7.39 45.302 0.029 6.91 3.41 11.87
3/31/2021 1:30:00 PM 7.43 45.374 0.029 6.93 3.21 11.88
3/31/2021 1:45:00 PM 7.46 45.428 0.029 6.91 3.4 11.85
3/31/2021 2:00:00 PM 7.49 45.482 0.029 6.95 3.41 11.84
3/31/2021 2:15:00 PM 7.53 45.554 0.029 6.92 3.34 11.84
3/31/2021 2:30:00 PM 7.57 45.626 0.029 6.93 3.36 11.83
3/31/2021 2:45:00 PM 7.6 45.68 0.029 6.95 3.5 11.81
3/31/2021 3:00:00 PM 7.62 45.716 0.029 6.94 3.39 11.79
3/31/2021 3:15:00 PM 7.65 45.77 0.029 6.95 3.22 11.77
3/31/2021 3:30:00 PM 7.67 45.806 0.029 6.93 3.42 11.74
3/31/2021 3:45:00 PM 7.68 45.824 0.029 6.91 3.3 11.71
3/31/2021 4:00:00 PM 7.7 45.86 0.029 6.93 3.29 11.7
3/31/2021 4:15:00 PM 7.72 45.896 0.029 6.88 3.32 11.7
3/31/2021 4:30:00 PM 7.74 45.932 0.029 6.89 3.33 11.67
3/31/2021 4:45:00 PM 7.75 45.95 0.029 6.89 3.35 11.67
3/31/2021 5:00:00 PM 7.77 45.986 0.029 6.9 3.42 11.65
3/31/2021 5:15:00 PM 7.78 46.004 0.029 6.91 3.38 11.64
3/31/2021 5:30:00 PM 7.8 46.04 0.029 6.9 3.27 11.62
3/31/2021 5:45:00 PM 7.82 46.076 0.029 6.89 3.37 11.62
3/31/2021 6:00:00 PM 7.83 46.094 0.029 6.88 3.36 11.61
3/31/2021 6:15:00 PM 7.84 46.112 0.029 6.9 3.52 11.61
3/31/2021 6:30:00 PM 7.86 46.148 0.029 6.87 3.65 11.59
3/31/2021 6:45:00 PM 7.86 46.148 0.029 6.85 3.47 11.58
3/31/2021 7:00:00 PM 7.86 46.148 0.029 6.9 3.24 11.57
3/31/2021 7:15:00 PM 7.86 46.148 0.029 6.88 3.52 11.57
3/31/2021 7:30:00 PM 7.86 46.148 0.029 6.87 3.49 11.56
3/31/2021 7:45:00 PM 7.85 46.13 0.029 6.93 3.73 11.56
3/31/2021 8:00:00 PM 7.84 46.112 0.029 6.89 3.45 11.55
3/31/2021 8:15:00 PM 7.83 46.094 0.029 6.92 3.7 11.55
3/31/2021 8:30:00 PM 7.81 46.058 0.029 6.88 3.53 11.56
3/31/2021 8:45:00 PM 7.78 46.004 0.029 6.89 3.49 11.57
3/31/2021 9:00:00 PM 7.74 45.932 0.029 6.85 3.35 11.58
3/31/2021 9:15:00 PM 7.69 45.842 0.029 6.86 3.42 11.59
3/31/2021 9:30:00 PM 7.64 45.752 0.029 6.86 3.4 11.6
3/31/2021 9:45:00 PM 7.6 45.68 0.029 6.85 3.4 11.62
3/31/2021 10:00:00 PM 7.56 45.608 0.029 6.87 3.39 11.63
3/31/2021 10:15:00 PM 7.53 45.554 0.029 6.87 3.44 11.65
3/31/2021 10:30:00 PM 7.5 45.5 0.03 6.9 3.41 11.66
3/31/2021 10:45:00 PM 7.46 45.428 0.03 6.85 3.31 11.67
3/31/2021 11:00:00 PM 7.43 45.374 0.029 6.87 3.38 11.68
3/31/2021 11:15:00 PM 7.4 45.32 0.03 6.87 3.34 11.69
3/31/2021 11:30:00 PM 7.36 45.248 0.03 6.88 3.45 11.7
3/31/2021 11:45:00 PM 7.33 45.194 0.03 6.86 3.47 11.72
4/1/2021 12:00:00 AM 7.29 45.122 0.03 6.91 3.38 11.73
4/1/2021 12:15:00 AM 7.26 45.068 0.03 6.9 3.23 11.73
4/1/2021 12:30:00 AM 7.23 45.014 0.03 6.88 3.34 11.74
4/1/2021 12:45:00 AM 7.2 44.96 0.03 6.9 3.29 11.75
4/1/2021 1:00:00 AM 7.15 44.87 0.03 6.87 3.45 11.77
4/1/2021 1:15:00 AM 7.11 44.798 0.03 6.87 3.25 11.77
4/1/2021 1:30:00 AM 7.07 44.726 0.03 6.88 3.37 11.78
4/1/2021 1:45:00 AM 7.03 44.654 0.03 6.88 3.49 11.8
4/1/2021 2:00:00 AM 6.98 44.564 0.03 6.89 3.35 11.81
4/1/2021 2:15:00 AM 6.94 44.492 0.03 6.9 3.36 11.82
4/1/2021 2:30:00 AM 6.89 44.402 0.03 6.89 3.44 11.84
4/1/2021 2:45:00 AM 6.84 44.312 0.029 6.87 3.45 11.85
4/1/2021 3:00:00 AM 6.8 44.24 0.03 6.87 3.54 11.87
4/1/2021 3:15:00 AM 6.75 44.15 0.029 6.9 3.41 11.87
4/1/2021 3:30:00 AM 6.71 44.078 0.029 6.89 3.3 11.88
4/1/2021 3:45:00 AM 6.67 44.006 0.029 6.88 3.42 11.89
4/1/2021 4:00:00 AM 6.63 43.934 0.029 6.89 3.47 11.9
4/1/2021 4:15:00 AM 6.6 43.88 0.029 6.86 3.38 11.91
4/1/2021 4:30:00 AM 6.56 43.808 0.03 6.88 3.47 11.92
4/1/2021 4:45:00 AM 6.53 43.754 0.03 6.88 3.32 11.93
4/1/2021 5:00:00 AM 6.49 43.682 0.029 6.87 3.49 11.94
4/1/2021 5:15:00 AM 6.46 43.628 0.03 6.89 3.48 11.95
4/1/2021 5:30:00 AM 6.42 43.556 0.03 6.87 3.47 11.96
4/1/2021 5:45:00 AM 6.38 43.484 0.03 6.9 3.34 11.98
4/1/2021 6:00:00 AM 6.34 43.412 0.03 6.87 3.36 11.99
4/1/2021 6:15:00 AM 6.3 43.34 0.03 6.89 3.36 12
4/1/2021 6:30:00 AM 6.25 43.25 0.03 6.91 3.53 12.02
4/1/2021 6:45:00 AM 6.21 43.178 0.03 6.89 3.28 12.04
4/1/2021 7:00:00 AM 6.16 43.088 0.03 6.88 3.45 12.06
4/1/2021 7:15:00 AM 6.12 43.016 0.03 6.91 3.42 12.07
4/1/2021 7:30:00 AM 6.09 42.962 0.03 6.9 3.28 12.09
4/1/2021 7:45:00 AM 6.05 42.89 0.03 6.85 3.5 12.12
4/1/2021 8:00:00 AM 6.03 42.854 0.03 6.86 3.25 12.16
4/1/2021 8:15:00 AM 6 42.8 0.03 6.91 3.39 12.18
4/1/2021 8:30:00 AM 5.97 42.746 0.03 6.92 3.27 12.21
4/1/2021 8:45:00 AM 5.94 42.692 0.029 6.92 3.39 12.26
4/1/2021 9:00:00 AM 5.93 42.674 0.029 6.95 3.26 12.3
4/1/2021 9:15:00 AM 5.89 42.602 0.029 6.95 3.45 12.32
4/1/2021 9:30:00 AM 5.86 42.548 0.029 6.91 3.27 12.33
4/1/2021 9:45:00 AM 5.83 42.494 0.029 6.94 3.27 12.36
4/1/2021 10:00:00 AM 5.82 42.476 0.029 6.96 3.39 12.38
4/1/2021 10:15:00 AM 5.8 42.44 0.029 6.94 3.31 12.39
4/1/2021 10:30:00 AM 5.84 42.512 0.029 6.98 3.33 12.4
4/1/2021 10:45:00 AM 5.85 42.53 0.029 6.97 3.34 12.4
4/1/2021 11:00:00 AM 5.93 42.674 0.029 6.96 3.27 12.4
4/1/2021 11:15:00 AM 6.03 42.854 0.029 6.99 3.17 12.4
4/1/2021 11:30:00 AM 6.07 42.926 0.029 6.97 3.18 12.38
4/1/2021 11:45:00 AM 6.12 43.016 0.029 6.98 3.19 12.37
4/1/2021 12:00:00 PM 6.2 43.16 0.029 6.96 3.26 12.35
4/1/2021 12:15:00 PM 6.25 43.25 0.029 7 3.41 12.34
4/1/2021 12:30:00 PM 6.3 43.34 0.029 6.96 3.32 12.33
4/1/2021 12:45:00 PM 6.46 43.628 0.029 7.01 3.27 12.29
4/1/2021 1:00:00 PM 6.52 43.736 0.029 6.99 3.24 12.25
4/1/2021 1:15:00 PM 6.57 43.826 0.029 6.96 3.17 12.23
4/1/2021 1:30:00 PM 6.78 44.204 0.029 6.99 3.16 12.18
4/1/2021 1:45:00 PM 6.8 44.24 0.029 7 3.3 12.15
4/1/2021 2:00:00 PM 6.85 44.33 0.029 6.94 3.21 12.14
4/1/2021 2:15:00 PM 6.9 44.42 0.029 6.98 3.3 12.13
4/1/2021 2:30:00 PM 6.96 44.528 0.029 6.96 3.31 12.09
4/1/2021 2:45:00 PM 7.03 44.654 0.029 6.95 3.24 12.06
4/1/2021 3:00:00 PM 7.1 44.78 0.029 6.97 3.26 12.04
4/1/2021 3:15:00 PM 7.12 44.816 0.029 6.96 3.27 12.02
4/1/2021 3:30:00 PM 7.13 44.834 0.029 6.95 3.44 12.01
4/1/2021 3:45:00 PM 7.11 44.798 0.029 6.93 3.29 12.01
4/1/2021 4:00:00 PM 7.1 44.78 0.029 6.94 3.12 12.03
4/1/2021 4:15:00 PM 7.03 44.654 0.029 6.94 3.35 12.05
4/1/2021 4:30:00 PM 6.96 44.528 0.029 6.94 3.44 12.07
4/1/2021 4:45:00 PM 6.92 44.456 0.029 6.94 3.42 12.1
4/1/2021 5:00:00 PM 6.87 44.366 0.029 6.95 3.4 12.11
4/1/2021 5:15:00 PM 6.81 44.258 0.029 6.97 3.43 12.12
4/1/2021 5:30:00 PM 6.74 44.132 0.029 6.94 3.23 12.13
4/1/2021 5:45:00 PM 6.69 44.042 0.029 6.95 3.34 12.14
4/1/2021 6:00:00 PM 6.63 43.934 0.029 6.96 3.38 12.13
4/1/2021 6:15:00 PM 6.57 43.826 0.029 6.9 3.22 12.12
4/1/2021 6:30:00 PM 6.53 43.754 0.029 6.96 3.23 12.12
4/1/2021 6:45:00 PM 6.47 43.646 0.029 6.9 3.45 12.11
4/1/2021 7:00:00 PM 6.39 43.502 0.029 6.92 3.28 12.12
4/1/2021 7:15:00 PM 6.31 43.358 0.029 6.89 3.29 12.13
4/1/2021 7:30:00 PM 6.21 43.178 0.029 6.93 3.34 12.14
4/1/2021 7:45:00 PM 6.13 43.034 0.029 6.89 3.28 12.14
4/1/2021 8:00:00 PM 6.04 42.872 0.029 6.92 3.43 12.16
4/1/2021 8:15:00 PM 5.95 42.71 0.029 6.88 3.45 12.17
4/1/2021 8:30:00 PM 5.86 42.548 0.029 6.88 3.25 12.2
4/1/2021 8:45:00 PM 5.77 42.386 0.03 6.89 3.34 12.22
4/1/2021 9:00:00 PM 5.69 42.242 0.03 6.86 3.27 12.24
4/1/2021 9:15:00 PM 5.6 42.08 0.029 6.89 3.4 12.28
4/1/2021 9:30:00 PM 5.46 41.828 0.029 6.86 3.35 12.31
4/1/2021 9:45:00 PM 5.4 41.72 0.029 6.91 3.37 12.34
4/1/2021 10:00:00 PM 5.34 41.612 0.029 6.86 3.23 12.37
4/1/2021 10:15:00 PM 5.29 41.522 0.03 6.89 3.28 12.39
4/1/2021 10:30:00 PM 5.23 41.414 0.03 6.86 3.24 12.41
4/1/2021 10:45:00 PM 5.17 41.306 0.03 6.87 3.28 12.43
4/1/2021 11:00:00 PM 5.1 41.18 0.03 6.87 3.25 12.46
4/1/2021 11:15:00 PM 5.03 41.054 0.03 6.9 3.23 12.48
4/1/2021 11:30:00 PM 4.97 40.946 0.03 6.86 3.16 12.51
4/1/2021 11:45:00 PM 4.9 40.82 0.03 6.86 3.29 12.53
4/2/2021 12:00:00 AM 4.83 40.694 0.03 6.87 3.34 12.55
4/2/2021 12:15:00 AM 4.76 40.568 0.03 6.86 3.31 12.58
4/2/2021 12:30:00 AM 4.7 40.46 0.03 6.88 3.26 12.6
4/2/2021 12:45:00 AM 4.63 40.334 0.03 6.85 3.11 12.62
4/2/2021 1:00:00 AM 4.55 40.19 0.03 6.86 3.31 12.65
4/2/2021 1:15:00 AM 4.47 40.046 0.03 6.87 3.17 12.67
4/2/2021 1:30:00 AM 4.4 39.92 0.03 6.88 3.13 12.7
4/2/2021 1:45:00 AM 4.33 39.794 0.03 6.87 3.07 12.73
4/2/2021 2:00:00 AM 4.28 39.704 0.03 6.9 3.13 12.75
4/2/2021 2:15:00 AM 4.24 39.632 0.03 6.87 3.17 12.77
4/2/2021 2:30:00 AM 4.19 39.542 0.03 6.86 3.03 12.79
4/2/2021 2:45:00 AM 4.15 39.47 0.03 6.86 3.17 12.8
4/2/2021 3:00:00 AM 4.11 39.398 0.03 6.87 3.36 12.82
4/2/2021 3:15:00 AM 4.05 39.29 0.03 6.83 3.15 12.84
4/2/2021 3:30:00 AM 4 39.2 0.03 6.86 3.11 12.85
4/2/2021 3:45:00 AM 3.94 39.092 0.03 6.87 3.05 12.87
4/2/2021 4:00:00 AM 3.89 39.002 0.03 6.89 3.11 12.89
4/2/2021 4:15:00 AM 3.84 38.912 0.03 6.88 3.14 12.91
4/2/2021 4:30:00 AM 3.79 38.822 0.03 6.86 3.08 12.92
4/2/2021 4:45:00 AM 3.73 38.714 0.03 6.87 3.14 12.95
4/2/2021 5:00:00 AM 3.67 38.606 0.03 6.88 3.11 12.97
4/2/2021 5:15:00 AM 3.61 38.498 0.03 6.86 3.05 13
4/2/2021 5:30:00 AM 3.55 38.39 0.03 6.86 3.26 13.02
4/2/2021 5:45:00 AM 3.48 38.264 0.03 6.82 3.13 13.04
4/2/2021 6:00:00 AM 3.42 38.156 0.03 6.86 3.14 13.06
4/2/2021 6:15:00 AM 3.36 38.048 0.03 6.87 3.26 13.09
4/2/2021 6:30:00 AM 3.31 37.958 0.03 6.86 3.16 13.11
4/2/2021 6:45:00 AM 3.26 37.868 0.03 6.83 3 13.13
4/2/2021 7:00:00 AM 3.22 37.796 0.03 6.85 3.08 13.14
4/2/2021 7:15:00 AM 3.18 37.724 0.03 6.87 3.26 13.18
4/2/2021 7:30:00 AM 3.14 37.652 0.03 6.87 3.11 13.22
4/2/2021 7:45:00 AM 3.1 37.58 0.03 6.87 3.12 13.25
4/2/2021 8:00:00 AM 3.06 37.508 0.03 6.85 3.07 13.28
4/2/2021 8:15:00 AM 3.02 37.436 0.03 6.89 3.15 13.32
4/2/2021 8:30:00 AM 2.99 37.382 0.03 6.88 3.09 13.34
4/2/2021 8:45:00 AM 2.96 37.328 0.03 6.87 3.05 13.36
4/2/2021 9:00:00 AM 2.93 37.274 0.03 6.9 3 13.38
4/2/2021 9:15:00 AM 2.9 37.22 0.03 6.89 3.06 13.41
4/2/2021 9:30:00 AM 2.87 37.166 0.03 6.89 2.98 13.43
4/2/2021 9:45:00 AM 2.87 37.166 0.03 6.9 3.05 13.44
4/2/2021 10:00:00 AM 2.88 37.184 0.03 6.9 3.06 13.45
4/2/2021 10:15:00 AM 2.93 37.274 0.03 6.9 3.05 13.46
4/2/2021 10:30:00 AM 3 37.4 0.03 6.91 2.94 13.46
4/2/2021 10:45:00 AM 3.09 37.562 0.03 6.91 2.92 13.45
4/2/2021 11:00:00 AM 3.19 37.742 0.03 6.91 3 13.42
4/2/2021 11:15:00 AM 3.32 37.976 0.03 6.91 2.88 13.39
4/2/2021 11:30:00 AM 3.47 38.246 0.03 6.92 2.92 13.36
4/2/2021 11:45:00 AM 3.65 38.57 0.029 6.9 3.1 13.32
4/2/2021 12:00:00 PM 3.86 38.948 0.029 6.92 2.95 13.25
4/2/2021 12:15:00 PM 4.06 39.308 0.029 6.92 2.94 13.19
4/2/2021 12:30:00 PM 4.27 39.686 0.029 6.92 2.89 13.14
4/2/2021 12:45:00 PM 4.48 40.064 0.029 6.93 2.99 13.07
4/2/2021 1:00:00 PM 4.72 40.496 0.029 6.93 3.05 12.99
4/2/2021 1:15:00 PM 4.94 40.892 0.029 6.9 3 12.92
4/2/2021 1:30:00 PM 5.17 41.306 0.029 6.93 3.02 12.83
4/2/2021 1:45:00 PM 5.41 41.738 0.029 6.94 3.02 12.76
4/2/2021 2:00:00 PM 5.61 42.098 0.029 6.91 2.91 12.7
4/2/2021 2:15:00 PM 5.79 42.422 0.029 6.9 2.96 12.62
4/2/2021 2:30:00 PM 6 42.8 0.029 6.93 2.93 12.55
4/2/2021 2:45:00 PM 6.14 43.052 0.029 6.94 3.03 12.49
4/2/2021 3:00:00 PM 6.28 43.304 0.029 6.92 3.02 12.43
4/2/2021 3:15:00 PM 6.39 43.502 0.029 6.92 3.01 12.38
4/2/2021 3:30:00 PM 6.48 43.664 0.029 6.93 2.93 12.33
4/2/2021 3:45:00 PM 6.57 43.826 0.029 6.92 2.95 12.3
4/2/2021 4:00:00 PM 6.64 43.952 0.029 6.92 3.06 12.26
4/2/2021 4:15:00 PM 6.68 44.024 0.029 6.94 3.03 12.24
4/2/2021 4:30:00 PM 6.72 44.096 0.029 6.96 3.16 12.2
4/2/2021 4:45:00 PM 6.75 44.15 0.029 6.96 3.05 12.18
4/2/2021 5:00:00 PM 6.75 44.15 0.029 6.93 3.05 12.17
4/2/2021 5:15:00 PM 6.71 44.078 0.029 6.94 3.12 12.16
4/2/2021 5:30:00 PM 6.63 43.934 0.029 6.94 3.19 12.16
4/2/2021 5:45:00 PM 6.56 43.808 0.029 6.93 3.25 12.15
4/2/2021 6:00:00 PM 6.52 43.736 0.029 6.93 3.32 12.14
4/2/2021 6:15:00 PM 6.47 43.646 0.029 6.93 3.07 12.14
4/2/2021 6:30:00 PM 6.4 43.52 0.029 6.91 3.21 12.15
4/2/2021 6:45:00 PM 6.33 43.394 0.029 6.89 3.21 12.16
4/2/2021 7:00:00 PM 6.25 43.25 0.029 6.93 3.26 12.19
4/2/2021 7:15:00 PM 6.14 43.052 0.029 6.88 3.25 12.21
4/2/2021 7:30:00 PM 6.03 42.854 0.029 6.91 3.17 12.23
4/2/2021 7:45:00 PM 5.93 42.674 0.029 6.89 3.11 12.25
4/2/2021 8:00:00 PM 5.81 42.458 0.029 6.87 3.08 12.27
4/2/2021 8:15:00 PM 5.69 42.242 0.029 6.87 3.29 12.31
4/2/2021 8:30:00 PM 5.58 42.044 0.03 6.85 3.03 12.35
4/2/2021 8:45:00 PM 5.46 41.828 0.029 6.88 3.34 12.38
4/2/2021 9:00:00 PM 5.35 41.63 0.029 6.89 3.22 12.42
4/2/2021 9:15:00 PM 5.24 41.432 0.03 6.87 3.13 12.46
4/2/2021 9:30:00 PM 5.13 41.234 0.03 6.88 3.24 12.49
4/2/2021 9:45:00 PM 5.02 41.036 0.03 6.88 3.11 12.53
4/2/2021 10:00:00 PM 4.92 40.856 0.03 6.87 3.16 12.57
4/2/2021 10:15:00 PM 4.82 40.676 0.03 6.87 3.12 12.6
4/2/2021 10:30:00 PM 4.73 40.514 0.03 6.86 3.13 12.64
4/2/2021 10:45:00 PM 4.64 40.352 0.03 6.89 3.15 12.67
4/2/2021 11:00:00 PM 4.55 40.19 0.03 6.88 3.16 12.7
4/2/2021 11:15:00 PM 4.46 40.028 0.03 6.88 3.19 12.73
4/2/2021 11:30:00 PM 4.38 39.884 0.03 6.89 3.08 12.75
4/2/2021 11:45:00 PM 4.31 39.758 0.03 6.85 3.16 12.79
4/3/2021 12:00:00 AM 4.23 39.614 0.03 6.83 3.12 12.82
4/3/2021 12:15:00 AM 4.15 39.47 0.03 6.88 3.08 12.85
4/3/2021 12:30:00 AM 4.08 39.344 0.03 6.88 2.93 12.87
4/3/2021 12:45:00 AM 4.01 39.218 0.03 6.87 3.05 12.89
4/3/2021 1:00:00 AM 3.94 39.092 0.03 6.85 2.96 12.91
4/3/2021 1:15:00 AM 3.87 38.966 0.03 6.85 3.03 12.94
4/3/2021 1:30:00 AM 3.81 38.858 0.03 6.85 3.09 12.96
4/3/2021 1:45:00 AM 3.75 38.75 0.03 6.86 3.05 12.99
4/3/2021 2:00:00 AM 3.69 38.642 0.03 6.85 3 13.02
4/3/2021 2:15:00 AM 3.62 38.516 0.03 6.85 3.21 13.04
4/3/2021 2:30:00 AM 3.57 38.426 0.03 6.87 3.07 13.06
4/3/2021 2:45:00 AM 3.51 38.318 0.03 6.84 3.13 13.08
4/3/2021 3:00:00 AM 3.46 38.228 0.03 6.85 3.17 13.1
4/3/2021 3:15:00 AM 3.41 38.138 0.03 6.86 3.11 13.11
4/3/2021 3:30:00 AM 3.35 38.03 0.03 6.85 3.01 13.13
4/3/2021 3:45:00 AM 3.3 37.94 0.03 6.85 3.11 13.15
4/3/2021 4:00:00 AM 3.25 37.85 0.03 6.85 3.01 13.16
4/3/2021 4:15:00 AM 3.2 37.76 0.03 6.87 3.18 13.19
4/3/2021 4:30:00 AM 3.16 37.688 0.03 6.86 3.16 13.21
4/3/2021 4:45:00 AM 3.11 37.598 0.03 6.85 3.08 13.23
4/3/2021 5:00:00 AM 3.07 37.526 0.03 6.86 3.1 13.24
4/3/2021 5:15:00 AM 3.02 37.436 0.03 6.86 3.02 13.27
4/3/2021 5:30:00 AM 2.98 37.364 0.03 6.85 3.08 13.29
4/3/2021 5:45:00 AM 2.93 37.274 0.03 6.87 2.98 13.31
4/3/2021 6:00:00 AM 2.89 37.202 0.03 6.86 2.99 13.32
4/3/2021 6:15:00 AM 2.85 37.13 0.03 6.87 3.02 13.34
4/3/2021 6:30:00 AM 2.81 37.058 0.03 6.87 3.11 13.36
4/3/2021 6:45:00 AM 2.77 36.986 0.03 6.87 2.93 13.38
4/3/2021 7:00:00 AM 2.73 36.914 0.03 6.87 2.98 13.39
4/3/2021 7:15:00 AM 2.69 36.842 0.03 6.87 3.07 13.42
4/3/2021 7:30:00 AM 2.66 36.788 0.03 6.88 3.02 13.45
4/3/2021 7:45:00 AM 2.63 36.734 0.03 6.89 3.18 13.48
4/3/2021 8:00:00 AM 2.6 36.68 0.03 6.88 3.07 13.51
4/3/2021 8:15:00 AM 2.58 36.644 0.03 6.87 3.02 13.53
4/3/2021 8:30:00 AM 2.56 36.608 0.03 6.87 2.97 13.56
4/3/2021 8:45:00 AM 2.54 36.572 0.03 6.88 2.99 13.58
4/3/2021 9:00:00 AM 2.53 36.554 0.03 6.88 2.99 13.59
4/3/2021 9:15:00 AM 2.53 36.554 0.03 6.91 3.01 13.61
4/3/2021 9:30:00 AM 2.54 36.572 0.03 6.9 2.92 13.61
4/3/2021 9:45:00 AM 2.57 36.626 0.03 6.92 3.08 13.62
4/3/2021 10:00:00 AM 2.62 36.716 0.03 6.91 2.97 13.62
4/3/2021 10:15:00 AM 2.71 36.878 0.03 6.9 2.93 13.61
4/3/2021 10:30:00 AM 2.83 37.094 0.03 6.91 2.99 13.59
4/3/2021 10:45:00 AM 2.98 37.364 0.03 6.91 2.89 13.57
4/3/2021 11:00:00 AM 3.14 37.652 0.03 6.94 3.02 13.52
4/3/2021 11:15:00 AM 3.33 37.994 0.03 6.93 2.99 13.46
4/3/2021 11:30:00 AM 3.54 38.372 0.03 6.94 2.97 13.41
4/3/2021 11:45:00 AM 3.77 38.786 0.03 6.92 2.87 13.34
4/3/2021 12:00:00 PM 4.01 39.218 0.03 6.92 2.97 13.27
4/3/2021 12:15:00 PM 4.18 39.524 0.03 6.92 3.01 13.22
4/3/2021 12:30:00 PM 4.34 39.812 0.029 6.92 2.81 13.15
4/3/2021 12:45:00 PM 4.47 40.046 0.029 6.93 2.91 13.09
4/3/2021 1:00:00 PM 4.67 40.406 0.029 6.92 2.96 13.02
4/3/2021 1:15:00 PM 5.02 41.036 0.029 6.95 2.87 12.94
4/3/2021 1:30:00 PM 5.25 41.45 0.029 6.94 2.84 12.86
4/3/2021 1:45:00 PM 5.53 41.954 0.029 6.93 2.96 12.79
4/3/2021 2:00:00 PM 5.66 42.188 0.029 6.96 3.02 12.7
4/3/2021 2:15:00 PM 5.91 42.638 0.029 6.92 2.93 12.62
4/3/2021 2:30:00 PM 6.09 42.962 0.029 6.95 2.82 12.55
4/3/2021 2:45:00 PM 6.36 43.448 0.029 6.97 2.93 12.46
4/3/2021 3:00:00 PM 6.54 43.772 0.029 6.95 2.98 12.38
4/3/2021 3:15:00 PM 6.63 43.934 0.029 6.97 3.01 12.34
4/3/2021 3:30:00 PM 6.76 44.168 0.029 6.94 3.04 12.3
4/3/2021 3:45:00 PM 6.86 44.348 0.029 6.96 3.04 12.24
4/3/2021 4:00:00 PM 6.89 44.402 0.029 6.96 3.09 12.22
4/3/2021 4:15:00 PM 6.92 44.456 0.029 6.95 3.04 12.19
4/3/2021 4:30:00 PM 6.97 44.546 0.029 6.95 3.01 12.17
4/3/2021 4:45:00 PM 7.02 44.636 0.029 6.97 3.07 12.16
4/3/2021 5:00:00 PM 7.03 44.654 0.029 6.96 2.99 12.12
4/3/2021 5:15:00 PM 7.05 44.69 0.029 6.98 3.08 12.1
4/3/2021 5:30:00 PM 7.09 44.762 0.029 6.98 3.2 12.07
4/3/2021 5:45:00 PM 7.14 44.852 0.029 6.97 3.17 12.05
4/3/2021 6:00:00 PM 7.16 44.888 0.029 6.96 3.17 12.02
4/3/2021 6:15:00 PM 7.16 44.888 0.029 6.96 3.17 12
4/3/2021 6:30:00 PM 7.16 44.888 0.029 6.94 3.1 11.98
4/3/2021 6:45:00 PM 7.14 44.852 0.029 6.94 3.13 11.94
4/3/2021 7:00:00 PM 7.12 44.816 0.029 6.91 3.01 11.92
4/3/2021 7:15:00 PM 7.09 44.762 0.029 6.92 3.12 11.9
4/3/2021 7:30:00 PM 7.07 44.726 0.029 6.88 3.26 11.89
4/3/2021 7:45:00 PM 7.03 44.654 0.029 6.89 3.05 11.88
4/3/2021 8:00:00 PM 6.98 44.564 0.029 6.87 3.21 11.89
4/3/2021 8:15:00 PM 6.92 44.456 0.029 6.85 3.13 11.9
4/3/2021 8:30:00 PM 6.87 44.366 0.029 6.89 3.33 11.91
4/3/2021 8:45:00 PM 6.81 44.258 0.029 6.9 3.21 11.93
4/3/2021 9:00:00 PM 6.75 44.15 0.03 6.87 3.29 11.95
4/3/2021 9:15:00 PM 6.69 44.042 0.03 6.9 3.24 11.97
4/3/2021 9:30:00 PM 6.63 43.934 0.03 6.84 3.03 11.99
4/3/2021 9:45:00 PM 6.57 43.826 0.03 6.84 3.29 12
4/3/2021 10:00:00 PM 6.52 43.736 0.03 6.84 3.13 12.02
4/3/2021 10:15:00 PM 6.47 43.646 0.03 6.85 3.15 12.03
4/3/2021 10:30:00 PM 6.41 43.538 0.03 6.89 3.08 12.05
4/3/2021 10:45:00 PM 6.36 43.448 0.03 6.87 3.22 12.07
4/3/2021 11:00:00 PM 6.31 43.358 0.03 6.87 3.11 12.09
4/3/2021 11:15:00 PM 6.27 43.286 0.03 6.87 3.75 12.1
4/3/2021 11:30:00 PM 6.22 43.196 0.03 6.87 3.1 12.12
4/3/2021 11:45:00 PM 6.17 43.106 0.03 6.87 3.11 12.13
4/4/2021 12:00:00 AM 6.13 43.034 0.03 6.86 3.09 12.14
4/4/2021 12:15:00 AM 6.09 42.962 0.03 6.84 3.28 12.15
4/4/2021 12:30:00 AM 6.05 42.89 0.03 6.86 2.97 12.16
4/4/2021 12:45:00 AM 6.01 42.818 0.03 6.86 3.02 12.18
4/4/2021 1:00:00 AM 5.97 42.746 0.03 6.84 3.01 12.18
4/4/2021 1:15:00 AM 5.94 42.692 0.03 6.88 3.15 12.2
4/4/2021 1:30:00 AM 5.9 42.62 0.03 6.87 3.05 12.2
4/4/2021 1:45:00 AM 5.86 42.548 0.03 6.89 3.04 12.21
4/4/2021 2:00:00 AM 5.83 42.494 0.03 6.86 2.91 12.22
4/4/2021 2:15:00 AM 5.79 42.422 0.03 6.88 3.15 12.23
4/4/2021 2:30:00 AM 5.76 42.368 0.03 6.84 2.89 12.23
4/4/2021 2:45:00 AM 5.72 42.296 0.03 6.82 3.11 12.25
4/4/2021 3:00:00 AM 5.67 42.206 0.03 6.86 2.93 12.26
4/4/2021 3:15:00 AM 5.62 42.116 0.03 6.82 2.97 12.28
4/4/2021 3:30:00 AM 5.57 42.026 0.03 6.85 3.01 12.29
4/4/2021 3:45:00 AM 5.52 41.936 0.03 6.87 2.94 12.31
4/4/2021 4:00:00 AM 5.46 41.828 0.03 6.81 2.94 12.32
4/4/2021 4:15:00 AM 5.41 41.738 0.03 6.86 2.86 12.33
4/4/2021 4:30:00 AM 5.35 41.63 0.03 6.89 3.07 12.35
4/4/2021 4:45:00 AM 5.3 41.54 0.03 6.88 2.96 12.36
4/4/2021 5:00:00 AM 5.24 41.432 0.03 6.86 3.02 12.38
4/4/2021 5:15:00 AM 5.19 41.342 0.03 6.87 3.15 12.39
4/4/2021 5:30:00 AM 5.15 41.27 0.03 6.87 3.02 12.41
4/4/2021 5:45:00 AM 5.11 41.198 0.03 6.84 2.95 12.43
4/4/2021 6:00:00 AM 5.08 41.144 0.03 6.84 2.9 12.44
4/4/2021 6:15:00 AM 5.04 41.072 0.03 6.86 2.96 12.45
4/4/2021 6:30:00 AM 5 41 0.03 6.85 2.95 12.47
4/4/2021 6:45:00 AM 4.96 40.928 0.03 6.85 2.85 12.49
4/4/2021 7:00:00 AM 4.91 40.838 0.03 6.84 2.95 12.51
4/4/2021 7:15:00 AM 4.87 40.766 0.03 6.85 3.01 12.54
4/4/2021 7:30:00 AM 4.83 40.694 0.03 6.88 2.94 12.57
4/4/2021 7:45:00 AM 4.79 40.622 0.03 6.87 2.82 12.61
4/4/2021 8:00:00 AM 4.76 40.568 0.03 6.86 2.9 12.64
4/4/2021 8:15:00 AM 4.72 40.496 0.03 6.91 3.01 12.67
4/4/2021 8:30:00 AM 4.7 40.46 0.03 6.89 2.88 12.69
4/4/2021 8:45:00 AM 4.68 40.424 0.03 6.89 2.98 12.71
4/4/2021 9:00:00 AM 4.66 40.388 0.03 6.9 2.78 12.74
4/4/2021 9:15:00 AM 4.65 40.37 0.03 6.91 2.92 12.75
4/4/2021 9:30:00 AM 4.66 40.388 0.03 6.89 2.87 12.76
4/4/2021 9:45:00 AM 4.68 40.424 0.03 6.93 2.9 12.77
4/4/2021 10:00:00 AM 4.73 40.514 0.03 6.91 2.93 12.78
4/4/2021 10:15:00 AM 4.81 40.658 0.03 6.93 2.78 12.78
4/4/2021 10:30:00 AM 4.92 40.856 0.03 6.93 2.83 12.76
4/4/2021 10:45:00 AM 5.07 41.126 0.03 6.91 2.94 12.74
4/4/2021 11:00:00 AM 5.24 41.432 0.03 6.91 2.87 12.7
4/4/2021 11:15:00 AM 5.43 41.774 0.03 6.94 2.83 12.66
4/4/2021 11:30:00 AM 5.64 42.152 0.03 6.93 2.75 12.6
4/4/2021 11:45:00 AM 5.87 42.566 0.03 6.93 2.86 12.54
4/4/2021 12:00:00 PM 6.13 43.034 0.03 6.97 2.88 12.48
4/4/2021 12:15:00 PM 6.39 43.502 0.03 6.96 2.85 12.41
4/4/2021 12:30:00 PM 6.66 43.988 0.03 6.94 2.78 12.33
4/4/2021 12:45:00 PM 6.92 44.456 0.03 6.99 2.85 12.26
4/4/2021 1:00:00 PM 7.21 44.978 0.03 6.95 2.79 12.17
4/4/2021 1:15:00 PM 7.48 45.464 0.029 6.97 2.87 12.1
4/4/2021 1:30:00 PM 7.75 45.95 0.029 6.98 3.04 12.01
4/4/2021 1:45:00 PM 8.02 46.436 0.029 6.98 3 11.94
4/4/2021 2:00:00 PM 8.28 46.904 0.029 6.97 2.87 11.85
4/4/2021 2:15:00 PM 8.52 47.336 0.029 6.99 2.91 11.77
4/4/2021 2:30:00 PM 8.74 47.732 0.029 6.99 2.93 11.7
4/4/2021 2:45:00 PM 8.93 48.074 0.029 6.98 3.1 11.62
4/4/2021 3:00:00 PM 9.13 48.434 0.029 7.02 2.94 11.56
4/4/2021 3:15:00 PM 9.29 48.722 0.029 7 2.92 11.5
4/4/2021 3:30:00 PM 9.44 48.992 0.029 6.98 2.9 11.45
4/4/2021 3:45:00 PM 9.57 49.226 0.029 7.02 3.01 11.39
4/4/2021 4:00:00 PM 9.68 49.424 0.029 7.01 2.91 11.34
4/4/2021 4:15:00 PM 9.77 49.586 0.029 6.99 3.11 11.31
4/4/2021 4:30:00 PM 9.84 49.712 0.029 7.03 3.2 11.28
4/4/2021 4:45:00 PM 9.88 49.784 0.029 6.98 2.95 11.24
4/4/2021 5:00:00 PM 9.91 49.838 0.029 6.98 3.05 11.22
4/4/2021 5:15:00 PM 9.92 49.856 0.029 6.99 2.96 11.2
4/4/2021 5:30:00 PM 9.9 49.82 0.029 6.97 3.01 11.17
4/4/2021 5:45:00 PM 9.85 49.73 0.029 6.95 3 11.15
4/4/2021 6:00:00 PM 9.81 49.658 0.029 6.97 3.13 11.14
4/4/2021 6:15:00 PM 9.77 49.586 0.029 6.95 2.94 11.13
4/4/2021 6:30:00 PM 9.73 49.514 0.029 6.92 3.02 11.13
4/4/2021 6:45:00 PM 9.67 49.406 0.029 6.95 3.04 11.12
4/4/2021 7:00:00 PM 9.62 49.316 0.029 6.9 3.23 11.12
4/4/2021 7:15:00 PM 9.55 49.19 0.029 6.91 3.14 11.13
4/4/2021 7:30:00 PM 9.47 49.046 0.029 6.93 3.12 11.14
4/4/2021 7:45:00 PM 9.38 48.884 0.03 6.93 3.17 11.15
4/4/2021 8:00:00 PM 9.28 48.704 0.03 6.87 3.16 11.16
4/4/2021 8:15:00 PM 9.17 48.506 0.03 6.87 3.18 11.18
4/4/2021 8:30:00 PM 9.06 48.308 0.03 6.86 3.14 11.2
4/4/2021 8:45:00 PM 8.94 48.092 0.03 6.88 3.47 11.23
4/4/2021 9:00:00 PM 8.82 47.876 0.03 6.88 3.22 11.27
4/4/2021 9:15:00 PM 8.71 47.678 0.03 6.82 3.31 11.31
4/4/2021 9:30:00 PM 8.59 47.462 0.03 6.89 3.22 11.34
4/4/2021 9:45:00 PM 8.46 47.228 0.03 6.85 3.13 11.38
4/4/2021 10:00:00 PM 8.34 47.012 0.03 6.85 3.27 11.41
4/4/2021 10:15:00 PM 8.22 46.796 0.03 6.89 3.16 11.45
4/4/2021 10:30:00 PM 8.09 46.562 0.03 6.88 3.19 11.49
4/4/2021 10:45:00 PM 7.97 46.346 0.03 6.86 3.35 11.53
4/4/2021 11:00:00 PM 7.85 46.13 0.03 6.87 3.15 11.56
4/4/2021 11:15:00 PM 7.74 45.932 0.03 6.85 3.08 11.59
4/4/2021 11:30:00 PM 7.63 45.734 0.03 6.83 3.11 11.63
4/4/2021 11:45:00 PM 7.52 45.536 0.03 6.85 2.95 11.67
4/5/2021 12:00:00 AM 7.41 45.338 0.03 6.86 3.05 11.7
4/5/2021 12:15:00 AM 7.31 45.158 0.03 6.85 3.03 11.74
4/5/2021 12:30:00 AM 7.21 44.978 0.03 6.89 3.09 11.76
4/5/2021 12:45:00 AM 7.11 44.798 0.03 6.86 2.99 11.79
4/5/2021 1:00:00 AM 7.01 44.618 0.03 6.87 2.96 11.82
4/5/2021 1:15:00 AM 6.91 44.438 0.03 6.89 3.09 11.85
4/5/2021 1:30:00 AM 6.82 44.276 0.03 6.86 3.08 11.89
4/5/2021 1:45:00 AM 6.73 44.114 0.03 6.85 3.01 11.91
4/5/2021 2:00:00 AM 6.64 43.952 0.03 6.87 3.09 11.94
4/5/2021 2:15:00 AM 6.55 43.79 0.03 6.91 2.96 11.97
4/5/2021 2:30:00 AM 6.46 43.628 0.031 6.84 2.91 11.99
4/5/2021 2:45:00 AM 6.37 43.466 0.031 6.85 2.9 12.01
4/5/2021 3:00:00 AM 6.29 43.322 0.031 6.84 2.93 12.05
4/5/2021 3:15:00 AM 6.2 43.16 0.031 6.84 3.01 12.08
4/5/2021 3:30:00 AM 6.12 43.016 0.03 6.84 3.01 12.1
4/5/2021 3:45:00 AM 6.04 42.872 0.03 6.83 2.92 12.13
4/5/2021 4:00:00 AM 5.96 42.728 0.031 6.86 2.86 12.15
4/5/2021 4:15:00 AM 5.88 42.584 0.031 6.81 2.94 12.18
4/5/2021 4:30:00 AM 5.81 42.458 0.031 6.81 2.92 12.2
4/5/2021 4:45:00 AM 5.73 42.314 0.031 6.83 2.97 12.22
4/5/2021 5:00:00 AM 5.66 42.188 0.031 6.83 2.9 12.26
4/5/2021 5:15:00 AM 5.59 42.062 0.031 6.83 2.84 12.28
4/5/2021 5:30:00 AM 5.52 41.936 0.031 6.82 2.92 12.3
4/5/2021 5:45:00 AM 5.46 41.828 0.031 6.89 3.02 12.33
4/5/2021 6:00:00 AM 5.39 41.702 0.031 6.81 2.87 12.35
4/5/2021 6:15:00 AM 5.33 41.594 0.031 6.86 2.96 12.37
4/5/2021 6:30:00 AM 5.27 41.486 0.031 6.81 3.02 12.39
4/5/2021 6:45:00 AM 5.22 41.396 0.031 6.83 2.94 12.41
4/5/2021 7:00:00 AM 5.17 41.306 0.031 6.82 2.96 12.44
4/5/2021 7:15:00 AM 5.12 41.216 0.03 6.85 2.91 12.48
4/5/2021 7:30:00 AM 5.08 41.144 0.03 6.85 2.95 12.51
4/5/2021 7:45:00 AM 5.04 41.072 0.03 6.89 2.94 12.55
4/5/2021 8:00:00 AM 5.01 41.018 0.03 6.88 2.84 12.58
4/5/2021 8:15:00 AM 4.97 40.946 0.03 6.86 2.9 12.62
4/5/2021 8:30:00 AM 4.94 40.892 0.031 6.87 2.9 12.64
4/5/2021 8:45:00 AM 4.91 40.838 0.03 6.88 2.95 12.67
4/5/2021 9:00:00 AM 4.89 40.802 0.03 6.93 2.93 12.69
4/5/2021 9:15:00 AM 4.88 40.784 0.03 6.9 2.93 12.7
4/5/2021 9:30:00 AM 4.88 40.784 0.03 6.92 2.71 12.71
4/5/2021 9:45:00 AM 4.91 40.838 0.03 6.91 2.8 12.72
4/5/2021 10:00:00 AM 4.97 40.946 0.03 6.92 2.83 12.72
4/5/2021 10:15:00 AM 5.05 41.09 0.03 6.91 2.77 12.71
4/5/2021 10:30:00 AM 5.17 41.306 0.03 6.94 3.01 12.69
4/5/2021 10:45:00 AM 5.32 41.576 0.03 6.93 2.97 12.67
4/5/2021 11:00:00 AM 5.49 41.882 0.03 6.95 2.72 12.64
4/5/2021 11:15:00 AM 5.69 42.242 0.03 6.94 2.85 12.59
4/5/2021 11:30:00 AM 5.91 42.638 0.03 6.94 2.85 12.53
4/5/2021 11:45:00 AM 6.14 43.052 0.03 6.97 2.77 12.49
4/5/2021 12:00:00 PM 6.37 43.466 0.03 6.98 2.8 12.42
4/5/2021 12:15:00 PM 6.63 43.934 0.03 6.98 2.83 12.35
4/5/2021 12:30:00 PM 6.9 44.42 0.03 6.95 2.78 12.28
4/5/2021 12:45:00 PM 7.17 44.906 0.03 6.98 2.82 12.2
4/5/2021 1:00:00 PM 7.45 45.41 0.03 6.97 2.78 12.13
4/5/2021 1:15:00 PM 7.71 45.878 0.03 6.99 2.81 12.04
4/5/2021 1:30:00 PM 7.97 46.346 0.03 6.98 2.85 11.97
4/5/2021 1:45:00 PM 8.24 46.832 0.03 6.99 2.86 11.88
4/5/2021 2:00:00 PM 8.49 47.282 0.029 7.02 2.78 11.8
4/5/2021 2:15:00 PM 8.75 47.75 0.029 7 2.78 11.73
4/5/2021 2:30:00 PM 8.95 48.11 0.03 7.01 2.67 11.65
4/5/2021 2:45:00 PM 9.13 48.434 0.029 7 2.9 11.59
4/5/2021 3:00:00 PM 9.31 48.758 0.029 7.02 2.89 11.53
4/5/2021 3:15:00 PM 9.47 49.046 0.029 7.03 2.81 11.48
4/5/2021 3:30:00 PM 9.6 49.28 0.029 7.02 3.01 11.41
4/5/2021 3:45:00 PM 9.71 49.478 0.029 7.02 2.88 11.37
4/5/2021 4:00:00 PM 9.8 49.64 0.029 7.03 2.94 11.33
4/5/2021 4:15:00 PM 9.89 49.802 0.029 7.04 2.81 11.3
4/5/2021 4:30:00 PM 9.96 49.928 0.029 7.04 2.91 11.27
4/5/2021 4:45:00 PM 10.01 50.018 0.029 7.03 2.95 11.25
4/5/2021 5:00:00 PM 10.04 50.072 0.029 7.04 2.96 11.21
4/5/2021 5:15:00 PM 10.07 50.126 0.029 7 2.98 11.2
4/5/2021 5:30:00 PM 10.08 50.144 0.029 7.02 2.98 11.17
4/5/2021 5:45:00 PM 10.07 50.126 0.029 6.98 3.05 11.13
4/5/2021 6:00:00 PM 10.06 50.108 0.029 6.97 3.05 11.1
4/5/2021 6:15:00 PM 10.07 50.126 0.029 6.95 3.14 11.08
4/5/2021 6:30:00 PM 10.05 50.09 0.029 6.94 3.17 11.06
4/5/2021 6:45:00 PM 10.03 50.054 0.029 6.92 2.98 11.06
4/5/2021 7:00:00 PM 9.98 49.964 0.029 6.94 3 11.05
4/5/2021 7:15:00 PM 9.93 49.874 0.03 6.92 2.97 11.04
4/5/2021 7:30:00 PM 9.86 49.748 0.03 6.91 2.98 11.03
4/5/2021 7:45:00 PM 9.8 49.64 0.03 6.9 3.17 11.02
4/5/2021 8:00:00 PM 9.72 49.496 0.03 6.88 3.04 11.02
4/5/2021 8:15:00 PM 9.65 49.37 0.03 6.88 3.02 11.03
4/5/2021 8:30:00 PM 9.57 49.226 0.03 6.84 3.19 11.05
4/5/2021 8:45:00 PM 9.49 49.082 0.03 6.87 3.1 11.07
4/5/2021 9:00:00 PM 9.41 48.938 0.03 6.91 3.09 11.09
4/5/2021 9:15:00 PM 9.33 48.794 0.03 6.86 3.21 11.12
4/5/2021 9:30:00 PM 9.26 48.668 0.03 6.86 3.23 11.13
4/5/2021 9:45:00 PM 9.2 48.56 0.03 6.88 3.1 11.15
4/5/2021 10:00:00 PM 9.13 48.434 0.03 6.86 3.06 11.17
4/5/2021 10:15:00 PM 9.07 48.326 0.03 6.87 3.15 11.18
4/5/2021 10:30:00 PM 9 48.2 0.03 6.87 3.1 11.21
4/5/2021 10:45:00 PM 8.94 48.092 0.03 6.86 3.08 11.22
4/5/2021 11:00:00 PM 8.88 47.984 0.03 6.87 3.06 11.24
4/5/2021 11:15:00 PM 8.83 47.894 0.03 6.87 3.2 11.26
4/5/2021 11:30:00 PM 8.77 47.786 0.03 6.86 3.18 11.27
4/5/2021 11:45:00 PM 8.72 47.696 0.03 6.84 3.16 11.29
4/6/2021 12:00:00 AM 8.67 47.606 0.03 6.84 3.18 11.31
4/6/2021 12:15:00 AM 8.62 47.516 0.031 6.85 3.17 11.32
4/6/2021 12:30:00 AM 8.57 47.426 0.031 6.85 3.13 11.33
4/6/2021 12:45:00 AM 8.52 47.336 0.032 6.85 4.31 11.35
4/6/2021 1:00:00 AM 8.47 47.246 0.031 6.86 3.02 11.36
4/6/2021 1:15:00 AM 8.42 47.156 0.031 6.83 3.08 11.37
4/6/2021 1:30:00 AM 8.38 47.084 0.031 6.85 3.1 11.38
4/6/2021 1:45:00 AM 8.33 46.994 0.031 6.86 3.13 11.39
4/6/2021 2:00:00 AM 8.28 46.904 0.031 6.86 3.07 11.41
4/6/2021 2:15:00 AM 8.23 46.814 0.031 6.88 3.09 11.42
4/6/2021 2:30:00 AM 8.18 46.724 0.031 6.86 3.15 11.44
4/6/2021 2:45:00 AM 8.12 46.616 0.031 6.84 3.08 11.45
4/6/2021 3:00:00 AM 8.07 46.526 0.031 6.87 3 11.47
4/6/2021 3:15:00 AM 8.01 46.418 0.031 6.86 3.36 11.49
4/6/2021 3:30:00 AM 7.95 46.31 0.031 6.85 3.41 11.5
4/6/2021 3:45:00 AM 7.89 46.202 0.031 6.85 3.33 11.52
4/6/2021 4:00:00 AM 7.82 46.076 0.031 6.87 3.18 11.53
4/6/2021 4:15:00 AM 7.75 45.95 0.031 6.87 3.09 11.55
4/6/2021 4:30:00 AM 7.68 45.824 0.031 6.84 3.03 11.57
4/6/2021 4:45:00 AM 7.61 45.698 0.031 6.85 3.02 11.59
4/6/2021 5:00:00 AM 7.55 45.59 0.031 6.86 3.01 11.62
4/6/2021 5:15:00 AM 7.49 45.482 0.031 6.86 3.01 11.63
4/6/2021 5:30:00 AM 7.43 45.374 0.031 6.83 3.15 11.66
4/6/2021 5:45:00 AM 7.36 45.248 0.031 6.9 2.97 11.68
4/6/2021 6:00:00 AM 7.29 45.122 0.031 6.87 3.13 11.7
4/6/2021 6:15:00 AM 7.22 44.996 0.031 6.84 2.98 11.72
4/6/2021 6:30:00 AM 7.15 44.87 0.031 6.83 2.96 11.74
4/6/2021 6:45:00 AM 7.08 44.744 0.031 6.83 2.9 11.76
4/6/2021 7:00:00 AM 7.01 44.618 0.031 6.86 3.02 11.8
4/6/2021 7:15:00 AM 6.95 44.51 0.031 6.86 3.01 11.85
4/6/2021 7:30:00 AM 6.88 44.384 0.031 6.87 2.9 11.89
4/6/2021 7:45:00 AM 6.83 44.294 0.031 6.9 2.95 11.93
4/6/2021 8:00:00 AM 6.78 44.204 0.031 6.9 3.19 11.97
4/6/2021 8:15:00 AM 6.73 44.114 0.031 6.89 2.94 12.01
4/6/2021 8:30:00 AM 6.69 44.042 0.031 6.94 3.06 12.05
4/6/2021 8:45:00 AM 6.65 43.97 0.031 6.93 3.03 12.08
4/6/2021 9:00:00 AM 6.62 43.916 0.031 6.9 2.97 12.1
4/6/2021 9:15:00 AM 6.6 43.88 0.03 6.89 2.97 12.13
4/6/2021 9:30:00 AM 6.6 43.88 0.03 6.91 2.94 12.15
4/6/2021 9:45:00 AM 6.62 43.916 0.03 6.93 2.99 12.16
4/6/2021 10:00:00 AM 6.65 43.97 0.03 6.95 2.97 12.17
4/6/2021 10:15:00 AM 6.72 44.096 0.031 6.97 2.76 12.17
4/6/2021 10:30:00 AM 6.83 44.294 0.03 6.97 2.89 12.16
4/6/2021 10:45:00 AM 6.96 44.528 0.03 6.97 2.95 12.14
4/6/2021 11:00:00 AM 7.11 44.798 0.03 6.96 2.97 12.11
4/6/2021 11:15:00 AM 7.28 45.104 0.03 6.99 3 12.08
4/6/2021 11:30:00 AM 7.48 45.464 0.03 6.98 3.02 12.04
4/6/2021 11:45:00 AM 7.69 45.842 0.03 6.99 2.85 11.98
4/6/2021 12:00:00 PM 7.91 46.238 0.03 7.01 2.9 11.94
4/6/2021 12:15:00 PM 8.16 46.688 0.03 6.99 2.93 11.88
4/6/2021 12:30:00 PM 8.42 47.156 0.03 6.99 2.89 11.81
4/6/2021 12:45:00 PM 8.68 47.624 0.03 7.01 2.87 11.75
4/6/2021 1:00:00 PM 8.93 48.074 0.03 6.99 2.8 11.68
4/6/2021 1:15:00 PM 9.14 48.452 0.03 7.03 2.95 11.61
4/6/2021 1:30:00 PM 9.39 48.902 0.03 7.03 3.06 11.56
4/6/2021 1:45:00 PM 9.67 49.406 0.03 7.06 2.91 11.47
4/6/2021 2:00:00 PM 9.93 49.874 0.03 7.04 2.82 11.4
4/6/2021 2:15:00 PM 10.09 50.162 0.03 7.07 2.95 11.33
4/6/2021 2:30:00 PM 10.34 50.612 0.03 7.04 2.89 11.27
4/6/2021 2:45:00 PM 10.57 51.026 0.03 7.05 2.83 11.21
4/6/2021 3:00:00 PM 10.77 51.386 0.03 7.1 3.01 11.13
4/6/2021 3:15:00 PM 10.95 51.71 0.03 7.07 2.82 11.06
4/6/2021 3:30:00 PM 11.1 51.98 0.029 7.07 2.84 11.01
4/6/2021 3:45:00 PM 11.24 52.232 0.029 7.11 2.92 10.96
4/6/2021 4:00:00 PM 11.38 52.484 0.029 7.07 3.05 10.91
4/6/2021 4:15:00 PM 11.47 52.646 0.029 7.06 2.99 10.85
4/6/2021 4:30:00 PM 11.57 52.826 0.029 7.12 3.08 10.83
4/6/2021 4:45:00 PM 11.63 52.934 0.03 7.07 3 10.8
4/6/2021 5:00:00 PM 11.63 52.934 0.029 7.04 2.97 10.75
4/6/2021 5:15:00 PM 11.64 52.952 0.03 7.04 3.14 10.74
4/6/2021 5:30:00 PM 11.66 52.988 0.03 7.02 3.06 10.72
4/6/2021 5:45:00 PM 11.64 52.952 0.03 7 3.06 10.68
4/6/2021 6:00:00 PM 11.63 52.934 0.03 7.01 3.02 10.67
4/6/2021 6:15:00 PM 11.64 52.952 0.03 7.03 3.02 10.67
4/6/2021 6:30:00 PM 11.63 52.934 0.03 7 2.99 10.66
4/6/2021 6:45:00 PM 11.62 52.916 0.03 7.01 3.19 10.63
4/6/2021 7:00:00 PM 11.58 52.844 0.03 6.98 3.23 10.61
4/6/2021 7:15:00 PM 11.53 52.754 0.03 6.98 3.21 10.59
4/6/2021 7:30:00 PM 11.46 52.628 0.03 6.98 3.15 10.57
4/6/2021 7:45:00 PM 11.37 52.466 0.03 6.93 3.08 10.57
4/6/2021 8:00:00 PM 11.28 52.304 0.03 6.91 3.07 10.58
4/6/2021 8:15:00 PM 11.18 52.124 0.03 6.96 3.36 10.59
4/6/2021 8:30:00 PM 11.08 51.944 0.03 6.91 3.16 10.61
4/6/2021 8:45:00 PM 10.97 51.746 0.03 6.87 3.28 10.62
4/6/2021 9:00:00 PM 10.87 51.566 0.03 6.89 3.3 10.65
4/6/2021 9:15:00 PM 10.76 51.368 0.03 6.91 4.9 10.68
4/6/2021 9:30:00 PM 10.64 51.152 0.03 6.92 3.24 10.72
4/6/2021 9:45:00 PM 10.53 50.954 0.03 6.9 3.24 10.75
4/6/2021 10:00:00 PM 10.41 50.738 0.031 6.89 3.24 10.78
4/6/2021 10:15:00 PM 10.29 50.522 0.031 6.86 3.27 10.8
4/6/2021 10:30:00 PM 10.19 50.342 0.031 6.91 3.24 10.84
4/6/2021 10:45:00 PM 10.09 50.162 0.031 6.89 3.19 10.88
4/6/2021 11:00:00 PM 9.99 49.982 0.031 6.86 3.23 10.91
4/6/2021 11:15:00 PM 9.9 49.82 0.031 6.91 3.15 10.93
4/6/2021 11:30:00 PM 9.81 49.658 0.031 6.87 3.19 10.96
4/6/2021 11:45:00 PM 9.73 49.514 0.031 6.91 3.11 10.98
4/7/2021 12:00:00 AM 9.66 49.388 0.031 6.92 3.48 11
4/7/2021 12:15:00 AM 9.58 49.244 0.031 6.87 3.22 11.02
4/7/2021 12:30:00 AM 9.5 49.1 0.031 6.89 3.06 11.04
4/7/2021 12:45:00 AM 9.43 48.974 0.031 6.86 3.11 11.07
4/7/2021 1:00:00 AM 9.36 48.848 0.031 6.88 3.08 11.09
4/7/2021 1:15:00 AM 9.29 48.722 0.031 6.87 3.16 11.11
4/7/2021 1:30:00 AM 9.22 48.596 0.031 6.88 3.13 11.13
4/7/2021 1:45:00 AM 9.15 48.47 0.031 6.88 3.11 11.15
4/7/2021 2:00:00 AM 9.09 48.362 0.031 6.91 3.19 11.16
4/7/2021 2:15:00 AM 9.02 48.236 0.031 6.88 2.99 11.18
4/7/2021 2:30:00 AM 8.96 48.128 0.031 6.89 3 11.19
4/7/2021 2:45:00 AM 8.88 47.984 0.031 6.9 3.1 11.22
4/7/2021 3:00:00 AM 8.81 47.858 0.031 6.85 3.11 11.24
4/7/2021 3:15:00 AM 8.74 47.732 0.031 6.89 3.02 11.26
4/7/2021 3:30:00 AM 8.67 47.606 0.031 6.85 2.99 11.28
4/7/2021 3:45:00 AM 8.6 47.48 0.031 6.87 2.99 11.29
4/7/2021 4:00:00 AM 8.53 47.354 0.031 6.85 2.95 11.31
4/7/2021 4:15:00 AM 8.47 47.246 0.031 6.87 3.06 11.33
4/7/2021 4:30:00 AM 8.41 47.138 0.031 6.88 3.01 11.35
4/7/2021 4:45:00 AM 8.34 47.012 0.031 6.86 3.04 11.36
4/7/2021 5:00:00 AM 8.29 46.922 0.031 6.87 3.07 11.38
4/7/2021 5:15:00 AM 8.25 46.85 0.031 6.9 3.12 11.4
4/7/2021 5:30:00 AM 8.2 46.76 0.031 6.86 2.86 11.42
4/7/2021 5:45:00 AM 8.16 46.688 0.031 6.85 3.03 11.43
4/7/2021 6:00:00 AM 8.12 46.616 0.031 6.88 3.13 11.44
4/7/2021 6:15:00 AM 8.08 46.544 0.031 6.88 2.97 11.47
4/7/2021 6:30:00 AM 8.05 46.49 0.031 6.87 3 11.48
4/7/2021 6:45:00 AM 8.01 46.418 0.031 6.86 2.98 11.49
4/7/2021 7:00:00 AM 7.97 46.346 0.031 6.89 3.13 11.51
4/7/2021 7:15:00 AM 7.94 46.292 0.031 6.86 3.06 11.54
4/7/2021 7:30:00 AM 7.92 46.256 0.031 6.88 2.92 11.58
4/7/2021 7:45:00 AM 7.9 46.22 0.031 6.9 3.08 11.59
4/7/2021 8:00:00 AM 7.88 46.184 0.031 6.88 3.1 11.6
4/7/2021 8:15:00 AM 7.86 46.148 0.031 6.92 3.14 11.62
4/7/2021 8:30:00 AM 7.85 46.13 0.031 6.9 2.98 11.64
4/7/2021 8:45:00 AM 7.84 46.112 0.031 6.93 2.98 11.69
4/7/2021 9:00:00 AM 7.82 46.076 0.031 6.94 2.92 11.71
4/7/2021 9:15:00 AM 7.82 46.076 0.031 6.94 3.09 11.73
4/7/2021 9:30:00 AM 7.82 46.076 0.031 6.96 2.96 11.74
4/7/2021 9:45:00 AM 7.85 46.13 0.031 6.99 2.91 11.75
4/7/2021 10:00:00 AM 7.89 46.202 0.031 7 3.07 11.77
4/7/2021 10:15:00 AM 7.96 46.328 0.031 7.01 2.97 11.78
4/7/2021 10:30:00 AM 8.06 46.508 0.031 7 2.98 11.78
4/7/2021 10:45:00 AM 8.69 47.642 0.032 8.34 4.2 10.65
4/7/2021 11:00:00 AM 8.4 47.12 0.031 7.05 1.03 11.52
4/7/2021 11:15:00 AM 8.58 47.444 0.03 6.92 1.01 11.52
4/7/2021 11:30:00 AM 8.78 47.804 0.03 6.83 0.41 11.49
4/7/2021 11:45:00 AM 9 48.2 0.03 6.88 0.34 11.45
4/7/2021 12:00:00 PM 9.24 48.632 0.03 6.87 0.34 11.4
4/7/2021 12:15:00 PM 9.49 49.082 0.03 6.89 0.06 11.35
4/7/2021 12:30:00 PM 9.75 49.55 0.03 6.87 0.02 11.29
4/7/2021 12:45:00 PM 10.03 50.054 0.03 6.91 -0.02 11.24
4/7/2021 1:00:00 PM 10.3 50.54 0.03 6.91 0.01 11.17
4/7/2021 1:15:00 PM 10.58 51.044 0.03 6.95 0.06 11.11
4/7/2021 1:30:00 PM 10.85 51.53 0.03 6.99 -0.2 11.04
4/7/2021 1:45:00 PM 11.12 52.016 0.03 7.04 -0.15 10.97
4/7/2021 2:00:00 PM 11.12 52.016 0.03 7.04 -0.19 10.9
4/7/2021 2:15:00 PM 11.34 52.412 0.03 7.1 -0.17 10.86
4/7/2021 2:30:00 PM 11.51 52.718 0.03 7.17 -0.11 10.82
4/7/2021 2:45:00 PM 11.73 53.114 0.03 7.06 -0.21 10.74
4/7/2021 3:00:00 PM 11.8 53.24 0.03 7.07 -0.2 10.67
4/7/2021 3:15:00 PM 11.98 53.564 0.03 7.01 -0.15 10.64
4/7/2021 3:30:00 PM 12.18 53.924 0.03 7.03 -0.18 10.62
4/7/2021 3:45:00 PM 12.33 54.194 0.03 7.03 -0.23 10.58
4/7/2021 4:00:00 PM 12.39 54.302 0.03 7.05 -0.22 10.56
4/7/2021 4:15:00 PM 12.57 54.626 0.03 7.06 0.19 10.53
4/7/2021 4:30:00 PM 12.6 54.68 0.03 7 -0.08 10.44
4/7/2021 4:45:00 PM 12.6 54.68 0.03 7 -0.04 10.4
4/7/2021 5:00:00 PM 12.6 54.68 0.03 7 0.02 10.41
4/7/2021 5:15:00 PM 12.58 54.644 0.03 7.01 -0.12 10.42
4/7/2021 5:30:00 PM 12.55 54.59 0.03 6.97 0.03 10.41
4/7/2021 5:45:00 PM 12.5 54.5 0.03 6.96 0.02 10.38
4/7/2021 6:00:00 PM 12.47 54.446 0.03 6.95 -0.03 10.36
4/7/2021 6:15:00 PM 12.46 54.428 0.03 6.91 0 10.35
4/7/2021 6:30:00 PM 12.41 54.338 0.03 6.89 -0.09 10.34
4/7/2021 6:45:00 PM 12.37 54.266 0.03 6.86 -0.04 10.35
4/7/2021 7:00:00 PM 12.31 54.158 0.03 6.89 -0.07 10.34
4/7/2021 7:15:00 PM 12.24 54.032 0.03 6.89 0.19 10.33
4/7/2021 7:30:00 PM 12.18 53.924 0.03 6.83 0.01 10.3
4/7/2021 7:45:00 PM 12.11 53.798 0.03 6.81 0.2 10.28
4/7/2021 8:00:00 PM 12.04 53.672 0.03 6.82 0.05 10.27
4/7/2021 8:15:00 PM 11.98 53.564 0.03 6.76 0.04 10.27
4/7/2021 8:30:00 PM 11.9 53.42 0.031 6.77 0 10.28
4/7/2021 8:45:00 PM 11.81 53.258 0.031 6.79 0.13 10.29
4/7/2021 9:00:00 PM 11.73 53.114 0.031 6.77 0.06 10.3
4/7/2021 9:15:00 PM 11.63 52.934 0.031 6.76 0.1 10.32
4/7/2021 9:30:00 PM 11.53 52.754 0.031 6.72 0.11 10.35
4/7/2021 9:45:00 PM 11.42 52.556 0.031 6.77 0.02 10.38
4/7/2021 10:00:00 PM 11.32 52.376 0.031 6.74 0.04 10.41
4/7/2021 10:15:00 PM 11.23 52.214 0.031 6.74 0.09 10.43
4/7/2021 10:30:00 PM 11.13 52.034 0.031 6.68 0.1 10.45
4/7/2021 10:45:00 PM 11.03 51.854 0.031 6.71 0.02 10.47
4/7/2021 11:00:00 PM 10.93 51.674 0.031 6.69 0.13 10.5
4/7/2021 11:15:00 PM 10.84 51.512 0.031 6.71 0.11 10.53
4/7/2021 11:30:00 PM 10.74 51.332 0.031 6.68 0.11 10.55
4/7/2021 11:45:00 PM 10.64 51.152 0.031 6.72 0.08 10.58
4/8/2021 12:00:00 AM 10.54 50.972 0.031 6.68 0.09 10.6
4/8/2021 12:15:00 AM 10.45 50.81 0.031 6.69 -0.06 10.62
4/8/2021 12:30:00 AM 10.36 50.648 0.031 6.68 0.03 10.65
4/8/2021 12:45:00 AM 10.27 50.486 0.031 6.72 -0.07 10.67
4/8/2021 1:00:00 AM 10.18 50.324 0.031 6.69 5.83 10.7
4/8/2021 1:15:00 AM 10.09 50.162 0.031 6.71 0 10.72
4/8/2021 1:30:00 AM 10 50 0.031 6.68 0.05 10.75
4/8/2021 1:45:00 AM 9.92 49.856 0.031 6.7 0.01 10.77
4/8/2021 2:00:00 AM 9.83 49.694 0.031 6.73 -0.11 10.79
4/8/2021 2:15:00 AM 9.75 49.55 0.031 6.68 -0.04 10.81
4/8/2021 2:30:00 AM 9.67 49.406 0.032 6.71 -0.01 10.83
4/8/2021 2:45:00 AM 9.58 49.244 0.031 6.73 -0.02 10.85
4/8/2021 3:00:00 AM 9.51 49.118 0.031 6.68 -0.03 10.88
4/8/2021 3:15:00 AM 9.43 48.974 0.031 6.74 -0.13 10.9
4/8/2021 3:30:00 AM 9.35 48.83 0.031 6.75 -0.11 10.93
4/8/2021 3:45:00 AM 9.27 48.686 0.031 6.72 -0.02 10.95
4/8/2021 4:00:00 AM 9.2 48.56 0.031 6.69 -0.09 10.97
4/8/2021 4:15:00 AM 9.13 48.434 0.031 6.77 -0.08 10.98
4/8/2021 4:30:00 AM 9.05 48.29 0.032 6.76 -0.04 11
4/8/2021 4:45:00 AM 8.98 48.164 0.031 6.74 -0.13 11.02
4/8/2021 5:00:00 AM 8.91 48.038 0.031 6.75 -0.11 11.04
4/8/2021 5:15:00 AM 8.84 47.912 0.031 6.71 -0.09 11.06
4/8/2021 5:30:00 AM 8.78 47.804 0.032 6.72 -0.07 11.09
4/8/2021 5:45:00 AM 8.71 47.678 0.031 6.73 -0.08 11.1
4/8/2021 6:00:00 AM 8.64 47.552 0.031 6.77 -0.03 11.13
4/8/2021 6:15:00 AM 8.58 47.444 0.031 6.77 0.03 11.14
4/8/2021 6:30:00 AM 8.52 47.336 0.031 6.74 -0.12 11.16
4/8/2021 6:45:00 AM 8.45 47.21 0.031 6.73 -0.11 11.18
4/8/2021 7:00:00 AM 8.39 47.102 0.032 6.77 -0.05 11.21
4/8/2021 7:15:00 AM 8.34 47.012 0.031 6.78 -0.06 11.25
4/8/2021 7:30:00 AM 8.28 46.904 0.031 6.84 0 11.29
4/8/2021 7:45:00 AM 8.24 46.832 0.031 6.85 -0.1 11.33
4/8/2021 8:00:00 AM 8.19 46.742 0.031 6.78 -0.21 11.37
4/8/2021 8:15:00 AM 8.15 46.67 0.031 6.88 0.05 11.41
4/8/2021 8:30:00 AM 8.12 46.616 0.031 6.84 -0.18 11.44
4/8/2021 8:45:00 AM 8.09 46.562 0.031 6.86 0.02 11.47
4/8/2021 9:00:00 AM 8.07 46.526 0.031 6.82 -0.18 11.49
4/8/2021 9:15:00 AM 8.06 46.508 0.031 6.88 0.09 11.51
4/8/2021 9:30:00 AM 8.07 46.526 0.031 6.96 -0.27 11.54
4/8/2021 9:45:00 AM 8.1 46.58 0.031 6.94 -0.24 11.55
4/8/2021 10:00:00 AM 8.16 46.688 0.031 6.92 -0.23 11.55
4/8/2021 10:15:00 AM 8.24 46.832 0.031 6.98 -0.23 11.55
4/8/2021 10:30:00 AM 8.36 47.048 0.031 6.92 -0.22 11.55
4/8/2021 10:45:00 AM 8.5 47.3 0.031 7.01 -0.29 11.54
4/8/2021 11:00:00 AM 8.68 47.624 0.031 7.02 -0.1 11.52
4/8/2021 11:15:00 AM 8.87 47.966 0.031 7.01 -0.31 11.48
4/8/2021 11:30:00 AM 9.1 48.38 0.031 7.01 -0.21 11.43
4/8/2021 11:45:00 AM 9.33 48.794 0.031 7.07 -0.27 11.4
4/8/2021 12:00:00 PM 9.58 49.244 0.031 7.1 -0.21 11.34
4/8/2021 12:15:00 PM 9.85 49.73 0.031 7.12 -0.29 11.29
4/8/2021 12:30:00 PM 10.13 50.234 0.03 7.15 -0.21 11.24
4/8/2021 12:45:00 PM 10.39 50.702 0.03 7.15 -0.33 11.17
4/8/2021 1:00:00 PM 10.67 51.206 0.03 7.09 -0.07 11.11
4/8/2021 1:15:00 PM 10.93 51.674 0.03 7.12 -0.25 11.04
4/8/2021 1:30:00 PM 11.18 52.124 0.03 7.14 -0.22 10.98
4/8/2021 1:45:00 PM 11.42 52.556 0.03 7.19 -0.26 10.92
4/8/2021 2:00:00 PM 11.67 53.006 0.03 7.19 -0.21 10.85
4/8/2021 2:15:00 PM 11.89 53.402 0.03 7.17 -0.2 10.8
4/8/2021 2:30:00 PM 12.1 53.78 0.03 7.14 -0.04 10.74
4/8/2021 2:45:00 PM 12.28 54.104 0.03 7.16 -0.08 10.68
4/8/2021 3:00:00 PM 12.46 54.428 0.03 7.21 -0.06 10.62
4/8/2021 3:15:00 PM 12.65 54.77 0.03 7.23 -0.13 10.57
4/8/2021 3:30:00 PM 12.8 55.04 0.03 7.23 -0.16 10.52
4/8/2021 3:45:00 PM 12.93 55.274 0.03 7.26 -0.1 10.47
4/8/2021 4:00:00 PM 13.05 55.49 0.03 7.17 -0.16 10.42
4/8/2021 4:15:00 PM 13.15 55.67 0.031 7.24 -0.24 10.39
4/8/2021 4:30:00 PM 13.22 55.796 0.031 7.14 -0.04 10.35
4/8/2021 4:45:00 PM 13.26 55.868 0.03 7.16 -0.13 10.32
4/8/2021 5:00:00 PM 13.29 55.922 0.03 7.18 0.03 10.29
4/8/2021 5:15:00 PM 13.29 55.922 0.03 7.13 -0.01 10.27
4/8/2021 5:30:00 PM 13.28 55.904 0.03 7.1 0.04 10.25
4/8/2021 5:45:00 PM 13.23 55.814 0.03 7.04 0.08 10.22
4/8/2021 6:00:00 PM 13.18 55.724 0.03 7.05 -0.08 10.19
4/8/2021 6:15:00 PM 13.14 55.652 0.03 7.09 0 10.17
4/8/2021 6:30:00 PM 13.09 55.562 0.03 7.01 0.02 10.15
4/8/2021 6:45:00 PM 13.05 55.49 0.031 7.01 -0.05 10.14
4/8/2021 7:00:00 PM 13 55.4 0.031 7.02 -0.03 10.12
4/8/2021 7:15:00 PM 12.96 55.328 0.031 7.05 -0.05 10.1
4/8/2021 7:30:00 PM 12.89 55.202 0.031 6.95 -0.1 10.09
4/8/2021 7:45:00 PM 12.83 55.094 0.031 6.95 0.02 10.08
4/8/2021 8:00:00 PM 12.76 54.968 0.031 6.95 0.04 10.07
4/8/2021 8:15:00 PM 12.67 54.806 0.031 6.94 0.05 10.08
4/8/2021 8:30:00 PM 12.57 54.626 0.031 6.95 0.09 10.09
4/8/2021 8:45:00 PM 12.48 54.464 0.031 6.94 0.11 10.11
4/8/2021 9:00:00 PM 12.37 54.266 0.031 6.95 -0.02 10.13
4/8/2021 9:15:00 PM 12.26 54.068 0.031 6.97 0.03 10.15
4/8/2021 9:30:00 PM 12.16 53.888 0.031 6.91 0.17 10.18
4/8/2021 9:45:00 PM 12.04 53.672 0.031 6.92 0.14 10.21
4/8/2021 10:00:00 PM 11.93 53.474 0.031 6.91 -0.02 10.25
4/8/2021 10:15:00 PM 11.81 53.258 0.031 6.9 0.29 10.27
4/8/2021 10:30:00 PM 11.69 53.042 0.032 6.89 0.1 10.29
4/8/2021 10:45:00 PM 11.58 52.844 0.032 6.87 0.37 10.32
4/8/2021 11:00:00 PM 11.47 52.646 0.031 6.9 0.02 10.35
4/8/2021 11:15:00 PM 11.36 52.448 0.032 6.92 0.03 10.39
4/8/2021 11:30:00 PM 11.25 52.25 0.032 6.94 0.14 10.42
4/8/2021 11:45:00 PM 11.14 52.052 0.032 6.89 0.09 10.44
4/9/2021 12:00:00 AM 11.03 51.854 0.032 6.94 0.03 10.46
4/9/2021 12:15:00 AM 10.93 51.674 0.032 6.91 -0.09 10.49
4/9/2021 12:30:00 AM 10.83 51.494 0.032 6.91 0.24 10.53
4/9/2021 12:45:00 AM 10.74 51.332 0.032 6.9 0.04 10.55
4/9/2021 1:00:00 AM 10.66 51.188 0.032 6.93 0.04 10.58
4/9/2021 1:15:00 AM 10.58 51.044 0.032 6.93 0.2 10.6
4/9/2021 1:30:00 AM 10.49 50.882 0.032 6.93 -0.11 10.62
4/9/2021 1:45:00 AM 10.42 50.756 0.032 6.92 -0.03 10.64
4/9/2021 2:00:00 AM 10.35 50.63 0.032 6.93 -0.13 10.66
4/9/2021 2:15:00 AM 10.27 50.486 0.032 6.88 0.02 10.67
4/9/2021 2:30:00 AM 10.21 50.378 0.032 6.92 -0.09 10.69
4/9/2021 2:45:00 AM 10.14 50.252 0.032 6.9 -0.06 10.71
4/9/2021 3:00:00 AM 10.09 50.162 0.032 6.88 -0.09 10.74
4/9/2021 3:15:00 AM 10.05 50.09 0.032 6.91 -0.07 10.75
4/9/2021 3:30:00 AM 10 50 0.032 6.93 0 10.76
4/9/2021 3:45:00 AM 9.95 49.91 0.032 6.91 0.03 10.78
4/9/2021 4:00:00 AM 9.9 49.82 0.032 6.89 -0.01 10.79
4/9/2021 4:15:00 AM 9.86 49.748 0.033 6.9 -0.1 10.8
4/9/2021 4:30:00 AM 9.82 49.676 0.032 6.9 -0.06 10.81
4/9/2021 4:45:00 AM 9.79 49.622 0.031 6.9 0.05 10.82
4/9/2021 5:00:00 AM 9.75 49.55 0.032 6.91 0.14 10.83
4/9/2021 5:15:00 AM 9.72 49.496 0.032 6.95 -0.02 10.84
4/9/2021 5:30:00 AM 9.68 49.424 0.032 6.97 0.03 10.85
4/9/2021 5:45:00 AM 9.65 49.37 0.032 6.92 -0.14 10.85
4/9/2021 6:00:00 AM 9.62 49.316 0.032 6.93 0.29 10.86
4/9/2021 6:15:00 AM 9.59 49.262 0.032 6.97 0.03 10.87
4/9/2021 6:30:00 AM 9.56 49.208 0.032 6.93 -0.08 10.89
4/9/2021 6:45:00 AM 9.53 49.154 0.032 6.86 0.22 10.89
4/9/2021 7:00:00 AM 9.5 49.1 0.032 6.92 -0.06 10.91
4/9/2021 7:15:00 AM 9.48 49.064 0.032 6.88 -0.08 10.92
4/9/2021 7:30:00 AM 9.46 49.028 0.032 6.9 -0.04 10.94
4/9/2021 7:45:00 AM 9.44 48.992 0.032 6.9 0.01 10.98
4/9/2021 8:00:00 AM 9.43 48.974 0.032 6.95 0.54 11.01
4/9/2021 8:15:00 AM 9.41 48.938 0.032 6.93 0.05 11.02
4/9/2021 8:30:00 AM 9.4 48.92 0.032 6.92 -0.11 11.02
4/9/2021 8:45:00 AM 9.39 48.902 0.032 6.91 -0.11 11.07
4/9/2021 9:00:00 AM 9.39 48.902 0.032 6.86 0.25 11.1
4/9/2021 9:15:00 AM 9.38 48.884 0.031 6.97 0.25 11.09
4/9/2021 9:30:00 AM 9.37 48.866 0.031 6.98 -0.08 11.1
4/9/2021 9:45:00 AM 9.36 48.848 0.032 6.98 -0.14 11.12
4/9/2021 10:00:00 AM 9.37 48.866 0.031 6.98 -0.21 11.17
4/9/2021 10:15:00 AM 9.38 48.884 0.031 7.01 -0.16 11.19
4/9/2021 10:30:00 AM 9.38 48.884 0.031 7.04 -0.09 11.19
4/9/2021 10:45:00 AM 9.4 48.92 0.031 7.08 0.03 11.2
4/9/2021 11:00:00 AM 9.41 48.938 0.031 7.05 -0.12 11.22
4/9/2021 11:15:00 AM 9.45 49.01 0.031 7.06 0.58 11.24
4/9/2021 11:30:00 AM 9.48 49.064 0.031 7.08 -0.28 11.25
4/9/2021 11:45:00 AM 9.5 49.1 0.031 7.12 -0.07 11.24
4/9/2021 12:00:00 PM 9.53 49.154 0.031 7.16 0.1 11.24
4/9/2021 12:15:00 PM 9.59 49.262 0.031 7.14 -0.08 11.26
4/9/2021 12:30:00 PM 9.62 49.316 0.031 7.16 0.52 11.22
4/9/2021 12:45:00 PM 9.66 49.388 0.031 7.15 -0.19 11.21
4/9/2021 1:00:00 PM 9.7 49.46 0.031 7.15 -0.09 11.21
4/9/2021 1:15:00 PM 9.75 49.55 0.031 7.13 -0.06 11.21
4/9/2021 1:30:00 PM 9.77 49.586 0.03 7.19 -0.28 11.18
4/9/2021 1:45:00 PM 9.78 49.604 0.031 7.15 -0.2 11.16
4/9/2021 2:00:00 PM 9.81 49.658 0.031 7.11 0.29 11.17
4/9/2021 2:15:00 PM 9.84 49.712 0.031 7.09 -0.12 11.17
4/9/2021 2:30:00 PM 9.85 49.73 0.031 7.12 -0.13 11.15
4/9/2021 2:45:00 PM 9.87 49.766 0.031 7.14 0.71 11.16
4/9/2021 3:00:00 PM 9.89 49.802 0.031 7.16 -0.23 11.13
4/9/2021 3:15:00 PM 9.96 49.928 0.031 7.16 -0.24 11.15
4/9/2021 3:30:00 PM 10.01 50.018 0.031 7.11 -0.09 11.16
4/9/2021 3:45:00 PM 10.06 50.108 0.031 7.18 0.01 11.15
4/9/2021 4:00:00 PM 10.12 50.216 0.032 7.16 -0.02 11.14
4/9/2021 4:15:00 PM 10.17 50.306 0.031 7.18 -0.14 11.12
4/9/2021 4:30:00 PM 10.21 50.378 0.03 7.18 -0.19 11.1
4/9/2021 4:45:00 PM 10.23 50.414 0.031 7.16 3.58 11.06
4/9/2021 5:00:00 PM 10.25 50.45 0.032 7.15 -0.2 11.03
4/9/2021 5:15:00 PM 10.26 50.468 0.031 7.15 -0.11 11
4/9/2021 5:30:00 PM 10.25 50.45 0.031 7.14 -0.1 10.95
4/9/2021 5:45:00 PM 10.24 50.432 0.031 7.09 -0.19 10.95
4/9/2021 6:00:00 PM 10.23 50.414 0.031 7.08 -0.09 10.95
4/9/2021 6:15:00 PM 10.21 50.378 0.031 7.08 -0.14 10.9
4/9/2021 6:30:00 PM 10.2 50.36 0.031 7.06 -0.06 10.87
4/9/2021 6:45:00 PM 10.18 50.324 0.031 7.04 -0.01 10.86
4/9/2021 7:00:00 PM 10.17 50.306 0.031 7.03 -0.12 10.84
4/9/2021 7:15:00 PM 10.16 50.288 0.031 7.01 -0.15 10.83
4/9/2021 7:30:00 PM 10.15 50.27 0.032 7.01 -0.1 10.8
4/9/2021 7:45:00 PM 10.13 50.234 0.032 7.02 -0.2 10.79
4/9/2021 8:00:00 PM 10.12 50.216 0.031 6.99 -0.08 10.78
4/9/2021 8:15:00 PM 10.11 50.198 0.032 6.98 0.05 10.77
4/9/2021 8:30:00 PM 10.09 50.162 0.032 6.97 -0.04 10.77
4/9/2021 8:45:00 PM 10.08 50.144 0.031 6.94 0.03 10.77
4/9/2021 9:00:00 PM 10.06 50.108 0.031 6.94 0.48 10.78
4/9/2021 9:15:00 PM 10.03 50.054 0.031 6.91 -0.06 10.77
4/9/2021 9:30:00 PM 10.01 50.018 0.031 6.94 -0.01 10.78
4/9/2021 9:45:00 PM 9.99 49.982 0.031 6.91 0.23 10.79
4/9/2021 10:00:00 PM 9.96 49.928 0.031 6.92 0 10.8
4/9/2021 10:15:00 PM 9.94 49.892 0.032 6.96 0.79 10.81
4/9/2021 10:30:00 PM 9.92 49.856 0.032 6.94 -0.12 10.81
4/9/2021 10:45:00 PM 9.89 49.802 0.032 6.94 0.35 10.82
4/9/2021 11:00:00 PM 9.87 49.766 0.032 6.93 -0.14 10.83
4/9/2021 11:15:00 PM 9.85 49.73 0.032 6.94 0.08 10.83
4/9/2021 11:30:00 PM 9.83 49.694 0.032 6.94 -0.08 10.83
4/9/2021 11:45:00 PM 9.81 49.658 0.032 6.95 -0.03 10.83
4/10/2021 12:00:00 AM 9.79 49.622 0.032 6.94 -0.18 10.84
4/10/2021 12:15:00 AM 9.77 49.586 0.032 6.94 -0.06 10.84
4/10/2021 12:30:00 AM 9.75 49.55 0.032 6.93 -0.03 10.85
4/10/2021 12:45:00 AM 9.73 49.514 0.032 6.94 0.81 10.85
4/10/2021 1:00:00 AM 9.71 49.478 0.032 6.93 -0.03 10.86
4/10/2021 1:15:00 AM 9.69 49.442 0.032 6.95 0.51 10.86
4/10/2021 1:30:00 AM 9.67 49.406 0.032 6.94 -0.13 10.87
4/10/2021 1:45:00 AM 9.65 49.37 0.032 6.96 -0.04 10.87
4/10/2021 2:00:00 AM 9.63 49.334 0.032 6.95 -0.15 10.88
4/10/2021 2:15:00 AM 9.61 49.298 0.032 6.95 -0.12 10.88
4/10/2021 2:30:00 AM 9.59 49.262 0.032 6.96 0.02 10.89
4/10/2021 2:45:00 AM 9.57 49.226 0.032 6.92 0.08 10.89
4/10/2021 3:00:00 AM 9.56 49.208 0.032 6.91 -0.25 10.9
4/10/2021 3:15:00 AM 9.54 49.172 0.033 6.94 -0.16 10.9
4/10/2021 3:30:00 AM 9.52 49.136 0.032 6.92 0.29 10.9
4/10/2021 3:45:00 AM 9.5 49.1 0.032 6.91 0.01 10.91
4/10/2021 4:00:00 AM 9.49 49.082 0.032 6.88 -0.01 10.9
4/10/2021 4:15:00 AM 9.47 49.046 0.032 6.94 -0.13 10.9
4/10/2021 4:30:00 AM 9.45 49.01 0.032 6.91 0.01 10.91
4/10/2021 4:45:00 AM 9.44 48.992 0.032 6.94 0.2 10.91
4/10/2021 5:00:00 AM 9.42 48.956 0.032 6.92 -0.1 10.92
4/10/2021 5:15:00 AM 9.41 48.938 0.032 6.91 0.06 10.92
4/10/2021 5:30:00 AM 9.39 48.902 0.031 6.96 -0.17 10.92
4/10/2021 5:45:00 AM 9.38 48.884 0.032 6.92 -0.17 10.94
4/10/2021 6:00:00 AM 9.37 48.866 0.033 6.94 -0.04 10.94
4/10/2021 6:15:00 AM 9.35 48.83 0.032 6.91 -0.08 10.94
4/10/2021 6:30:00 AM 9.34 48.812 0.032 6.94 0.13 10.93
4/10/2021 6:45:00 AM 9.33 48.794 0.032 6.93 -0.19 10.95
4/10/2021 7:00:00 AM 9.32 48.776 0.032 6.92 -0.07 10.96
4/10/2021 7:15:00 AM 9.31 48.758 0.032 6.98 0.44 10.97
4/10/2021 7:30:00 AM 9.3 48.74 0.033 6.98 -0.09 10.99
4/10/2021 7:45:00 AM 9.3 48.74 0.032 6.96 -0.02 11.02
4/10/2021 8:00:00 AM 9.3 48.74 0.032 6.98 -0.15 11.05
4/10/2021 8:15:00 AM 9.3 48.74 0.032 6.99 -0.26 11.1
4/10/2021 8:30:00 AM 9.31 48.758 0.032 7 0 11.12
4/10/2021 8:45:00 AM 9.33 48.794 0.032 7.01 -0.14 11.16
4/10/2021 9:00:00 AM 9.35 48.83 0.032 7.04 -0.08 11.18
4/10/2021 9:15:00 AM 9.37 48.866 0.032 7.03 -0.3 11.19
4/10/2021 9:30:00 AM 9.4 48.92 0.032 7.03 -0.07 11.21
4/10/2021 9:45:00 AM 9.44 48.992 0.032 7.09 -0.24 11.23
4/10/2021 10:00:00 AM 9.48 49.064 0.032 7.12 -0.26 11.24
4/10/2021 10:15:00 AM 9.53 49.154 0.031 7.12 -0.07 11.24
4/10/2021 10:30:00 AM 9.6 49.28 0.031 7.13 -0.06 11.24
4/10/2021 10:45:00 AM 9.65 49.37 0.031 7.15 -0.1 11.23
4/10/2021 11:00:00 AM 9.71 49.478 0.031 7.17 -0.27 11.23
4/10/2021 11:15:00 AM 9.79 49.622 0.032 7.19 -0.18 11.23
4/10/2021 11:30:00 AM 9.88 49.784 0.032 7.2 -0.3 11.22
4/10/2021 11:45:00 AM 10 50 0.032 7.21 -0.1 11.21
4/10/2021 12:00:00 PM 10.17 50.306 0.031 7.18 -0.21 11.2
4/10/2021 12:15:00 PM 10.37 50.666 0.031 7.26 -0.27 11.15
4/10/2021 12:30:00 PM 10.62 51.116 0.031 7.27 -0.23 11.12
4/10/2021 12:45:00 PM 10.86 51.548 0.031 7.3 -0.13 11.06
4/10/2021 1:00:00 PM 11.1 51.98 0.031 7.26 -0.05 11
4/10/2021 1:15:00 PM 11.32 52.376 0.031 7.29 -0.03 10.96
4/10/2021 1:30:00 PM 11.56 52.808 0.031 7.27 -0.14 10.91
4/10/2021 1:45:00 PM 11.78 53.204 0.031 7.31 -0.12 10.84
4/10/2021 2:00:00 PM 11.9 53.42 0.031 7.33 -0.02 10.8
4/10/2021 2:15:00 PM 12.06 53.708 0.031 7.27 -0.16 10.76
4/10/2021 2:30:00 PM 12.22 53.996 0.031 7.38 0.03 10.71
4/10/2021 2:45:00 PM 12.39 54.302 0.031 7.41 0.16 10.66
4/10/2021 3:00:00 PM 12.56 54.608 0.031 7.37 -0.07 10.63
4/10/2021 3:15:00 PM 12.69 54.842 0.03 7.32 0.02 10.58
4/10/2021 3:30:00 PM 12.8 55.04 0.03 7.4 -0.04 10.54
4/10/2021 3:45:00 PM 12.87 55.166 0.03 7.36 0.06 10.5
4/10/2021 4:00:00 PM 12.94 55.292 0.031 7.46 -0.13 10.47
4/10/2021 4:15:00 PM 13.04 55.472 0.03 7.45 0.03 10.44
4/10/2021 4:30:00 PM 13.13 55.634 0.03 7.43 -0.01 10.41
4/10/2021 4:45:00 PM 13.2 55.76 0.03 7.38 0.08 10.38
4/10/2021 5:00:00 PM 13.24 55.832 0.031 7.44 -0.19 10.34
4/10/2021 5:15:00 PM 13.26 55.868 0.031 7.44 0.04 10.32
4/10/2021 5:30:00 PM 13.27 55.886 0.031 7.41 -0.13 10.29
4/10/2021 5:45:00 PM 13.27 55.886 0.03 7.26 -0.03 10.26
4/10/2021 6:00:00 PM 13.27 55.886 0.031 7.36 -0.05 10.24
4/10/2021 6:15:00 PM 13.25 55.85 0.031 7.31 0.04 10.21
4/10/2021 6:30:00 PM 13.23 55.814 0.031 7.31 0 10.18
4/10/2021 6:45:00 PM 13.2 55.76 0.031 7.29 -0.03 10.15
4/10/2021 7:00:00 PM 13.16 55.688 0.031 7.25 0 10.12
4/10/2021 7:15:00 PM 13.12 55.616 0.031 7.17 0.05 10.07
4/10/2021 7:30:00 PM 13.07 55.526 0.031 7.18 -0.1 10.04
4/10/2021 7:45:00 PM 13.02 55.436 0.031 7.16 -0.18 9.99
4/10/2021 8:00:00 PM 12.96 55.328 0.031 7.16 0.44 9.98
4/10/2021 8:15:00 PM 12.9 55.22 0.031 7.15 0.2 9.97
4/10/2021 8:30:00 PM 12.83 55.094 0.031 7.12 -0.02 9.97
4/10/2021 8:45:00 PM 12.76 54.968 0.031 7.1 0.15 9.98
4/10/2021 9:00:00 PM 12.68 54.824 0.031 7.13 1.3 9.99
4/10/2021 9:15:00 PM 12.61 54.698 0.032 7.07 0.09 10.01
4/10/2021 9:30:00 PM 12.53 54.554 0.032 7.07 0.32 10.02
4/10/2021 9:45:00 PM 12.46 54.428 0.033 7.09 -0.1 10.04
4/10/2021 10:00:00 PM 12.38 54.284 0.032 7.03 0.11 10.05
4/10/2021 10:15:00 PM 12.31 54.158 0.032 7.06 0.06 10.07
4/10/2021 10:30:00 PM 12.23 54.014 0.032 7.07 0.11 10.08
4/10/2021 10:45:00 PM 12.16 53.888 0.032 7.1 0.17 10.1
4/10/2021 11:00:00 PM 12.08 53.744 0.032 7.08 0.16 10.13
4/10/2021 11:15:00 PM 12.01 53.618 0.032 7.07 0.07 10.14
4/10/2021 11:30:00 PM 11.94 53.492 0.032 7.08 0.08 10.16
4/10/2021 11:45:00 PM 11.87 53.366 0.033 7.07 0.21 10.17
4/11/2021 12:00:00 AM 11.8 53.24 0.033 7.03 0.24 10.19
4/11/2021 12:15:00 AM 11.73 53.114 0.033 7.07 -0.05 10.2
4/11/2021 12:30:00 AM 11.66 52.988 0.032 7.06 0.17 10.21
4/11/2021 12:45:00 AM 11.6 52.88 0.033 7.08 -0.06 10.23
4/11/2021 1:00:00 AM 11.53 52.754 0.032 7.08 0.13 10.24
4/11/2021 1:15:00 AM 11.47 52.646 0.032 6.99 0.23 10.26
4/11/2021 1:30:00 AM 11.41 52.538 0.032 7.01 0.33 10.27
4/11/2021 1:45:00 AM 11.35 52.43 0.033 7.05 0.15 10.28
4/11/2021 2:00:00 AM 11.3 52.34 0.033 7.07 0.05 10.3
4/11/2021 2:15:00 AM 11.25 52.25 0.032 7.08 -0.06 10.3
4/11/2021 2:30:00 AM 11.2 52.16 0.033 7.09 0.03 10.31
4/11/2021 2:45:00 AM 11.15 52.07 0.032 7.08 0.15 10.32
4/11/2021 3:00:00 AM 11.1 51.98 0.033 7.07 0.03 10.33
4/11/2021 3:15:00 AM 11.05 51.89 0.032 7.06 0.11 10.33
4/11/2021 3:30:00 AM 11.01 51.818 0.033 7.09 0.02 10.34
4/11/2021 3:45:00 AM 10.97 51.746 0.032 7.02 0.05 10.35
4/11/2021 4:00:00 AM 10.93 51.674 0.033 7.05 0.06 10.36
4/11/2021 4:15:00 AM 10.89 51.602 0.032 7.06 0.05 10.37
4/11/2021 4:30:00 AM 10.85 51.53 0.032 7.06 0.39 10.36
4/11/2021 4:45:00 AM 10.82 51.476 0.032 7.03 0.15 10.38
4/11/2021 5:00:00 AM 10.78 51.404 0.033 7.08 0.15 10.38
4/11/2021 5:15:00 AM 10.75 51.35 0.032 7.08 0.28 10.39
4/11/2021 5:30:00 AM 10.72 51.296 0.033 7.07 0.11 10.39
4/11/2021 5:45:00 AM 10.69 51.242 0.032 7.05 0.56 10.41
4/11/2021 6:00:00 AM 10.66 51.188 0.033 7.06 0.21 10.4
4/11/2021 6:15:00 AM 10.63 51.134 0.032 7.05 0.13 10.41
4/11/2021 6:30:00 AM 10.61 51.098 0.033 7.06 0.11 10.42
4/11/2021 6:45:00 AM 10.58 51.044 0.033 7.08 0.12 10.42
4/11/2021 7:00:00 AM 10.56 51.008 0.032 7.06 1.29 10.44
4/11/2021 7:15:00 AM 10.54 50.972 0.032 6.96 0.11 10.44
4/11/2021 7:30:00 AM 10.52 50.936 0.032 6.99 0.84 10.45
4/11/2021 7:45:00 AM 10.5 50.9 0.032 7.03 -0.14 10.46
4/11/2021 8:00:00 AM 10.49 50.882 0.033 6.98 0.23 10.48
4/11/2021 8:15:00 AM 10.48 50.864 0.032 6.99 -0.01 10.49
4/11/2021 8:30:00 AM 10.47 50.846 0.032 7.05 0.11 10.52
4/11/2021 8:45:00 AM 10.47 50.846 0.032 7 0.13 10.56
4/11/2021 9:00:00 AM 10.46 50.828 0.032 7.02 0.04 10.6
4/11/2021 9:15:00 AM 10.47 50.846 0.032 7 0.15 10.64
4/11/2021 9:30:00 AM 10.47 50.846 0.032 7.09 0.02 10.68
4/11/2021 9:45:00 AM 10.47 50.846 0.032 7.08 0.2 10.7
4/11/2021 10:00:00 AM 10.49 50.882 0.032 7.11 0.2 10.72
4/11/2021 10:15:00 AM 10.5 50.9 0.032 7.13 0.92 10.74
4/11/2021 10:30:00 AM 10.51 50.918 0.031 7.11 0.11 10.72
4/11/2021 10:45:00 AM 10.52 50.936 0.031 7.11 0.41 10.73
4/11/2021 11:00:00 AM 10.55 50.99 0.032 7.16 0.12 10.75
4/11/2021 11:15:00 AM 10.58 51.044 0.031 7.14 0.22 10.77
4/11/2021 11:30:00 AM 10.63 51.134 0.031 7.14 0.09 10.8
4/11/2021 11:45:00 AM 10.69 51.242 0.031 7.16 0.28 10.82
4/11/2021 12:00:00 PM 10.76 51.368 0.032 7.17 0.36 10.83
4/11/2021 12:15:00 PM 10.83 51.494 0.031 7.19 0.31 10.82
4/11/2021 12:30:00 PM 10.92 51.656 0.031 7.21 0.18 10.81
4/11/2021 12:45:00 PM 11.02 51.836 0.031 7.2 0.05 10.8
4/11/2021 1:00:00 PM 11.13 52.034 0.031 7.19 0.31 10.78
4/11/2021 1:15:00 PM 11.22 52.196 0.031 7.28 1.07 10.77
4/11/2021 1:30:00 PM 11.31 52.358 0.031 7.26 0.2 10.74
4/11/2021 1:45:00 PM 11.38 52.484 0.031 7.21 0.23 10.72
4/11/2021 2:00:00 PM 11.48 52.664 0.031 7.27 0.17 10.69
4/11/2021 2:15:00 PM 11.62 52.916 0.03 7.24 0.07 10.67
4/11/2021 2:30:00 PM 11.68 53.024 0.03 7.3 1.59 10.64
4/11/2021 2:45:00 PM 11.75 53.15 0.031 7.27 0.26 10.62
4/11/2021 3:00:00 PM 11.84 53.312 0.03 7.26 0.18 10.6
4/11/2021 3:15:00 PM 11.93 53.474 0.03 7.25 0.3 10.58
4/11/2021 3:30:00 PM 12.02 53.636 0.03 7.23 1.15 10.56
4/11/2021 3:45:00 PM 12.05 53.69 0.03 7.19 0.21 10.51
4/11/2021 4:00:00 PM 12.1 53.78 0.031 7.22 0.13 10.49
4/11/2021 4:15:00 PM 12.16 53.888 0.03 7.19 0.09 10.47
4/11/2021 4:30:00 PM 12.19 53.942 0.03 7.28 0.11 10.44
4/11/2021 4:45:00 PM 12.23 54.014 0.031 7.18 0.15 10.39
4/11/2021 5:00:00 PM 12.26 54.068 0.031 7.18 0.12 10.38
4/11/2021 5:15:00 PM 12.28 54.104 0.03 7.15 0.18 10.35
4/11/2021 5:30:00 PM 12.28 54.104 0.03 7.12 0.98 10.37
4/11/2021 5:45:00 PM 12.3 54.14 0.03 7.12 0.17 10.34
4/11/2021 6:00:00 PM 12.27 54.086 0.031 7.13 0.06 10.31
4/11/2021 6:15:00 PM 12.26 54.068 0.031 7.11 0.05 10.3
4/11/2021 6:30:00 PM 12.25 54.05 0.031 7.15 0.63 10.33
4/11/2021 6:45:00 PM 12.23 54.014 0.031 7.09 0.09 10.24
4/11/2021 7:00:00 PM 12.21 53.978 0.031 7.09 0.07 10.22
4/11/2021 7:15:00 PM 12.19 53.942 0.031 7.08 0.11 10.2
4/11/2021 7:30:00 PM 12.16 53.888 0.031 7.02 -0.04 10.18
4/11/2021 7:45:00 PM 12.13 53.834 0.032 7.03 0.06 10.14
4/11/2021 8:00:00 PM 12.09 53.762 0.032 7.03 0.07 10.11
4/11/2021 8:15:00 PM 12.04 53.672 0.032 6.97 0.17 10.11
4/11/2021 8:30:00 PM 11.99 53.582 0.031 6.97 0.13 10.11
4/11/2021 8:45:00 PM 11.96 53.528 0.031 7.01 0.21 10.11
4/11/2021 9:00:00 PM 11.93 53.474 0.032 6.91 0.24 10.11
4/11/2021 9:15:00 PM 11.88 53.384 0.031 6.99 0.23 10.13
4/11/2021 9:30:00 PM 11.83 53.294 0.032 6.96 0.38 10.14
4/11/2021 9:45:00 PM 11.77 53.186 0.032 6.96 0.12 10.15
4/11/2021 10:00:00 PM 11.72 53.096 0.032 6.95 0.18 10.16
4/11/2021 10:15:00 PM 11.67 53.006 0.032 6.92 0.69 10.17
4/11/2021 10:30:00 PM 11.62 52.916 0.032 6.99 0.13 10.18
4/11/2021 10:45:00 PM 11.57 52.826 0.032 6.98 0.19 10.19
4/11/2021 11:00:00 PM 11.52 52.736 0.032 6.98 1.06 10.22
4/11/2021 11:15:00 PM 11.47 52.646 0.032 6.98 0.33 10.23
4/11/2021 11:30:00 PM 11.42 52.556 0.033 6.96 0.16 10.24
4/11/2021 11:45:00 PM 11.37 52.466 0.032 6.98 0.18 10.26
4/12/2021 12:00:00 AM 11.32 52.376 0.033 6.93 0.17 10.27
4/12/2021 12:15:00 AM 11.27 52.286 0.032 6.96 0.1 10.29
4/12/2021 12:30:00 AM 11.22 52.196 0.032 6.91 0.19 10.3
4/12/2021 12:45:00 AM 11.17 52.106 0.032 6.9 0.14 10.31
4/12/2021 1:00:00 AM 11.13 52.034 0.032 6.9 1.21 10.32
4/12/2021 1:15:00 AM 11.08 51.944 0.033 6.91 0.16 10.33
4/12/2021 1:30:00 AM 11.03 51.854 0.032 6.88 0.12 10.34
4/12/2021 1:45:00 AM 10.98 51.764 0.032 6.86 0.13 10.36
4/12/2021 2:00:00 AM 10.94 51.692 0.032 6.92 0.19 10.36
4/12/2021 2:15:00 AM 10.9 51.62 0.033 6.94 0.09 10.38
4/12/2021 2:30:00 AM 10.85 51.53 0.033 6.96 0.17 10.4
4/12/2021 2:45:00 AM 10.81 51.458 0.033 6.9 0.25 10.4
4/12/2021 3:00:00 AM 10.77 51.386 0.032 6.93 0.18 10.41
4/12/2021 3:15:00 AM 10.73 51.314 0.034 6.89 0.04 10.43
4/12/2021 3:30:00 AM 10.69 51.242 0.033 6.91 0.08 10.44
4/12/2021 3:45:00 AM 10.65 51.17 0.033 6.88 -0.01 10.45
4/12/2021 4:00:00 AM 10.61 51.098 0.033 6.86 0.01 10.46
4/12/2021 4:15:00 AM 10.57 51.026 0.033 6.9 0.04 10.47
4/12/2021 4:30:00 AM 10.53 50.954 0.033 6.91 0.01 10.48
4/12/2021 4:45:00 AM 10.49 50.882 0.033 6.9 0.11 10.49
4/12/2021 5:00:00 AM 10.45 50.81 0.033 6.9 0.08 10.5
4/12/2021 5:15:00 AM 10.41 50.738 0.033 6.89 0.05 10.51
4/12/2021 5:30:00 AM 10.37 50.666 0.033 6.9 0 10.52
4/12/2021 5:45:00 AM 10.34 50.612 0.033 6.9 0.13 10.53
4/12/2021 6:00:00 AM 10.31 50.558 0.033 6.9 0.02 10.54
4/12/2021 6:15:00 AM 10.28 50.504 0.033 6.94 0.16 10.55
4/12/2021 6:30:00 AM 10.24 50.432 0.033 6.95 0.14 10.57
4/12/2021 6:45:00 AM 10.21 50.378 0.033 6.91 0.13 10.58
4/12/2021 7:00:00 AM 10.18 50.324 0.033 7 -0.05 10.61
4/12/2021 7:15:00 AM 10.17 50.306 0.033 6.91 0.98 10.64
4/12/2021 7:30:00 AM 10.15 50.27 0.032 6.96 0.07 10.68
4/12/2021 7:45:00 AM 10.13 50.234 0.032 6.94 -0.02 10.69
4/12/2021 8:00:00 AM 10.11 50.198 0.032 6.99 -0.08 10.73
4/12/2021 8:15:00 AM 10.1 50.18 0.033 7 -0.06 10.75
4/12/2021 8:30:00 AM 10.09 50.162 0.033 6.98 -0.12 10.78
4/12/2021 8:45:00 AM 10.08 50.144 0.032 6.95 -0.09 10.8
4/12/2021 9:00:00 AM 10.08 50.144 0.032 7.05 -0.05 10.84
4/12/2021 9:15:00 AM 10.08 50.144 0.032 6.96 -0.08 10.86
4/12/2021 9:30:00 AM 10.07 50.126 0.032 7.04 -0.1 10.86
4/12/2021 9:45:00 AM 10.07 50.126 0.032 6.95 -0.14 10.87
4/12/2021 10:00:00 AM 10.06 50.108 0.032 7.09 -0.07 10.87
4/12/2021 10:15:00 AM 10.05 50.09 0.032 7.03 -0.05 10.85
4/12/2021 10:30:00 AM 10.05 50.09 0.032 7.02 0.56 10.88
4/12/2021 10:45:00 AM 10.06 50.108 0.032 7.09 -0.08 10.93
4/12/2021 11:00:00 AM 10.06 50.108 0.032 7.08 -0.03 10.93
4/12/2021 11:15:00 AM 10.05 50.09 0.032 7.05 0.95 10.89
4/12/2021 11:30:00 AM 10.05 50.09 0.032 7.07 0.26 10.87
4/12/2021 11:45:00 AM 10.04 50.072 0.031 7.02 0.79 10.91
4/12/2021 12:00:00 PM 10.05 50.09 0.031 7.07 0.51 10.9
4/12/2021 12:15:00 PM 10.05 50.09 0.031 7.03 0.3 10.92
4/12/2021 12:30:00 PM 10.06 50.108 0.031 7.08 0.31 10.92
4/12/2021 12:45:00 PM 10.07 50.126 0.031 7.03 0.37 10.94
4/12/2021 1:00:00 PM 10.09 50.162 0.031 7.08 1.19 10.97
4/12/2021 1:15:00 PM 10.09 50.162 0.031 7.09 0.55 10.97
4/12/2021 1:30:00 PM 10.16 50.288 0.031 7.08 0.63 11
4/12/2021 1:45:00 PM 10.16 50.288 0.031 7.07 0.57 10.97
4/12/2021 2:00:00 PM 10.16 50.288 0.031 7 0.56 10.93
4/12/2021 2:15:00 PM 10.18 50.324 0.031 7.04 0.67 10.95
4/12/2021 2:30:00 PM 10.17 50.306 0.032 7.06 0.73 10.9
4/12/2021 2:45:00 PM 10.18 50.324 0.031 7.03 0.83 10.89
4/12/2021 3:00:00 PM 10.22 50.396 0.031 7.04 1.99 10.93
4/12/2021 3:15:00 PM 10.25 50.45 0.031 6.99 1.1 10.96
4/12/2021 3:30:00 PM 10.26 50.468 0.031 7.04 1.23 10.94
4/12/2021 3:45:00 PM 10.24 50.432 0.031 7.08 1.82 10.91
4/12/2021 4:00:00 PM 10.25 50.45 0.031 7.11 1.02 10.92
4/12/2021 4:15:00 PM 10.26 50.468 0.031 7.04 1.02 10.92
4/12/2021 4:30:00 PM 10.27 50.486 0.031 6.96 2.21 10.92
4/12/2021 4:45:00 PM 10.27 50.486 0.031 7.06 1.47 10.91
4/12/2021 5:00:00 PM 10.27 50.486 0.031 7.03 1.08 10.95
4/12/2021 5:15:00 PM 10.26 50.468 0.031 7.1 1.2 10.88
4/12/2021 5:30:00 PM 10.23 50.414 0.031 6.96 2.05 10.83
4/12/2021 5:45:00 PM 10.21 50.378 0.031 6.97 1.14 10.81
4/12/2021 6:00:00 PM 10.19 50.342 0.031 6.98 0.85 10.8
4/12/2021 6:15:00 PM 10.17 50.306 0.031 6.94 1.05 10.81
4/12/2021 6:30:00 PM 10.14 50.252 0.031 7 0.82 10.79
4/12/2021 6:45:00 PM 10.11 50.198 0.032 6.97 0.76 10.78
4/12/2021 7:00:00 PM 10.09 50.162 0.032 6.89 0.81 10.76
4/12/2021 7:15:00 PM 10.06 50.108 0.032 6.85 0.81 10.76
4/12/2021 7:30:00 PM 10.03 50.054 0.032 6.87 1.06 10.76
4/12/2021 7:45:00 PM 9.99 49.982 0.032 6.92 0.86 10.8
4/12/2021 8:00:00 PM 9.96 49.928 0.032 6.89 0.9 10.8
4/12/2021 8:15:00 PM 9.91 49.838 0.032 6.9 1.26 10.78
4/12/2021 8:30:00 PM 9.88 49.784 0.032 6.94 0.59 10.77
4/12/2021 8:45:00 PM 9.84 49.712 0.032 6.95 0.62 10.81
4/12/2021 9:00:00 PM 9.81 49.658 0.032 6.92 0.73 10.79
4/12/2021 9:15:00 PM 9.78 49.604 0.032 6.91 0.51 10.8
4/12/2021 9:30:00 PM 9.75 49.55 0.032 6.89 0.49 10.81
4/12/2021 9:45:00 PM 9.72 49.496 0.032 6.93 0.78 10.85
4/12/2021 10:00:00 PM 9.69 49.442 0.032 6.94 0.44 10.82
4/12/2021 10:15:00 PM 9.66 49.388 0.032 6.96 0.43 10.83
4/12/2021 10:30:00 PM 9.63 49.334 0.032 6.88 0.52 10.88
4/12/2021 10:45:00 PM 9.6 49.28 0.032 6.96 0.97 10.85
4/12/2021 11:00:00 PM 9.58 49.244 0.032 6.95 0.59 10.89
4/12/2021 11:15:00 PM 9.55 49.19 0.033 6.94 0.46 10.87
4/12/2021 11:30:00 PM 9.53 49.154 0.033 6.99 0.47 10.88
4/12/2021 11:45:00 PM 9.5 49.1 0.032 6.99 0.56 10.89
4/13/2021 12:00:00 AM 9.48 49.064 0.032 6.93 0.52 10.89
4/13/2021 12:15:00 AM 9.45 49.01 0.032 6.97 1.31 10.91
4/13/2021 12:30:00 AM 9.43 48.974 0.032 6.97 1.14 10.91
4/13/2021 12:45:00 AM 9.4 48.92 0.032 6.9 0.49 10.96
4/13/2021 1:00:00 AM 9.38 48.884 0.032 6.96 0.46 10.93
4/13/2021 1:15:00 AM 9.36 48.848 0.032 6.92 0.49 10.94
4/13/2021 1:30:00 AM 9.33 48.794 0.033 6.9 0.6 10.95
4/13/2021 1:45:00 AM 9.31 48.758 0.032 6.98 0.44 10.95
4/13/2021 2:00:00 AM 9.29 48.722 0.033 6.97 0.42 11.03
4/13/2021 2:15:00 AM 9.27 48.686 0.032 6.98 1.4 10.97
4/13/2021 2:30:00 AM 9.24 48.632 0.033 6.98 0.31 10.99
4/13/2021 2:45:00 AM 9.22 48.596 0.033 7.01 0.42 11.03
4/13/2021 3:00:00 AM 9.2 48.56 0.032 7.01 0.58 10.98
4/13/2021 3:15:00 AM 9.17 48.506 0.032 6.88 1.86 10.99
4/13/2021 3:30:00 AM 9.15 48.47 0.033 7.01 1.24 11.03
4/13/2021 3:45:00 AM 9.12 48.416 0.032 7.03 0.87 11.01
4/13/2021 4:00:00 AM 9.1 48.38 0.032 6.96 0.31 11.01
4/13/2021 4:15:00 AM 9.08 48.344 0.033 7.04 0.31 11.02
4/13/2021 4:30:00 AM 9.06 48.308 0.033 6.98 0.36 11.02
4/13/2021 4:45:00 AM 9.04 48.272 0.032 7.03 0.39 11.03
4/13/2021 5:00:00 AM 9.02 48.236 0.033 7.01 0.56 11.11
4/13/2021 5:15:00 AM 9 48.2 0.033 6.98 0.21 11.04
4/13/2021 5:30:00 AM 8.99 48.182 0.032 7.02 0.24 11.05
4/13/2021 5:45:00 AM 8.97 48.146 0.032 6.9 0.15 11.05
4/13/2021 6:00:00 AM 8.95 48.11 0.033 6.98 0.41 11.11
4/13/2021 6:15:00 AM 8.93 48.074 0.033 6.93 0.46 11.07
4/13/2021 6:30:00 AM 8.91 48.038 0.032 6.91 0.35 11.08
4/13/2021 6:45:00 AM 8.9 48.02 0.032 6.92 0.32 11.09
4/13/2021 7:00:00 AM 8.88 47.984 0.032 6.94 0.21 11.11
4/13/2021 7:15:00 AM 8.87 47.966 0.032 6.97 0.28 11.13
4/13/2021 7:30:00 AM 8.86 47.948 0.032 6.91 0.52 11.15
4/13/2021 7:45:00 AM 8.85 47.93 0.032 6.86 0.98 11.18
4/13/2021 8:00:00 AM 8.84 47.912 0.033 7.01 0.09 11.2
4/13/2021 8:15:00 AM 8.84 47.912 0.032 7.02 0.11 11.23
4/13/2021 8:30:00 AM 8.84 47.912 0.032 7.06 0.01 11.26
4/13/2021 8:45:00 AM 8.84 47.912 0.033 7.02 0.23 11.28
4/13/2021 9:00:00 AM 8.84 47.912 0.032 7.03 -0.03 11.31
4/13/2021 9:15:00 AM 8.88 47.984 0.032 6.95 0.13 11.36
4/13/2021 9:30:00 AM 8.92 48.056 0.032 7.02 0.12 11.39
4/13/2021 9:45:00 AM 8.96 48.128 0.032 7.07 0.03 11.42
4/13/2021 10:00:00 AM 9.01 48.218 0.032 7.14 0.07 11.42
4/13/2021 10:15:00 AM 9.09 48.362 0.032 7.17 0.22 11.44
4/13/2021 10:30:00 AM 9.15 48.47 0.032 7.13 -0.06 11.43
4/13/2021 10:45:00 AM 9.21 48.578 0.032 7.17 0.44 11.43
4/13/2021 11:00:00 AM 9.3 48.74 0.032 6.94 -0.05 11.4
4/13/2021 11:15:00 AM 9.45 49.01 0.032 7.23 0.03 11.39
4/13/2021 11:30:00 AM 9.6 49.28 0.032 7.17 0.24 11.36
4/13/2021 11:45:00 AM 9.79 49.622 0.031 7.15 -0.04 11.33
4/13/2021 12:00:00 PM 10.05 50.09 0.031 7.14 -0.03 11.3
4/13/2021 12:15:00 PM 10.05 50.09 0.031 7.1 0.08 11.26
4/13/2021 12:30:00 PM 10.17 50.306 0.031 7.11 0.15 11.2
4/13/2021 12:45:00 PM 10.29 50.522 0.031 7.16 1.36 11.16
4/13/2021 1:00:00 PM 10.39 50.702 0.031 7.15 0.12 11.13
4/13/2021 1:15:00 PM 10.44 50.792 0.031 7.12 0.31 11.11
4/13/2021 1:30:00 PM 10.55 50.99 0.031 7.19 0.41 11.11
4/13/2021 1:45:00 PM 10.56 51.008 0.031 7.23 0.1 11.08
4/13/2021 2:00:00 PM 10.6 51.08 0.031 7.2 -0.04 11.08
4/13/2021 2:15:00 PM 10.6 51.08 0.031 7.14 0.05 11.05
4/13/2021 2:30:00 PM 10.6 51.08 0.031 7.13 0.17 10.99
4/13/2021 2:45:00 PM 10.62 51.116 0.031 7.07 0.27 10.94
4/13/2021 3:00:00 PM 10.67 51.206 0.031 7.14 0.21 10.95
4/13/2021 3:15:00 PM 10.74 51.332 0.031 7.16 0.05 10.97
4/13/2021 3:30:00 PM 10.81 51.458 0.031 7.11 0.03 10.97
4/13/2021 3:45:00 PM 10.86 51.548 0.031 7.08 -0.01 10.96
4/13/2021 4:00:00 PM 10.94 51.692 0.031 7.14 -0.03 10.96
4/13/2021 4:15:00 PM 11.05 51.89 0.031 7.1 0.11 10.96
4/13/2021 4:30:00 PM 11.13 52.034 0.031 7.18 0.07 10.94
4/13/2021 4:45:00 PM 11.13 52.034 0.031 7.14 -0.04 10.91
4/13/2021 5:00:00 PM 11.15 52.07 0.031 7.12 0.09 10.9
4/13/2021 5:15:00 PM 11.15 52.07 0.031 7.12 0.14 10.86
4/13/2021 5:30:00 PM 11.13 52.034 0.031 7.16 0.06 10.81
4/13/2021 5:45:00 PM 11.12 52.016 0.031 7.15 1.82 10.81
4/13/2021 6:00:00 PM 11.13 52.034 0.031 7.07 0.43 10.81
4/13/2021 6:15:00 PM 11.13 52.034 0.031 7.03 1.2 10.81
4/13/2021 6:30:00 PM 11.1 51.98 0.031 7.13 0.03 10.78
4/13/2021 6:45:00 PM 11.05 51.89 0.031 7.07 0.15 10.74
4/13/2021 7:00:00 PM 11 51.8 0.031 7.04 0.4 10.71
4/13/2021 7:15:00 PM 10.96 51.728 0.032 7.03 0.17 10.69
4/13/2021 7:30:00 PM 10.92 51.656 0.032 6.9 0.15 10.67
4/13/2021 7:45:00 PM 10.87 51.566 0.032 6.89 0.04 10.65
4/13/2021 8:00:00 PM 10.83 51.494 0.032 6.99 0.13 10.63
4/13/2021 8:15:00 PM 10.77 51.386 0.032 6.94 0.06 10.63
4/13/2021 8:30:00 PM 10.71 51.278 0.032 6.97 0.45 10.63
4/13/2021 8:45:00 PM 10.65 51.17 0.032 6.93 0.83 10.68
4/13/2021 9:00:00 PM 10.59 51.062 0.032 6.9 0.35 10.65
4/13/2021 9:15:00 PM 10.51 50.918 0.032 6.81 1.14 10.67
4/13/2021 9:30:00 PM 10.45 50.81 0.032 6.92 0.18 10.68
4/13/2021 9:45:00 PM 10.39 50.702 0.032 6.88 0.94 10.69
4/13/2021 10:00:00 PM 10.34 50.612 0.032 6.93 0.14 10.71
4/13/2021 10:15:00 PM 10.27 50.486 0.032 6.72 0.87 10.72
4/13/2021 10:30:00 PM 10.19 50.342 0.032 6.9 0.15 10.74
4/13/2021 10:45:00 PM 10.12 50.216 0.033 6.94 0.22 10.77
4/13/2021 11:00:00 PM 10.04 50.072 0.032 6.85 0.31 10.79
4/13/2021 11:15:00 PM 9.96 49.928 0.033 6.92 0.16 10.81
4/13/2021 11:30:00 PM 9.89 49.802 0.033 6.94 0.83 10.83
4/13/2021 11:45:00 PM 9.82 49.676 0.033 6.91 0.06 10.84
4/14/2021 12:00:00 AM 9.74 49.532 0.032 6.89 0.18 10.86
4/14/2021 12:15:00 AM 9.67 49.406 0.033 6.85 0.06 10.88
4/14/2021 12:30:00 AM 9.6 49.28 0.033 6.84 0.06 10.9
4/14/2021 12:45:00 AM 9.52 49.136 0.033 6.88 0.17 10.92
4/14/2021 1:00:00 AM 9.45 49.01 0.033 6.89 0.22 10.95
4/14/2021 1:15:00 AM 9.38 48.884 0.033 6.86 1.03 10.96
4/14/2021 1:30:00 AM 9.31 48.758 0.033 6.89 0.23 10.98
4/14/2021 1:45:00 AM 9.25 48.65 0.033 6.9 0.03 11
4/14/2021 2:00:00 AM 9.18 48.524 0.033 6.85 0.04 11.02
4/14/2021 2:15:00 AM 9.12 48.416 0.033 6.9 0.77 11.03
4/14/2021 2:30:00 AM 9.06 48.308 0.033 6.85 0.2 11.05
4/14/2021 2:45:00 AM 9.01 48.218 0.033 6.85 0.13 11.06
4/14/2021 3:00:00 AM 8.96 48.128 0.033 6.9 0.79 11.07
4/14/2021 3:15:00 AM 8.92 48.056 0.033 6.88 0.4 11.11
4/14/2021 3:30:00 AM 8.88 47.984 0.033 6.78 0.67 11.1
4/14/2021 3:45:00 AM 8.83 47.894 0.033 6.91 0.26 11.11
4/14/2021 4:00:00 AM 8.79 47.822 0.033 6.91 0.97 11.14
4/14/2021 4:15:00 AM 8.74 47.732 0.033 6.85 0.16 11.14
4/14/2021 4:30:00 AM 8.7 47.66 0.033 6.88 0.08 11.16
4/14/2021 4:45:00 AM 8.66 47.588 0.033 6.81 -0.04 11.17
4/14/2021 5:00:00 AM 8.62 47.516 0.033 6.78 0.06 11.18
4/14/2021 5:15:00 AM 8.58 47.444 0.033 6.84 0.14 11.19
4/14/2021 5:30:00 AM 8.55 47.39 0.033 6.81 -0.03 11.19
4/14/2021 5:45:00 AM 8.51 47.318 0.033 6.87 0.24 11.21
4/14/2021 6:00:00 AM 8.48 47.264 0.033 6.88 0.67 11.22
4/14/2021 6:15:00 AM 8.45 47.21 0.033 6.87 0.23 11.23
4/14/2021 6:30:00 AM 8.42 47.156 0.033 6.85 0.24 11.23
4/14/2021 6:45:00 AM 8.4 47.12 0.033 6.8 0.05 11.24
4/14/2021 7:00:00 AM 8.38 47.084 0.033 6.87 0.05 11.27
4/14/2021 7:15:00 AM 8.36 47.048 0.032 6.87 0.13 11.31
4/14/2021 7:30:00 AM 8.34 47.012 0.032 6.83 0.15 11.35
4/14/2021 7:45:00 AM 8.33 46.994 0.032 6.86 0.53 11.39
4/14/2021 8:00:00 AM 8.33 46.994 0.032 6.95 0.84 11.43
4/14/2021 8:15:00 AM 8.33 46.994 0.032 6.89 0.13 11.48
4/14/2021 8:30:00 AM 8.34 47.012 0.032 6.96 0.09 11.5
4/14/2021 8:45:00 AM 8.36 47.048 0.032 6.94 0.03 11.53
4/14/2021 9:00:00 AM 8.39 47.102 0.032 6.98 0.02 11.55
4/14/2021 9:15:00 AM 8.44 47.192 0.032 6.97 0 11.56
4/14/2021 9:30:00 AM 8.48 47.264 0.032 7.02 -0.07 11.56
4/14/2021 9:45:00 AM 8.51 47.318 0.032 7.03 -0.01 11.56
4/14/2021 10:00:00 AM 8.56 47.408 0.032 7.04 0.15 11.55
4/14/2021 10:15:00 AM 8.64 47.552 0.032 7.05 0.2 11.56
4/14/2021 10:30:00 AM 8.72 47.696 0.032 7.08 -0.11 11.56
4/14/2021 10:45:00 AM 8.8 47.84 0.032 7.08 1.31 11.54
4/14/2021 11:00:00 AM 8.88 47.984 0.032 7.11 -0.08 11.53
4/14/2021 11:15:00 AM 8.98 48.164 0.032 7.04 -0.19 11.51
4/14/2021 11:30:00 AM 9.08 48.344 0.031 7.13 -0.03 11.48
4/14/2021 11:45:00 AM 9.2 48.56 0.031 7.18 -0.04 11.46
4/14/2021 12:00:00 PM 9.41 48.938 0.031 7.1 0 11.43
4/14/2021 12:15:00 PM 9.56 49.208 0.031 7.08 1.01 11.39
4/14/2021 12:30:00 PM 9.71 49.478 0.031 7.17 0.04 11.35
4/14/2021 12:45:00 PM 9.92 49.856 0.031 7.13 0.06 11.31
4/14/2021 1:00:00 PM 10.14 50.252 0.031 7.15 0.22 11.26
4/14/2021 1:15:00 PM 10.37 50.666 0.031 7.21 -0.12 11.19
4/14/2021 1:30:00 PM 10.56 51.008 0.031 7.17 1.13 11.11
4/14/2021 1:45:00 PM 10.85 51.53 0.031 7.17 0.03 11.06
4/14/2021 2:00:00 PM 11.08 51.944 0.031 7.12 0 11
4/14/2021 2:15:00 PM 11.1 51.98 0.031 7.16 1.14 10.95
4/14/2021 2:30:00 PM 11.1 51.98 0.031 7.16 0.23 10.93
4/14/2021 2:45:00 PM 11.35 52.43 0.031 7.18 0 10.9
4/14/2021 3:00:00 PM 11.32 52.376 0.031 7.17 0.11 10.85
4/14/2021 3:15:00 PM 11.42 52.556 0.031 7.19 0.3 10.85
4/14/2021 3:30:00 PM 11.46 52.628 0.031 7.15 0.04 10.8
4/14/2021 3:45:00 PM 11.48 52.664 0.031 7.15 0.12 10.78
4/14/2021 4:00:00 PM 11.55 52.79 0.031 7.08 0.08 10.76
4/14/2021 4:15:00 PM 11.6 52.88 0.031 7.19 0.31 10.74
4/14/2021 4:30:00 PM 11.58 52.844 0.031 7.19 0.1 10.7
4/14/2021 4:45:00 PM 11.64 52.952 0.031 7.1 0.24 10.65
4/14/2021 5:00:00 PM 11.7 53.06 0.031 7.13 0.48 10.62
4/14/2021 5:15:00 PM 11.75 53.15 0.031 7.07 0.06 10.58
4/14/2021 5:30:00 PM 11.79 53.222 0.031 7.02 1.7 10.53
4/14/2021 5:45:00 PM 11.8 53.24 0.031 6.96 0.14 10.54
4/14/2021 6:00:00 PM 11.77 53.186 0.031 7.11 1.04 10.54
4/14/2021 6:15:00 PM 11.74 53.132 0.031 7.07 0.11 10.55
4/14/2021 6:30:00 PM 11.71 53.078 0.031 7.11 0.21 10.53
4/14/2021 6:45:00 PM 11.65 52.97 0.032 7.12 0.21 10.5
4/14/2021 7:00:00 PM 11.58 52.844 0.031 7.04 0.2 10.49
4/14/2021 7:15:00 PM 11.5 52.7 0.031 7.04 0.21 10.48
4/14/2021 7:30:00 PM 11.42 52.556 0.031 6.99 0.17 10.47
4/14/2021 7:45:00 PM 11.34 52.412 0.031 7.01 0.27 10.46
4/14/2021 8:00:00 PM 11.26 52.268 0.032 6.96 1.18 10.45
4/14/2021 8:15:00 PM 11.18 52.124 0.032 6.91 1.55 10.45
4/14/2021 8:30:00 PM 11.09 51.962 0.032 6.97 0.27 10.46
4/14/2021 8:45:00 PM 11 51.8 0.032 6.99 0.29 10.47
4/14/2021 9:00:00 PM 10.91 51.638 0.032 6.96 0.42 10.49
4/14/2021 9:15:00 PM 10.82 51.476 0.032 6.93 0.46 10.53
4/14/2021 9:30:00 PM 10.73 51.314 0.032 6.94 0.8 10.54
4/14/2021 9:45:00 PM 10.64 51.152 0.032 6.88 0.21 10.57
4/14/2021 10:00:00 PM 10.54 50.972 0.032 6.92 0.18 10.58
4/14/2021 10:15:00 PM 10.44 50.792 0.032 6.96 0.32 10.62
4/14/2021 10:30:00 PM 10.35 50.63 0.032 6.87 0.27 10.62
4/14/2021 10:45:00 PM 10.25 50.45 0.032 6.87 0.14 10.65
4/14/2021 11:00:00 PM 10.17 50.306 0.032 6.94 0.47 10.67
4/14/2021 11:15:00 PM 10.08 50.144 0.032 6.95 0.16 10.7
4/14/2021 11:30:00 PM 9.99 49.982 0.032 6.9 0.45 10.75
4/14/2021 11:45:00 PM 9.9 49.82 0.032 6.89 0.3 10.75
4/15/2021 12:00:00 AM 9.82 49.676 0.032 6.91 0.6 10.77
4/15/2021 12:15:00 AM 9.75 49.55 0.032 6.88 0.22 10.78
4/15/2021 12:30:00 AM 9.67 49.406 0.032 6.91 0.19 10.8
4/15/2021 12:45:00 AM 9.6 49.28 0.032 6.83 0.24 10.82
4/15/2021 1:00:00 AM 9.54 49.172 0.032 6.93 0.29 10.84
4/15/2021 1:15:00 AM 9.48 49.064 0.032 6.88 1.29 10.86
4/15/2021 1:30:00 AM 9.42 48.956 0.032 6.87 0.33 10.88
4/15/2021 1:45:00 AM 9.36 48.848 0.032 6.89 1.04 10.89
4/15/2021 2:00:00 AM 9.31 48.758 0.032 6.88 0.25 10.91
4/15/2021 2:15:00 AM 9.25 48.65 0.032 6.9 0.27 10.92
4/15/2021 2:30:00 AM 9.19 48.542 0.032 6.8 0.36 10.93
4/15/2021 2:45:00 AM 9.14 48.452 0.032 6.89 0.31 10.94
4/15/2021 3:00:00 AM 9.09 48.362 0.032 6.89 1.01 10.96
4/15/2021 3:15:00 AM 9.03 48.254 0.032 6.9 0.22 10.96
4/15/2021 3:30:00 AM 8.99 48.182 0.032 6.89 1.24 10.98
4/15/2021 3:45:00 AM 8.94 48.092 0.032 6.89 0.15 10.99
4/15/2021 4:00:00 AM 8.9 48.02 0.032 6.88 0.03 11
4/15/2021 4:15:00 AM 8.86 47.948 0.032 6.92 -0.01 11.01
4/15/2021 4:30:00 AM 8.82 47.876 0.033 6.84 0.1 11.02
4/15/2021 4:45:00 AM 8.79 47.822 0.032 6.91 0.17 11.03
4/15/2021 5:00:00 AM 8.75 47.75 0.032 6.88 0.14 11.05
4/15/2021 5:15:00 AM 8.7 47.66 0.032 6.85 0.19 11.05
4/15/2021 5:30:00 AM 8.66 47.588 0.032 6.86 0.09 11.07
4/15/2021 5:45:00 AM 8.62 47.516 0.032 6.93 0.07 11.08
4/15/2021 6:00:00 AM 8.59 47.462 0.032 6.86 0.13 11.09
4/15/2021 6:15:00 AM 8.55 47.39 0.032 6.89 1.24 11.1
4/15/2021 6:30:00 AM 8.51 47.318 0.032 6.89 1.01 11.1
4/15/2021 6:45:00 AM 8.48 47.264 0.032 6.89 0.8 11.12
4/15/2021 7:00:00 AM 8.45 47.21 0.032 6.82 0.91 11.14
4/15/2021 7:15:00 AM 8.42 47.156 0.032 6.91 0.2 11.16
4/15/2021 7:30:00 AM 8.4 47.12 0.032 6.91 0.11 11.2
4/15/2021 7:45:00 AM 8.39 47.102 0.032 6.93 0.24 11.24
4/15/2021 8:00:00 AM 8.38 47.084 0.032 6.95 0 11.27
4/15/2021 8:15:00 AM 8.36 47.048 0.032 6.94 0.06 11.27
4/15/2021 8:30:00 AM 8.35 47.03 0.032 6.96 0.14 11.28
4/15/2021 8:45:00 AM 8.35 47.03 0.032 6.96 0.02 11.32
4/15/2021 9:00:00 AM 8.35 47.03 0.032 6.95 -0.03 11.34
4/15/2021 9:15:00 AM 8.34 47.012 0.032 6.97 0.02 11.34
4/15/2021 9:30:00 AM 8.33 46.994 0.032 7 0.05 11.36
4/15/2021 9:45:00 AM 8.33 46.994 0.032 7.01 0.13 11.38
4/15/2021 10:00:00 AM 8.32 46.976 0.032 6.99 0.03 11.39
4/15/2021 10:15:00 AM 8.33 46.994 0.032 7.08 0.06 11.42
4/15/2021 10:30:00 AM 8.33 46.994 0.032 7.08 -0.01 11.43
4/15/2021 10:45:00 AM 8.37 47.066 0.032 7.02 0.07 11.47
4/15/2021 11:00:00 AM 8.47 47.246 0.031 7.03 -0.03 11.49
4/15/2021 11:15:00 AM 8.56 47.408 0.031 7.1 0.07 11.49
4/15/2021 11:30:00 AM 8.62 47.516 0.031 7.06 0.06 11.49
4/15/2021 11:45:00 AM 8.73 47.714 0.031 7.03 0.1 11.47
4/15/2021 12:00:00 PM 8.87 47.966 0.031 7.1 -0.01 11.44
4/15/2021 12:15:00 PM 8.98 48.164 0.031 7.12 0.06 11.39
4/15/2021 12:30:00 PM 9.09 48.362 0.031 7.12 -0.1 11.35
4/15/2021 12:45:00 PM 9.1 48.38 0.031 7.12 0.13 11.32
4/15/2021 1:00:00 PM 9.12 48.416 0.031 7.12 0.03 11.29
4/15/2021 1:15:00 PM 9.27 48.686 0.031 7.11 -0.11 11.31
4/15/2021 1:30:00 PM 9.19 48.542 0.031 7.14 0 11.29
4/15/2021 1:45:00 PM 9.19 48.542 0.031 7.11 0.05 11.3
4/15/2021 2:00:00 PM 9.14 48.452 0.031 7.11 0.02 11.31
4/15/2021 2:15:00 PM 9.11 48.398 0.031 7.09 0.03 11.31
4/15/2021 2:30:00 PM 9.14 48.452 0.031 7.14 0.06 11.3
4/15/2021 2:45:00 PM 9.19 48.542 0.031 7.12 -0.04 11.28
4/15/2021 3:00:00 PM 9.21 48.578 0.031 7.13 -0.09 11.25
4/15/2021 3:15:00 PM 9.23 48.614 0.031 7.11 -0.1 11.24
4/15/2021 3:30:00 PM 9.19 48.542 0.031 7.11 0.15 11.24
4/15/2021 3:45:00 PM 9.23 48.614 0.031 7.13 -0.06 11.27
4/15/2021 4:00:00 PM 9.24 48.632 0.031 7.09 0.07 11.27
4/15/2021 4:15:00 PM 9.3 48.74 0.032 7.15 0.09 11.27
4/15/2021 4:30:00 PM 9.27 48.686 0.031 7.13 0 11.26
4/15/2021 4:45:00 PM 9.28 48.704 0.031 7.13 -0.03 11.27
4/15/2021 5:00:00 PM 9.26 48.668 0.031 7.08 0.09 11.25
4/15/2021 5:15:00 PM 9.19 48.542 0.031 7.15 0.25 11.23
4/15/2021 5:30:00 PM 9.19 48.542 0.031 7.11 0.08 11.26
4/15/2021 5:45:00 PM 9.16 48.488 0.031 7.16 0.02 11.26
4/15/2021 6:00:00 PM 9.11 48.398 0.031 7.14 0.1 11.24
4/15/2021 6:15:00 PM 9.06 48.308 0.031 7.08 0.08 11.21
4/15/2021 6:30:00 PM 9.01 48.218 0.031 7.05 -0.06 11.19
4/15/2021 6:45:00 PM 8.94 48.092 0.031 7.11 -0.11 11.19
4/15/2021 7:00:00 PM 8.86 47.948 0.031 7.06 -0.1 11.17
4/15/2021 7:15:00 PM 8.82 47.876 0.031 7.06 0.1 11.16
4/15/2021 7:30:00 PM 8.77 47.786 0.031 7.02 0.14 11.16
4/15/2021 7:45:00 PM 8.71 47.678 0.031 7.03 -0.03 11.14
4/15/2021 8:00:00 PM 8.63 47.534 0.031 7 0.06 11.13
4/15/2021 8:15:00 PM 8.56 47.408 0.031 7.02 0.15 11.12
4/15/2021 8:30:00 PM 8.49 47.282 0.031 6.97 0.06 11.13
4/15/2021 8:45:00 PM 8.42 47.156 0.031 7.01 0.04 11.13
4/15/2021 9:00:00 PM 8.35 47.03 0.032 6.97 0.04 11.15
4/15/2021 9:15:00 PM 8.27 46.886 0.032 6.95 -0.03 11.17
4/15/2021 9:30:00 PM 8.21 46.778 0.032 6.94 0.12 11.19
4/15/2021 9:45:00 PM 8.14 46.652 0.032 6.98 0.01 11.21
4/15/2021 10:00:00 PM 8.08 46.544 0.032 6.92 0.06 11.23
4/15/2021 10:15:00 PM 8.01 46.418 0.032 6.95 0.03 11.25
4/15/2021 10:30:00 PM 7.95 46.31 0.032 6.97 0.12 11.27
4/15/2021 10:45:00 PM 7.89 46.202 0.032 6.95 0.06 11.29
4/15/2021 11:00:00 PM 7.84 46.112 0.032 6.97 0.1 11.3
4/15/2021 11:15:00 PM 7.79 46.022 0.032 7 0.16 11.31
4/15/2021 11:30:00 PM 7.73 45.914 0.032 7.01 0.11 11.33
4/15/2021 11:45:00 PM 7.68 45.824 0.032 6.93 0.19 11.34
4/16/2021 12:00:00 AM 7.62 45.716 0.032 6.96 0.17 11.35
4/16/2021 12:15:00 AM 7.57 45.626 0.032 6.96 0.13 11.37
4/16/2021 12:30:00 AM 7.52 45.536 0.032 6.98 0.09 11.39
4/16/2021 12:45:00 AM 7.47 45.446 0.032 6.95 -0.01 11.41
4/16/2021 1:00:00 AM 7.43 45.374 0.032 7 0.02 11.42
4/16/2021 1:15:00 AM 7.39 45.302 0.032 6.94 0.08 11.43
4/16/2021 1:30:00 AM 7.35 45.23 0.032 6.98 -0.04 11.44
4/16/2021 1:45:00 AM 7.32 45.176 0.032 6.99 0.07 11.45
4/16/2021 2:00:00 AM 7.29 45.122 0.032 7 0.03 11.46
4/16/2021 2:15:00 AM 7.26 45.068 0.032 6.99 0.09 11.46
4/16/2021 2:30:00 AM 7.23 45.014 0.032 6.94 -0.1 11.47
4/16/2021 2:45:00 AM 7.2 44.96 0.032 7.01 -0.01 11.48
4/16/2021 3:00:00 AM 7.17 44.906 0.032 6.93 -0.05 11.48
4/16/2021 3:15:00 AM 7.14 44.852 0.032 6.94 -0.02 11.49
4/16/2021 3:30:00 AM 7.12 44.816 0.032 6.95 -0.07 11.5
4/16/2021 3:45:00 AM 7.08 44.744 0.032 6.98 0.03 11.51
4/16/2021 4:00:00 AM 7.06 44.708 0.032 6.96 -0.16 11.52
4/16/2021 4:15:00 AM 7.03 44.654 0.032 7.01 -0.12 11.52
4/16/2021 4:30:00 AM 7.01 44.618 0.032 7.03 0.11 11.53
4/16/2021 4:45:00 AM 6.99 44.582 0.032 7 -0.21 11.54
4/16/2021 5:00:00 AM 6.97 44.546 0.032 7.08 -0.07 11.54
4/16/2021 5:15:00 AM 6.95 44.51 0.032 7.13 -0.08 11.55
4/16/2021 5:30:00 AM 6.93 44.474 0.032 7.11 -0.08 11.55
4/16/2021 5:45:00 AM 6.91 44.438 0.032 7.05 0.08 11.56
4/16/2021 6:00:00 AM 6.9 44.42 0.032 7.1 -0.12 11.56
4/16/2021 6:15:00 AM 6.89 44.402 0.032 7.07 0.06 11.56
4/16/2021 6:30:00 AM 6.88 44.384 0.032 7.13 -0.01 11.57
4/16/2021 6:45:00 AM 6.86 44.348 0.032 7.12 0 11.58
4/16/2021 7:00:00 AM 6.84 44.312 0.032 7.16 -0.07 11.59
4/16/2021 7:15:00 AM 6.83 44.294 0.032 7.1 -0.07 11.61
4/16/2021 7:30:00 AM 6.83 44.294 0.032 7.19 -0.09 11.65
4/16/2021 7:45:00 AM 6.83 44.294 0.032 7.19 -0.16 11.7
4/16/2021 8:00:00 AM 6.84 44.312 0.032 7.17 -0.09 11.73
4/16/2021 8:15:00 AM 6.85 44.33 0.032 7.14 -0.02 11.76
4/16/2021 8:30:00 AM 6.86 44.348 0.031 7.21 -0.07 11.77
4/16/2021 8:45:00 AM 6.86 44.348 0.031 7.25 -0.12 11.77
4/16/2021 9:00:00 AM 6.89 44.402 0.031 7.21 -0.14 11.8
4/16/2021 9:15:00 AM 6.91 44.438 0.031 7.23 -0.1 11.82
4/16/2021 9:30:00 AM 6.93 44.474 0.031 7.3 -0.12 11.81
4/16/2021 9:45:00 AM 6.95 44.51 0.031 7.31 -0.26 11.81
4/16/2021 10:00:00 AM 7.02 44.636 0.031 7.3 -0.09 11.84
4/16/2021 10:15:00 AM 7.07 44.726 0.031 7.28 -0.23 11.85
4/16/2021 10:30:00 AM 7.13 44.834 0.031 7.36 -0.09 11.85